<?xml version="1.0" encoding="UTF-8" standalone="no" ?>
<gpx xmlns="http://www.topografix.com/GPX/1/1" xmlns:xsi="http://www.w3.org/2001/XMLSchema-instance" xsi:schemaLocation="http://www.topografix.com/GPX/1/1 http://www.topografix.com/GPX/1/1/gpx.xsd" version="1.1" creator="VisuGPX - https://www.visugpx.com">
  <metadata>
    <name>Nord Toulousain version15 oct. 2022</name>
    <desc><![CDATA[
comment ...]]></desc>
  </metadata>
  <trk>
    <name><![CDATA[15 oct. 2022]]></name>
    <desc><![CDATA[comment ...]]></desc>
    <extensions>
      <line xmlns="http://www.topografix.com/GPX/gpx_style/0/2">
        <color>0000FF</color>
        <width>4</width>
      </line>
    </extensions>
    <trkseg>
      <trkpt lat="43.66317" lon="1.45297">
        <ele>138</ele>
        <time>2022-10-15T13:40:35Z</time>
      </trkpt>
      <trkpt lat="43.66321" lon="1.45294">
        <ele>138</ele>
        <time>2022-10-15T13:40:45Z</time>
      </trkpt>
      <trkpt lat="43.6635" lon="1.45238">
        <ele>136</ele>
        <time>2022-10-15T13:40:59Z</time>
      </trkpt>
      <trkpt lat="43.66359" lon="1.45204">
        <ele>134</ele>
        <time>2022-10-15T13:41:04Z</time>
      </trkpt>
      <trkpt lat="43.66367" lon="1.45181">
        <ele>133</ele>
        <time>2022-10-15T13:41:07Z</time>
      </trkpt>
      <trkpt lat="43.66366" lon="1.45169">
        <ele>134</ele>
        <time>2022-10-15T13:41:09Z</time>
      </trkpt>
      <trkpt lat="43.66365" lon="1.45164">
        <ele>134</ele>
        <time>2022-10-15T13:41:10Z</time>
      </trkpt>
      <trkpt lat="43.66366" lon="1.45158">
        <ele>135</ele>
        <time>2022-10-15T13:41:11Z</time>
      </trkpt>
      <trkpt lat="43.66364" lon="1.45138">
        <ele>135</ele>
        <time>2022-10-15T13:41:14Z</time>
      </trkpt>
      <trkpt lat="43.66368" lon="1.45125">
        <ele>136</ele>
        <time>2022-10-15T13:41:16Z</time>
      </trkpt>
      <trkpt lat="43.66383" lon="1.45103">
        <ele>136</ele>
        <time>2022-10-15T13:41:20Z</time>
      </trkpt>
      <trkpt lat="43.66393" lon="1.45072">
        <ele>136</ele>
        <time>2022-10-15T13:41:24Z</time>
      </trkpt>
      <trkpt lat="43.66397" lon="1.45037">
        <ele>136</ele>
        <time>2022-10-15T13:41:28Z</time>
      </trkpt>
      <trkpt lat="43.66398" lon="1.45028">
        <ele>136</ele>
        <time>2022-10-15T13:41:29Z</time>
      </trkpt>
      <trkpt lat="43.66399" lon="1.4502">
        <ele>136</ele>
        <time>2022-10-15T13:41:30Z</time>
      </trkpt>
      <trkpt lat="43.66409" lon="1.45008">
        <ele>136</ele>
        <time>2022-10-15T13:41:32Z</time>
      </trkpt>
      <trkpt lat="43.66415" lon="1.44993">
        <ele>136</ele>
        <time>2022-10-15T13:41:34Z</time>
      </trkpt>
      <trkpt lat="43.66439" lon="1.44917">
        <ele>135</ele>
        <time>2022-10-15T13:41:43Z</time>
      </trkpt>
      <trkpt lat="43.66447" lon="1.44902">
        <ele>135</ele>
        <time>2022-10-15T13:41:45Z</time>
      </trkpt>
      <trkpt lat="43.66512" lon="1.44715">
        <ele>135</ele>
        <time>2022-10-15T13:42:10Z</time>
      </trkpt>
      <trkpt lat="43.66515" lon="1.44712">
        <ele>135</ele>
        <time>2022-10-15T13:42:11Z</time>
      </trkpt>
      <trkpt lat="43.66555" lon="1.44736">
        <ele>136</ele>
        <time>2022-10-15T13:42:21Z</time>
      </trkpt>
      <trkpt lat="43.66584" lon="1.44776">
        <ele>135</ele>
        <time>2022-10-15T13:42:28Z</time>
      </trkpt>
      <trkpt lat="43.66634" lon="1.44852">
        <ele>134</ele>
        <time>2022-10-15T13:42:40Z</time>
      </trkpt>
      <trkpt lat="43.66639" lon="1.44856">
        <ele>134</ele>
        <time>2022-10-15T13:42:41Z</time>
      </trkpt>
      <trkpt lat="43.66661" lon="1.44862">
        <ele>133</ele>
        <time>2022-10-15T13:42:45Z</time>
      </trkpt>
      <trkpt lat="43.66679" lon="1.4486">
        <ele>134</ele>
        <time>2022-10-15T13:42:48Z</time>
      </trkpt>
      <trkpt lat="43.66696" lon="1.44853">
        <ele>134</ele>
        <time>2022-10-15T13:42:51Z</time>
      </trkpt>
      <trkpt lat="43.66733" lon="1.44823">
        <ele>134</ele>
        <time>2022-10-15T13:42:58Z</time>
      </trkpt>
      <trkpt lat="43.66738" lon="1.44821">
        <ele>134</ele>
        <time>2022-10-15T13:42:59Z</time>
      </trkpt>
      <trkpt lat="43.66744" lon="1.44822">
        <ele>134</ele>
        <time>2022-10-15T13:43:00Z</time>
      </trkpt>
      <trkpt lat="43.66749" lon="1.44825">
        <ele>134</ele>
        <time>2022-10-15T13:43:01Z</time>
      </trkpt>
      <trkpt lat="43.66754" lon="1.4483">
        <ele>134</ele>
        <time>2022-10-15T13:43:02Z</time>
      </trkpt>
      <trkpt lat="43.66756" lon="1.44837">
        <ele>134</ele>
        <time>2022-10-15T13:43:03Z</time>
      </trkpt>
      <trkpt lat="43.66761" lon="1.44867">
        <ele>134</ele>
        <time>2022-10-15T13:43:07Z</time>
      </trkpt>
      <trkpt lat="43.66764" lon="1.44874">
        <ele>133</ele>
        <time>2022-10-15T13:43:08Z</time>
      </trkpt>
      <trkpt lat="43.66777" lon="1.44889">
        <ele>133</ele>
        <time>2022-10-15T13:43:11Z</time>
      </trkpt>
      <trkpt lat="43.66796" lon="1.44906">
        <ele>133</ele>
        <time>2022-10-15T13:43:15Z</time>
      </trkpt>
      <trkpt lat="43.66857" lon="1.44929">
        <ele>133</ele>
        <time>2022-10-15T13:43:26Z</time>
      </trkpt>
      <trkpt lat="43.66914" lon="1.44944">
        <ele>134</ele>
        <time>2022-10-15T13:43:36Z</time>
      </trkpt>
      <trkpt lat="43.66924" lon="1.44951">
        <ele>134</ele>
        <time>2022-10-15T13:43:38Z</time>
      </trkpt>
      <trkpt lat="43.66932" lon="1.44962">
        <ele>134</ele>
        <time>2022-10-15T13:43:40Z</time>
      </trkpt>
      <trkpt lat="43.67016" lon="1.45155">
        <ele>133</ele>
        <time>2022-10-15T13:44:09Z</time>
      </trkpt>
      <trkpt lat="43.67024" lon="1.45166">
        <ele>133</ele>
        <time>2022-10-15T13:44:11Z</time>
      </trkpt>
      <trkpt lat="43.67026" lon="1.45173">
        <ele>133</ele>
        <time>2022-10-15T13:44:12Z</time>
      </trkpt>
      <trkpt lat="43.67018" lon="1.45194">
        <ele>133</ele>
        <time>2022-10-15T13:44:15Z</time>
      </trkpt>
      <trkpt lat="43.67005" lon="1.45222">
        <ele>133</ele>
        <time>2022-10-15T13:44:19Z</time>
      </trkpt>
      <trkpt lat="43.66995" lon="1.45229">
        <ele>133</ele>
        <time>2022-10-15T13:44:21Z</time>
      </trkpt>
      <trkpt lat="43.66984" lon="1.45233">
        <ele>133</ele>
        <time>2022-10-15T13:44:23Z</time>
      </trkpt>
      <trkpt lat="43.66967" lon="1.45233">
        <ele>133</ele>
        <time>2022-10-15T13:44:26Z</time>
      </trkpt>
      <trkpt lat="43.6695" lon="1.45231">
        <ele>133</ele>
        <time>2022-10-15T13:44:29Z</time>
      </trkpt>
      <trkpt lat="43.66944" lon="1.45232">
        <ele>133</ele>
        <time>2022-10-15T13:44:30Z</time>
      </trkpt>
      <trkpt lat="43.66939" lon="1.45235">
        <ele>133</ele>
        <time>2022-10-15T13:44:31Z</time>
      </trkpt>
      <trkpt lat="43.66934" lon="1.45238">
        <ele>133</ele>
        <time>2022-10-15T13:44:32Z</time>
      </trkpt>
      <trkpt lat="43.66931" lon="1.45245">
        <ele>133</ele>
        <time>2022-10-15T13:44:33Z</time>
      </trkpt>
      <trkpt lat="43.66928" lon="1.45252">
        <ele>133</ele>
        <time>2022-10-15T13:44:34Z</time>
      </trkpt>
      <trkpt lat="43.66927" lon="1.45268">
        <ele>133</ele>
        <time>2022-10-15T13:44:36Z</time>
      </trkpt>
      <trkpt lat="43.66929" lon="1.45283">
        <ele>133</ele>
        <time>2022-10-15T13:44:38Z</time>
      </trkpt>
      <trkpt lat="43.66933" lon="1.45298">
        <ele>133</ele>
        <time>2022-10-15T13:44:40Z</time>
      </trkpt>
      <trkpt lat="43.6696" lon="1.45349">
        <ele>133</ele>
        <time>2022-10-15T13:44:48Z</time>
      </trkpt>
      <trkpt lat="43.66992" lon="1.45394">
        <ele>133</ele>
        <time>2022-10-15T13:44:56Z</time>
      </trkpt>
      <trkpt lat="43.67017" lon="1.45466">
        <ele>133</ele>
        <time>2022-10-15T13:45:06Z</time>
      </trkpt>
      <trkpt lat="43.67025" lon="1.45476">
        <ele>133</ele>
        <time>2022-10-15T13:45:08Z</time>
      </trkpt>
      <trkpt lat="43.67051" lon="1.45489">
        <ele>133</ele>
        <time>2022-10-15T13:45:13Z</time>
      </trkpt>
      <trkpt lat="43.67062" lon="1.45492">
        <ele>133</ele>
        <time>2022-10-15T13:45:15Z</time>
      </trkpt>
      <trkpt lat="43.67078" lon="1.45493">
        <ele>133</ele>
        <time>2022-10-15T13:45:18Z</time>
      </trkpt>
      <trkpt lat="43.67089" lon="1.45489">
        <ele>133</ele>
        <time>2022-10-15T13:45:20Z</time>
      </trkpt>
      <trkpt lat="43.67103" lon="1.45477">
        <ele>134</ele>
        <time>2022-10-15T13:45:23Z</time>
      </trkpt>
      <trkpt lat="43.67115" lon="1.45463">
        <ele>134</ele>
        <time>2022-10-15T13:45:26Z</time>
      </trkpt>
      <trkpt lat="43.6712" lon="1.4546">
        <ele>134</ele>
        <time>2022-10-15T13:45:27Z</time>
      </trkpt>
      <trkpt lat="43.67125" lon="1.45458">
        <ele>134</ele>
        <time>2022-10-15T13:45:28Z</time>
      </trkpt>
      <trkpt lat="43.6714" lon="1.45465">
        <ele>134</ele>
        <time>2022-10-15T13:45:31Z</time>
      </trkpt>
      <trkpt lat="43.67163" lon="1.45484">
        <ele>135</ele>
        <time>2022-10-15T13:45:36Z</time>
      </trkpt>
      <trkpt lat="43.67167" lon="1.45489">
        <ele>135</ele>
        <time>2022-10-15T13:45:37Z</time>
      </trkpt>
      <trkpt lat="43.67172" lon="1.45492">
        <ele>135</ele>
        <time>2022-10-15T13:45:38Z</time>
      </trkpt>
      <trkpt lat="43.67177" lon="1.45492">
        <ele>135</ele>
        <time>2022-10-15T13:45:39Z</time>
      </trkpt>
      <trkpt lat="43.67214" lon="1.45466">
        <ele>134</ele>
        <time>2022-10-15T13:45:47Z</time>
      </trkpt>
      <trkpt lat="43.67226" lon="1.45453">
        <ele>135</ele>
        <time>2022-10-15T13:45:50Z</time>
      </trkpt>
      <trkpt lat="43.67228" lon="1.45448">
        <ele>135</ele>
        <time>2022-10-15T13:45:51Z</time>
      </trkpt>
      <trkpt lat="43.67228" lon="1.45441">
        <ele>135</ele>
        <time>2022-10-15T13:45:52Z</time>
      </trkpt>
      <trkpt lat="43.67224" lon="1.4543">
        <ele>135</ele>
        <time>2022-10-15T13:45:54Z</time>
      </trkpt>
      <trkpt lat="43.67199" lon="1.45388">
        <ele>135</ele>
        <time>2022-10-15T13:46:02Z</time>
      </trkpt>
      <trkpt lat="43.67198" lon="1.45382">
        <ele>135</ele>
        <time>2022-10-15T13:46:04Z</time>
      </trkpt>
      <trkpt lat="43.67201" lon="1.45379">
        <ele>135</ele>
        <time>2022-10-15T13:46:08Z</time>
      </trkpt>
      <trkpt lat="43.67205" lon="1.4538">
        <ele>135</ele>
        <time>2022-10-15T13:46:11Z</time>
      </trkpt>
      <trkpt lat="43.6727" lon="1.45334">
        <ele>140</ele>
        <time>2022-10-15T13:46:32Z</time>
      </trkpt>
      <trkpt lat="43.67284" lon="1.45319">
        <ele>139</ele>
        <time>2022-10-15T13:46:36Z</time>
      </trkpt>
      <trkpt lat="43.67325" lon="1.45303">
        <ele>138</ele>
        <time>2022-10-15T13:46:44Z</time>
      </trkpt>
      <trkpt lat="43.67337" lon="1.45304">
        <ele>138</ele>
        <time>2022-10-15T13:46:46Z</time>
      </trkpt>
      <trkpt lat="43.67372" lon="1.45313">
        <ele>137</ele>
        <time>2022-10-15T13:46:52Z</time>
      </trkpt>
      <trkpt lat="43.67383" lon="1.45311">
        <ele>137</ele>
        <time>2022-10-15T13:46:54Z</time>
      </trkpt>
      <trkpt lat="43.67426" lon="1.45286">
        <ele>137</ele>
        <time>2022-10-15T13:47:02Z</time>
      </trkpt>
      <trkpt lat="43.67431" lon="1.45287">
        <ele>137</ele>
        <time>2022-10-15T13:47:03Z</time>
      </trkpt>
      <trkpt lat="43.67436" lon="1.45292">
        <ele>137</ele>
        <time>2022-10-15T13:47:04Z</time>
      </trkpt>
      <trkpt lat="43.67449" lon="1.45328">
        <ele>137</ele>
        <time>2022-10-15T13:47:09Z</time>
      </trkpt>
      <trkpt lat="43.67465" lon="1.45352">
        <ele>137</ele>
        <time>2022-10-15T13:47:13Z</time>
      </trkpt>
      <trkpt lat="43.6747" lon="1.45366">
        <ele>137</ele>
        <time>2022-10-15T13:47:15Z</time>
      </trkpt>
      <trkpt lat="43.67483" lon="1.45381">
        <ele>137</ele>
        <time>2022-10-15T13:47:18Z</time>
      </trkpt>
      <trkpt lat="43.67493" lon="1.45389">
        <ele>137</ele>
        <time>2022-10-15T13:47:20Z</time>
      </trkpt>
      <trkpt lat="43.67499" lon="1.45389">
        <ele>137</ele>
        <time>2022-10-15T13:47:21Z</time>
      </trkpt>
      <trkpt lat="43.67513" lon="1.45376">
        <ele>137</ele>
        <time>2022-10-15T13:47:24Z</time>
      </trkpt>
      <trkpt lat="43.67526" lon="1.45358">
        <ele>137</ele>
        <time>2022-10-15T13:47:27Z</time>
      </trkpt>
      <trkpt lat="43.67547" lon="1.45344">
        <ele>137</ele>
        <time>2022-10-15T13:47:31Z</time>
      </trkpt>
      <trkpt lat="43.67557" lon="1.45346">
        <ele>137</ele>
        <time>2022-10-15T13:47:33Z</time>
      </trkpt>
      <trkpt lat="43.67609" lon="1.45318">
        <ele>138</ele>
        <time>2022-10-15T13:47:44Z</time>
      </trkpt>
      <trkpt lat="43.67649" lon="1.45311">
        <ele>137</ele>
        <time>2022-10-15T13:47:53Z</time>
      </trkpt>
      <trkpt lat="43.67686" lon="1.45323">
        <ele>137</ele>
        <time>2022-10-15T13:48:02Z</time>
      </trkpt>
      <trkpt lat="43.67705" lon="1.45327">
        <ele>137</ele>
        <time>2022-10-15T13:48:06Z</time>
      </trkpt>
      <trkpt lat="43.67715" lon="1.45332">
        <ele>137</ele>
        <time>2022-10-15T13:48:09Z</time>
      </trkpt>
      <trkpt lat="43.67802" lon="1.45398">
        <ele>137</ele>
        <time>2022-10-15T13:48:30Z</time>
      </trkpt>
      <trkpt lat="43.67812" lon="1.45402">
        <ele>137</ele>
        <time>2022-10-15T13:48:32Z</time>
      </trkpt>
      <trkpt lat="43.67846" lon="1.45434">
        <ele>138</ele>
        <time>2022-10-15T13:48:40Z</time>
      </trkpt>
      <trkpt lat="43.6785" lon="1.45437">
        <ele>138</ele>
        <time>2022-10-15T13:48:41Z</time>
      </trkpt>
      <trkpt lat="43.67854" lon="1.45437">
        <ele>138</ele>
        <time>2022-10-15T13:48:42Z</time>
      </trkpt>
      <trkpt lat="43.67858" lon="1.45437">
        <ele>138</ele>
        <time>2022-10-15T13:48:43Z</time>
      </trkpt>
      <trkpt lat="43.6787" lon="1.45429">
        <ele>138</ele>
        <time>2022-10-15T13:48:46Z</time>
      </trkpt>
      <trkpt lat="43.67914" lon="1.45393">
        <ele>138</ele>
        <time>2022-10-15T13:48:55Z</time>
      </trkpt>
      <trkpt lat="43.67919" lon="1.45391">
        <ele>138</ele>
        <time>2022-10-15T13:48:56Z</time>
      </trkpt>
      <trkpt lat="43.67924" lon="1.45392">
        <ele>138</ele>
        <time>2022-10-15T13:48:57Z</time>
      </trkpt>
      <trkpt lat="43.67929" lon="1.45393">
        <ele>138</ele>
        <time>2022-10-15T13:48:58Z</time>
      </trkpt>
      <trkpt lat="43.67977" lon="1.45364">
        <ele>139</ele>
        <time>2022-10-15T13:49:07Z</time>
      </trkpt>
      <trkpt lat="43.68003" lon="1.45344">
        <ele>139</ele>
        <time>2022-10-15T13:49:12Z</time>
      </trkpt>
      <trkpt lat="43.68119" lon="1.45246">
        <ele>139</ele>
        <time>2022-10-15T13:49:35Z</time>
      </trkpt>
      <trkpt lat="43.68157" lon="1.4521">
        <ele>139</ele>
        <time>2022-10-15T13:49:43Z</time>
      </trkpt>
      <trkpt lat="43.68166" lon="1.45209">
        <ele>138</ele>
        <time>2022-10-15T13:49:45Z</time>
      </trkpt>
      <trkpt lat="43.68169" lon="1.45215">
        <ele>138</ele>
        <time>2022-10-15T13:49:46Z</time>
      </trkpt>
      <trkpt lat="43.68223" lon="1.45427">
        <ele>140</ele>
        <time>2022-10-15T13:50:16Z</time>
      </trkpt>
      <trkpt lat="43.68225" lon="1.45435">
        <ele>140</ele>
        <time>2022-10-15T13:50:17Z</time>
      </trkpt>
      <trkpt lat="43.6826" lon="1.45552">
        <ele>140</ele>
        <time>2022-10-15T13:50:33Z</time>
      </trkpt>
      <trkpt lat="43.6828" lon="1.45659">
        <ele>141</ele>
        <time>2022-10-15T13:50:47Z</time>
      </trkpt>
      <trkpt lat="43.68277" lon="1.45781">
        <ele>142</ele>
        <time>2022-10-15T13:51:03Z</time>
      </trkpt>
      <trkpt lat="43.68264" lon="1.45971">
        <ele>146</ele>
        <time>2022-10-15T13:51:33Z</time>
      </trkpt>
      <trkpt lat="43.68266" lon="1.45998">
        <ele>147</ele>
        <time>2022-10-15T13:51:37Z</time>
      </trkpt>
      <trkpt lat="43.68284" lon="1.46124">
        <ele>154</ele>
        <time>2022-10-15T13:52:00Z</time>
      </trkpt>
      <trkpt lat="43.68286" lon="1.46129">
        <ele>154</ele>
        <time>2022-10-15T13:52:01Z</time>
      </trkpt>
      <trkpt lat="43.68362" lon="1.4625">
        <ele>150</ele>
        <time>2022-10-15T13:52:21Z</time>
      </trkpt>
      <trkpt lat="43.68368" lon="1.46256">
        <ele>149</ele>
        <time>2022-10-15T13:52:23Z</time>
      </trkpt>
      <trkpt lat="43.68372" lon="1.46253">
        <ele>149</ele>
        <time>2022-10-15T13:52:26Z</time>
      </trkpt>
      <trkpt lat="43.68375" lon="1.46247">
        <ele>150</ele>
        <time>2022-10-15T13:52:28Z</time>
      </trkpt>
      <trkpt lat="43.68381" lon="1.46244">
        <ele>150</ele>
        <time>2022-10-15T13:52:31Z</time>
      </trkpt>
      <trkpt lat="43.68389" lon="1.46239">
        <ele>152</ele>
        <time>2022-10-15T13:53:10Z</time>
      </trkpt>
      <trkpt lat="43.68393" lon="1.46239">
        <ele>151</ele>
        <time>2022-10-15T13:53:13Z</time>
      </trkpt>
      <trkpt lat="43.68398" lon="1.46241">
        <ele>151</ele>
        <time>2022-10-15T13:53:15Z</time>
      </trkpt>
      <trkpt lat="43.68403" lon="1.46246">
        <ele>151</ele>
        <time>2022-10-15T13:53:17Z</time>
      </trkpt>
      <trkpt lat="43.68419" lon="1.46246">
        <ele>152</ele>
        <time>2022-10-15T13:53:22Z</time>
      </trkpt>
      <trkpt lat="43.68423" lon="1.46248">
        <ele>152</ele>
        <time>2022-10-15T13:53:24Z</time>
      </trkpt>
      <trkpt lat="43.68427" lon="1.46252">
        <ele>152</ele>
        <time>2022-10-15T13:53:28Z</time>
      </trkpt>
      <trkpt lat="43.68431" lon="1.46254">
        <ele>152</ele>
        <time>2022-10-15T13:53:31Z</time>
      </trkpt>
      <trkpt lat="43.68436" lon="1.46256">
        <ele>152</ele>
        <time>2022-10-15T13:53:33Z</time>
      </trkpt>
      <trkpt lat="43.68451" lon="1.46248">
        <ele>151</ele>
        <time>2022-10-15T13:53:39Z</time>
      </trkpt>
      <trkpt lat="43.6846" lon="1.46242">
        <ele>151</ele>
        <time>2022-10-15T13:53:42Z</time>
      </trkpt>
      <trkpt lat="43.68467" lon="1.46247">
        <ele>151</ele>
        <time>2022-10-15T13:53:45Z</time>
      </trkpt>
      <trkpt lat="43.68471" lon="1.46255">
        <ele>151</ele>
        <time>2022-10-15T13:53:47Z</time>
      </trkpt>
      <trkpt lat="43.68485" lon="1.46271">
        <ele>152</ele>
        <time>2022-10-15T13:53:52Z</time>
      </trkpt>
      <trkpt lat="43.68495" lon="1.46277">
        <ele>152</ele>
        <time>2022-10-15T13:53:55Z</time>
      </trkpt>
      <trkpt lat="43.68508" lon="1.46279">
        <ele>152</ele>
        <time>2022-10-15T13:53:58Z</time>
      </trkpt>
      <trkpt lat="43.68523" lon="1.46277">
        <ele>152</ele>
        <time>2022-10-15T13:54:01Z</time>
      </trkpt>
      <trkpt lat="43.68539" lon="1.4627">
        <ele>152</ele>
        <time>2022-10-15T13:54:04Z</time>
      </trkpt>
      <trkpt lat="43.68548" lon="1.4627">
        <ele>152</ele>
        <time>2022-10-15T13:54:06Z</time>
      </trkpt>
      <trkpt lat="43.68554" lon="1.46272">
        <ele>152</ele>
        <time>2022-10-15T13:54:08Z</time>
      </trkpt>
      <trkpt lat="43.68558" lon="1.46274">
        <ele>153</ele>
        <time>2022-10-15T13:54:10Z</time>
      </trkpt>
      <trkpt lat="43.68572" lon="1.46272">
        <ele>153</ele>
        <time>2022-10-15T13:54:16Z</time>
      </trkpt>
      <trkpt lat="43.68578" lon="1.46269">
        <ele>153</ele>
        <time>2022-10-15T13:54:18Z</time>
      </trkpt>
      <trkpt lat="43.68585" lon="1.46268">
        <ele>153</ele>
        <time>2022-10-15T13:54:20Z</time>
      </trkpt>
      <trkpt lat="43.68608" lon="1.46281">
        <ele>153</ele>
        <time>2022-10-15T13:54:28Z</time>
      </trkpt>
      <trkpt lat="43.68624" lon="1.46283">
        <ele>153</ele>
        <time>2022-10-15T13:54:32Z</time>
      </trkpt>
      <trkpt lat="43.68632" lon="1.46283">
        <ele>153</ele>
        <time>2022-10-15T13:54:34Z</time>
      </trkpt>
      <trkpt lat="43.68638" lon="1.46288">
        <ele>153</ele>
        <time>2022-10-15T13:54:36Z</time>
      </trkpt>
      <trkpt lat="43.68641" lon="1.46294">
        <ele>153</ele>
        <time>2022-10-15T13:54:38Z</time>
      </trkpt>
      <trkpt lat="43.68641" lon="1.46307">
        <ele>153</ele>
        <time>2022-10-15T13:54:43Z</time>
      </trkpt>
      <trkpt lat="43.68643" lon="1.46312">
        <ele>153</ele>
        <time>2022-10-15T13:54:45Z</time>
      </trkpt>
      <trkpt lat="43.68648" lon="1.46311">
        <ele>153</ele>
        <time>2022-10-15T13:54:47Z</time>
      </trkpt>
      <trkpt lat="43.68657" lon="1.46305">
        <ele>153</ele>
        <time>2022-10-15T13:54:51Z</time>
      </trkpt>
      <trkpt lat="43.6868" lon="1.46311">
        <ele>153</ele>
        <time>2022-10-15T13:54:59Z</time>
      </trkpt>
      <trkpt lat="43.68685" lon="1.46314">
        <ele>153</ele>
        <time>2022-10-15T13:55:01Z</time>
      </trkpt>
      <trkpt lat="43.68687" lon="1.46319">
        <ele>153</ele>
        <time>2022-10-15T13:55:03Z</time>
      </trkpt>
      <trkpt lat="43.68697" lon="1.4633">
        <ele>153</ele>
        <time>2022-10-15T13:55:07Z</time>
      </trkpt>
      <trkpt lat="43.68705" lon="1.46332">
        <ele>153</ele>
        <time>2022-10-15T13:55:09Z</time>
      </trkpt>
      <trkpt lat="43.68718" lon="1.46334">
        <ele>154</ele>
        <time>2022-10-15T13:55:12Z</time>
      </trkpt>
      <trkpt lat="43.68808" lon="1.46368">
        <ele>156</ele>
        <time>2022-10-15T13:55:34Z</time>
      </trkpt>
      <trkpt lat="43.68833" lon="1.46369">
        <ele>157</ele>
        <time>2022-10-15T13:55:39Z</time>
      </trkpt>
      <trkpt lat="43.68838" lon="1.46372">
        <ele>157</ele>
        <time>2022-10-15T13:55:40Z</time>
      </trkpt>
      <trkpt lat="43.68858" lon="1.46385">
        <ele>158</ele>
        <time>2022-10-15T13:55:45Z</time>
      </trkpt>
      <trkpt lat="43.68874" lon="1.4639">
        <ele>160</ele>
        <time>2022-10-15T13:55:49Z</time>
      </trkpt>
      <trkpt lat="43.6888" lon="1.46391">
        <ele>160</ele>
        <time>2022-10-15T13:55:51Z</time>
      </trkpt>
      <trkpt lat="43.68882" lon="1.46407">
        <ele>161</ele>
        <time>2022-10-15T13:55:59Z</time>
      </trkpt>
      <trkpt lat="43.68882" lon="1.46416">
        <ele>162</ele>
        <time>2022-10-15T13:56:04Z</time>
      </trkpt>
      <trkpt lat="43.68892" lon="1.46416">
        <ele>162</ele>
        <time>2022-10-15T13:56:10Z</time>
      </trkpt>
      <trkpt lat="43.68899" lon="1.46415">
        <ele>162</ele>
        <time>2022-10-15T13:56:13Z</time>
      </trkpt>
      <trkpt lat="43.68919" lon="1.46425">
        <ele>163</ele>
        <time>2022-10-15T13:56:24Z</time>
      </trkpt>
      <trkpt lat="43.68935" lon="1.46456">
        <ele>163</ele>
        <time>2022-10-15T13:56:40Z</time>
      </trkpt>
      <trkpt lat="43.68939" lon="1.46463">
        <ele>162</ele>
        <time>2022-10-15T13:56:42Z</time>
      </trkpt>
      <trkpt lat="43.68946" lon="1.46466">
        <ele>162</ele>
        <time>2022-10-15T13:56:45Z</time>
      </trkpt>
      <trkpt lat="43.68952" lon="1.46465">
        <ele>162</ele>
        <time>2022-10-15T13:56:47Z</time>
      </trkpt>
      <trkpt lat="43.68959" lon="1.46466">
        <ele>163</ele>
        <time>2022-10-15T13:56:49Z</time>
      </trkpt>
      <trkpt lat="43.68967" lon="1.46468">
        <ele>164</ele>
        <time>2022-10-15T13:56:51Z</time>
      </trkpt>
      <trkpt lat="43.68974" lon="1.46471">
        <ele>165</ele>
        <time>2022-10-15T13:56:53Z</time>
      </trkpt>
      <trkpt lat="43.68983" lon="1.46474">
        <ele>166</ele>
        <time>2022-10-15T13:56:55Z</time>
      </trkpt>
      <trkpt lat="43.68995" lon="1.46486">
        <ele>168</ele>
        <time>2022-10-15T13:56:59Z</time>
      </trkpt>
      <trkpt lat="43.69015" lon="1.46495">
        <ele>169</ele>
        <time>2022-10-15T13:57:05Z</time>
      </trkpt>
      <trkpt lat="43.69022" lon="1.46502">
        <ele>169</ele>
        <time>2022-10-15T13:57:07Z</time>
      </trkpt>
      <trkpt lat="43.69021" lon="1.46513">
        <ele>169</ele>
        <time>2022-10-15T13:57:09Z</time>
      </trkpt>
      <trkpt lat="43.69001" lon="1.46546">
        <ele>171</ele>
        <time>2022-10-15T13:57:17Z</time>
      </trkpt>
      <trkpt lat="43.68986" lon="1.46587">
        <ele>175</ele>
        <time>2022-10-15T13:57:25Z</time>
      </trkpt>
      <trkpt lat="43.68983" lon="1.46592">
        <ele>175</ele>
        <time>2022-10-15T13:57:26Z</time>
      </trkpt>
      <trkpt lat="43.68975" lon="1.46596">
        <ele>176</ele>
        <time>2022-10-15T13:57:28Z</time>
      </trkpt>
      <trkpt lat="43.68971" lon="1.46596">
        <ele>176</ele>
        <time>2022-10-15T13:57:29Z</time>
      </trkpt>
      <trkpt lat="43.68966" lon="1.46593">
        <ele>176</ele>
        <time>2022-10-15T13:57:31Z</time>
      </trkpt>
      <trkpt lat="43.68959" lon="1.46592">
        <ele>177</ele>
        <time>2022-10-15T13:57:33Z</time>
      </trkpt>
      <trkpt lat="43.68953" lon="1.46596">
        <ele>177</ele>
        <time>2022-10-15T13:57:35Z</time>
      </trkpt>
      <trkpt lat="43.68948" lon="1.46603">
        <ele>178</ele>
        <time>2022-10-15T13:57:38Z</time>
      </trkpt>
      <trkpt lat="43.68949" lon="1.46611">
        <ele>178</ele>
        <time>2022-10-15T13:57:40Z</time>
      </trkpt>
      <trkpt lat="43.68951" lon="1.4662">
        <ele>178</ele>
        <time>2022-10-15T13:57:42Z</time>
      </trkpt>
      <trkpt lat="43.68951" lon="1.46633">
        <ele>178</ele>
        <time>2022-10-15T13:57:44Z</time>
      </trkpt>
      <trkpt lat="43.68958" lon="1.46649">
        <ele>178</ele>
        <time>2022-10-15T13:57:47Z</time>
      </trkpt>
      <trkpt lat="43.68965" lon="1.46651">
        <ele>178</ele>
        <time>2022-10-15T13:57:50Z</time>
      </trkpt>
      <trkpt lat="43.68973" lon="1.46653">
        <ele>178</ele>
        <time>2022-10-15T13:57:52Z</time>
      </trkpt>
      <trkpt lat="43.68985" lon="1.46642">
        <ele>177</ele>
        <time>2022-10-15T13:57:56Z</time>
      </trkpt>
      <trkpt lat="43.68992" lon="1.46639">
        <ele>177</ele>
        <time>2022-10-15T13:57:58Z</time>
      </trkpt>
      <trkpt lat="43.69014" lon="1.46616">
        <ele>175</ele>
        <time>2022-10-15T13:58:03Z</time>
      </trkpt>
      <trkpt lat="43.69024" lon="1.46601">
        <ele>174</ele>
        <time>2022-10-15T13:58:05Z</time>
      </trkpt>
      <trkpt lat="43.69058" lon="1.46559">
        <ele>169</ele>
        <time>2022-10-15T13:58:15Z</time>
      </trkpt>
      <trkpt lat="43.69064" lon="1.4656">
        <ele>169</ele>
        <time>2022-10-15T13:58:19Z</time>
      </trkpt>
      <trkpt lat="43.69073" lon="1.46572">
        <ele>170</ele>
        <time>2022-10-15T13:58:24Z</time>
      </trkpt>
      <trkpt lat="43.69078" lon="1.4658">
        <ele>169</ele>
        <time>2022-10-15T13:58:26Z</time>
      </trkpt>
      <trkpt lat="43.69084" lon="1.46578">
        <ele>168</ele>
        <time>2022-10-15T13:58:28Z</time>
      </trkpt>
      <trkpt lat="43.6909" lon="1.46578">
        <ele>167</ele>
        <time>2022-10-15T13:58:30Z</time>
      </trkpt>
      <trkpt lat="43.69097" lon="1.46578">
        <ele>166</ele>
        <time>2022-10-15T13:58:32Z</time>
      </trkpt>
      <trkpt lat="43.69106" lon="1.46582">
        <ele>163</ele>
        <time>2022-10-15T13:58:34Z</time>
      </trkpt>
      <trkpt lat="43.69111" lon="1.46589">
        <ele>162</ele>
        <time>2022-10-15T13:58:36Z</time>
      </trkpt>
      <trkpt lat="43.69118" lon="1.46585">
        <ele>162</ele>
        <time>2022-10-15T13:58:38Z</time>
      </trkpt>
      <trkpt lat="43.69128" lon="1.46587">
        <ele>162</ele>
        <time>2022-10-15T13:58:40Z</time>
      </trkpt>
      <trkpt lat="43.69135" lon="1.46605">
        <ele>162</ele>
        <time>2022-10-15T13:58:43Z</time>
      </trkpt>
      <trkpt lat="43.69138" lon="1.4662">
        <ele>161</ele>
        <time>2022-10-15T13:58:45Z</time>
      </trkpt>
      <trkpt lat="43.69141" lon="1.46633">
        <ele>161</ele>
        <time>2022-10-15T13:58:47Z</time>
      </trkpt>
      <trkpt lat="43.69144" lon="1.46649">
        <ele>160</ele>
        <time>2022-10-15T13:58:49Z</time>
      </trkpt>
      <trkpt lat="43.69166" lon="1.46763">
        <ele>162</ele>
        <time>2022-10-15T13:59:04Z</time>
      </trkpt>
      <trkpt lat="43.69162" lon="1.46834">
        <ele>163</ele>
        <time>2022-10-15T13:59:13Z</time>
      </trkpt>
      <trkpt lat="43.69159" lon="1.46856">
        <ele>163</ele>
        <time>2022-10-15T13:59:16Z</time>
      </trkpt>
      <trkpt lat="43.69131" lon="1.46948">
        <ele>164</ele>
        <time>2022-10-15T13:59:29Z</time>
      </trkpt>
      <trkpt lat="43.69104" lon="1.47129">
        <ele>166</ele>
        <time>2022-10-15T13:59:53Z</time>
      </trkpt>
      <trkpt lat="43.69065" lon="1.47226">
        <ele>166</ele>
        <time>2022-10-15T14:00:07Z</time>
      </trkpt>
      <trkpt lat="43.69061" lon="1.47248">
        <ele>166</ele>
        <time>2022-10-15T14:00:10Z</time>
      </trkpt>
      <trkpt lat="43.69063" lon="1.47349">
        <ele>168</ele>
        <time>2022-10-15T14:00:24Z</time>
      </trkpt>
      <trkpt lat="43.69064" lon="1.47362">
        <ele>168</ele>
        <time>2022-10-15T14:00:26Z</time>
      </trkpt>
      <trkpt lat="43.69064" lon="1.47376">
        <ele>169</ele>
        <time>2022-10-15T14:00:29Z</time>
      </trkpt>
      <trkpt lat="43.69067" lon="1.47387">
        <ele>170</ele>
        <time>2022-10-15T14:00:33Z</time>
      </trkpt>
      <trkpt lat="43.69067" lon="1.47395">
        <ele>170</ele>
        <time>2022-10-15T14:00:35Z</time>
      </trkpt>
      <trkpt lat="43.69064" lon="1.47402">
        <ele>170</ele>
        <time>2022-10-15T14:00:37Z</time>
      </trkpt>
      <trkpt lat="43.69064" lon="1.4741">
        <ele>170</ele>
        <time>2022-10-15T14:00:39Z</time>
      </trkpt>
      <trkpt lat="43.69067" lon="1.47419">
        <ele>170</ele>
        <time>2022-10-15T14:00:41Z</time>
      </trkpt>
      <trkpt lat="43.69076" lon="1.47435">
        <ele>169</ele>
        <time>2022-10-15T14:00:45Z</time>
      </trkpt>
      <trkpt lat="43.69083" lon="1.47444">
        <ele>169</ele>
        <time>2022-10-15T14:00:47Z</time>
      </trkpt>
      <trkpt lat="43.69087" lon="1.47464">
        <ele>169</ele>
        <time>2022-10-15T14:00:51Z</time>
      </trkpt>
      <trkpt lat="43.69087" lon="1.47473">
        <ele>169</ele>
        <time>2022-10-15T14:00:53Z</time>
      </trkpt>
      <trkpt lat="43.69086" lon="1.47482">
        <ele>169</ele>
        <time>2022-10-15T14:00:55Z</time>
      </trkpt>
      <trkpt lat="43.69083" lon="1.47493">
        <ele>168</ele>
        <time>2022-10-15T14:00:58Z</time>
      </trkpt>
      <trkpt lat="43.69086" lon="1.47516">
        <ele>168</ele>
        <time>2022-10-15T14:01:02Z</time>
      </trkpt>
      <trkpt lat="43.69087" lon="1.47526">
        <ele>167</ele>
        <time>2022-10-15T14:01:04Z</time>
      </trkpt>
      <trkpt lat="43.69083" lon="1.47534">
        <ele>167</ele>
        <time>2022-10-15T14:01:06Z</time>
      </trkpt>
      <trkpt lat="43.69078" lon="1.47541">
        <ele>168</ele>
        <time>2022-10-15T14:01:08Z</time>
      </trkpt>
      <trkpt lat="43.69076" lon="1.47549">
        <ele>168</ele>
        <time>2022-10-15T14:01:10Z</time>
      </trkpt>
      <trkpt lat="43.69077" lon="1.47557">
        <ele>169</ele>
        <time>2022-10-15T14:01:14Z</time>
      </trkpt>
      <trkpt lat="43.69074" lon="1.47569">
        <ele>170</ele>
        <time>2022-10-15T14:01:17Z</time>
      </trkpt>
      <trkpt lat="43.69075" lon="1.47593">
        <ele>171</ele>
        <time>2022-10-15T14:01:23Z</time>
      </trkpt>
      <trkpt lat="43.69075" lon="1.47603">
        <ele>171</ele>
        <time>2022-10-15T14:01:27Z</time>
      </trkpt>
      <trkpt lat="43.69067" lon="1.47616">
        <ele>172</ele>
        <time>2022-10-15T14:01:35Z</time>
      </trkpt>
      <trkpt lat="43.69066" lon="1.47626">
        <ele>173</ele>
        <time>2022-10-15T14:01:40Z</time>
      </trkpt>
      <trkpt lat="43.69064" lon="1.47643">
        <ele>174</ele>
        <time>2022-10-15T14:01:46Z</time>
      </trkpt>
      <trkpt lat="43.69064" lon="1.47656">
        <ele>174</ele>
        <time>2022-10-15T14:01:50Z</time>
      </trkpt>
      <trkpt lat="43.69069" lon="1.4768">
        <ele>173</ele>
        <time>2022-10-15T14:01:56Z</time>
      </trkpt>
      <trkpt lat="43.69072" lon="1.47696">
        <ele>173</ele>
        <time>2022-10-15T14:01:59Z</time>
      </trkpt>
      <trkpt lat="43.69081" lon="1.47714">
        <ele>174</ele>
        <time>2022-10-15T14:02:02Z</time>
      </trkpt>
      <trkpt lat="43.69086" lon="1.47726">
        <ele>175</ele>
        <time>2022-10-15T14:02:04Z</time>
      </trkpt>
      <trkpt lat="43.69089" lon="1.47735">
        <ele>176</ele>
        <time>2022-10-15T14:02:06Z</time>
      </trkpt>
      <trkpt lat="43.69087" lon="1.47743">
        <ele>177</ele>
        <time>2022-10-15T14:02:08Z</time>
      </trkpt>
      <trkpt lat="43.69083" lon="1.47748">
        <ele>178</ele>
        <time>2022-10-15T14:02:10Z</time>
      </trkpt>
      <trkpt lat="43.6908" lon="1.47757">
        <ele>178</ele>
        <time>2022-10-15T14:02:13Z</time>
      </trkpt>
      <trkpt lat="43.69077" lon="1.47765">
        <ele>179</ele>
        <time>2022-10-15T14:02:16Z</time>
      </trkpt>
      <trkpt lat="43.69077" lon="1.47773">
        <ele>178</ele>
        <time>2022-10-15T14:02:18Z</time>
      </trkpt>
      <trkpt lat="43.69077" lon="1.47787">
        <ele>178</ele>
        <time>2022-10-15T14:02:21Z</time>
      </trkpt>
      <trkpt lat="43.69075" lon="1.47798">
        <ele>178</ele>
        <time>2022-10-15T14:02:23Z</time>
      </trkpt>
      <trkpt lat="43.69071" lon="1.47807">
        <ele>178</ele>
        <time>2022-10-15T14:02:25Z</time>
      </trkpt>
      <trkpt lat="43.69062" lon="1.47833">
        <ele>178</ele>
        <time>2022-10-15T14:02:32Z</time>
      </trkpt>
      <trkpt lat="43.69062" lon="1.47845">
        <ele>178</ele>
        <time>2022-10-15T14:02:35Z</time>
      </trkpt>
      <trkpt lat="43.69047" lon="1.47884">
        <ele>177</ele>
        <time>2022-10-15T14:02:44Z</time>
      </trkpt>
      <trkpt lat="43.69044" lon="1.47896">
        <ele>177</ele>
        <time>2022-10-15T14:02:48Z</time>
      </trkpt>
      <trkpt lat="43.6905" lon="1.47911">
        <ele>177</ele>
        <time>2022-10-15T14:02:51Z</time>
      </trkpt>
      <trkpt lat="43.69057" lon="1.47936">
        <ele>175</ele>
        <time>2022-10-15T14:02:57Z</time>
      </trkpt>
      <trkpt lat="43.69057" lon="1.47948">
        <ele>175</ele>
        <time>2022-10-15T14:03:00Z</time>
      </trkpt>
      <trkpt lat="43.69053" lon="1.47972">
        <ele>177</ele>
        <time>2022-10-15T14:03:09Z</time>
      </trkpt>
      <trkpt lat="43.69044" lon="1.47983">
        <ele>180</ele>
        <time>2022-10-15T14:03:30Z</time>
      </trkpt>
      <trkpt lat="43.69044" lon="1.47989">
        <ele>180</ele>
        <time>2022-10-15T14:03:34Z</time>
      </trkpt>
      <trkpt lat="43.69042" lon="1.47997">
        <ele>180</ele>
        <time>2022-10-15T14:03:39Z</time>
      </trkpt>
      <trkpt lat="43.69038" lon="1.48004">
        <ele>180</ele>
        <time>2022-10-15T14:03:43Z</time>
      </trkpt>
      <trkpt lat="43.69034" lon="1.48033">
        <ele>178</ele>
        <time>2022-10-15T14:03:58Z</time>
      </trkpt>
      <trkpt lat="43.69038" lon="1.48041">
        <ele>179</ele>
        <time>2022-10-15T14:04:12Z</time>
      </trkpt>
      <trkpt lat="43.69046" lon="1.4803">
        <ele>179</ele>
        <time>2022-10-15T14:04:30Z</time>
      </trkpt>
      <trkpt lat="43.69064" lon="1.48011">
        <ele>179</ele>
        <time>2022-10-15T14:04:37Z</time>
      </trkpt>
      <trkpt lat="43.69117" lon="1.47987">
        <ele>184</ele>
        <time>2022-10-15T14:04:54Z</time>
      </trkpt>
      <trkpt lat="43.69125" lon="1.47986">
        <ele>183</ele>
        <time>2022-10-15T14:04:56Z</time>
      </trkpt>
      <trkpt lat="43.69135" lon="1.47994">
        <ele>183</ele>
        <time>2022-10-15T14:05:00Z</time>
      </trkpt>
      <trkpt lat="43.69148" lon="1.48009">
        <ele>184</ele>
        <time>2022-10-15T14:05:06Z</time>
      </trkpt>
      <trkpt lat="43.69153" lon="1.48013">
        <ele>185</ele>
        <time>2022-10-15T14:05:08Z</time>
      </trkpt>
      <trkpt lat="43.6916" lon="1.48011">
        <ele>185</ele>
        <time>2022-10-15T14:05:10Z</time>
      </trkpt>
      <trkpt lat="43.6917" lon="1.47993">
        <ele>185</ele>
        <time>2022-10-15T14:05:13Z</time>
      </trkpt>
      <trkpt lat="43.69179" lon="1.47986">
        <ele>185</ele>
        <time>2022-10-15T14:05:15Z</time>
      </trkpt>
      <trkpt lat="43.69225" lon="1.48004">
        <ele>189</ele>
        <time>2022-10-15T14:05:29Z</time>
      </trkpt>
      <trkpt lat="43.69232" lon="1.48006">
        <ele>189</ele>
        <time>2022-10-15T14:05:31Z</time>
      </trkpt>
      <trkpt lat="43.69265" lon="1.47992">
        <ele>187</ele>
        <time>2022-10-15T14:05:38Z</time>
      </trkpt>
      <trkpt lat="43.69271" lon="1.47989">
        <ele>187</ele>
        <time>2022-10-15T14:05:39Z</time>
      </trkpt>
      <trkpt lat="43.69275" lon="1.47983">
        <ele>186</ele>
        <time>2022-10-15T14:05:40Z</time>
      </trkpt>
      <trkpt lat="43.69278" lon="1.47976">
        <ele>186</ele>
        <time>2022-10-15T14:05:41Z</time>
      </trkpt>
      <trkpt lat="43.69282" lon="1.4795">
        <ele>185</ele>
        <time>2022-10-15T14:05:44Z</time>
      </trkpt>
      <trkpt lat="43.69285" lon="1.4791">
        <ele>185</ele>
        <time>2022-10-15T14:05:49Z</time>
      </trkpt>
      <trkpt lat="43.69293" lon="1.47885">
        <ele>187</ele>
        <time>2022-10-15T14:05:53Z</time>
      </trkpt>
      <trkpt lat="43.69345" lon="1.47786">
        <ele>195</ele>
        <time>2022-10-15T14:06:16Z</time>
      </trkpt>
      <trkpt lat="43.69435" lon="1.47779">
        <ele>197</ele>
        <time>2022-10-15T14:06:35Z</time>
      </trkpt>
      <trkpt lat="43.69444" lon="1.47773">
        <ele>197</ele>
        <time>2022-10-15T14:06:37Z</time>
      </trkpt>
      <trkpt lat="43.69459" lon="1.47742">
        <ele>198</ele>
        <time>2022-10-15T14:06:42Z</time>
      </trkpt>
      <trkpt lat="43.69483" lon="1.47685">
        <ele>200</ele>
        <time>2022-10-15T14:06:51Z</time>
      </trkpt>
      <trkpt lat="43.69502" lon="1.47581">
        <ele>203</ele>
        <time>2022-10-15T14:07:08Z</time>
      </trkpt>
      <trkpt lat="43.69507" lon="1.47569">
        <ele>204</ele>
        <time>2022-10-15T14:07:10Z</time>
      </trkpt>
      <trkpt lat="43.69539" lon="1.4752">
        <ele>207</ele>
        <time>2022-10-15T14:07:21Z</time>
      </trkpt>
      <trkpt lat="43.69543" lon="1.47515">
        <ele>208</ele>
        <time>2022-10-15T14:07:23Z</time>
      </trkpt>
      <trkpt lat="43.69574" lon="1.47545">
        <ele>209</ele>
        <time>2022-10-15T14:07:31Z</time>
      </trkpt>
      <trkpt lat="43.69579" lon="1.47557">
        <ele>209</ele>
        <time>2022-10-15T14:07:33Z</time>
      </trkpt>
      <trkpt lat="43.69613" lon="1.4767">
        <ele>210</ele>
        <time>2022-10-15T14:07:49Z</time>
      </trkpt>
      <trkpt lat="43.69642" lon="1.47736">
        <ele>211</ele>
        <time>2022-10-15T14:08:01Z</time>
      </trkpt>
      <trkpt lat="43.69647" lon="1.47757">
        <ele>212</ele>
        <time>2022-10-15T14:08:07Z</time>
      </trkpt>
      <trkpt lat="43.69708" lon="1.4783">
        <ele>213</ele>
        <time>2022-10-15T14:08:22Z</time>
      </trkpt>
      <trkpt lat="43.69724" lon="1.47838">
        <ele>213</ele>
        <time>2022-10-15T14:08:25Z</time>
      </trkpt>
      <trkpt lat="43.69742" lon="1.47842">
        <ele>213</ele>
        <time>2022-10-15T14:08:28Z</time>
      </trkpt>
      <trkpt lat="43.69772" lon="1.47838">
        <ele>212</ele>
        <time>2022-10-15T14:08:33Z</time>
      </trkpt>
      <trkpt lat="43.69877" lon="1.47797">
        <ele>206</ele>
        <time>2022-10-15T14:08:49Z</time>
      </trkpt>
      <trkpt lat="43.69907" lon="1.47761">
        <ele>204</ele>
        <time>2022-10-15T14:08:54Z</time>
      </trkpt>
      <trkpt lat="43.6999" lon="1.47649">
        <ele>197</ele>
        <time>2022-10-15T14:09:07Z</time>
      </trkpt>
      <trkpt lat="43.70005" lon="1.47636">
        <ele>197</ele>
        <time>2022-10-15T14:09:09Z</time>
      </trkpt>
      <trkpt lat="43.70031" lon="1.47624">
        <ele>196</ele>
        <time>2022-10-15T14:09:12Z</time>
      </trkpt>
      <trkpt lat="43.70056" lon="1.47622">
        <ele>195</ele>
        <time>2022-10-15T14:09:15Z</time>
      </trkpt>
      <trkpt lat="43.70125" lon="1.47633">
        <ele>193</ele>
        <time>2022-10-15T14:09:24Z</time>
      </trkpt>
      <trkpt lat="43.70157" lon="1.47622">
        <ele>192</ele>
        <time>2022-10-15T14:09:28Z</time>
      </trkpt>
      <trkpt lat="43.70186" lon="1.47609">
        <ele>193</ele>
        <time>2022-10-15T14:09:32Z</time>
      </trkpt>
      <trkpt lat="43.702" lon="1.4761">
        <ele>193</ele>
        <time>2022-10-15T14:09:34Z</time>
      </trkpt>
      <trkpt lat="43.70217" lon="1.47618">
        <ele>194</ele>
        <time>2022-10-15T14:09:37Z</time>
      </trkpt>
      <trkpt lat="43.70321" lon="1.4769">
        <ele>194</ele>
        <time>2022-10-15T14:09:56Z</time>
      </trkpt>
      <trkpt lat="43.70493" lon="1.47771">
        <ele>188</ele>
        <time>2022-10-15T14:10:22Z</time>
      </trkpt>
      <trkpt lat="43.70671" lon="1.47801">
        <ele>186</ele>
        <time>2022-10-15T14:10:52Z</time>
      </trkpt>
      <trkpt lat="43.70729" lon="1.47817">
        <ele>186</ele>
        <time>2022-10-15T14:11:03Z</time>
      </trkpt>
      <trkpt lat="43.70821" lon="1.47862">
        <ele>186</ele>
        <time>2022-10-15T14:11:20Z</time>
      </trkpt>
      <trkpt lat="43.70832" lon="1.47863">
        <ele>185</ele>
        <time>2022-10-15T14:11:22Z</time>
      </trkpt>
      <trkpt lat="43.70844" lon="1.47859">
        <ele>185</ele>
        <time>2022-10-15T14:11:24Z</time>
      </trkpt>
      <trkpt lat="43.70914" lon="1.47806">
        <ele>183</ele>
        <time>2022-10-15T14:11:37Z</time>
      </trkpt>
      <trkpt lat="43.70934" lon="1.47802">
        <ele>183</ele>
        <time>2022-10-15T14:11:40Z</time>
      </trkpt>
      <trkpt lat="43.70972" lon="1.47807">
        <ele>182</ele>
        <time>2022-10-15T14:11:46Z</time>
      </trkpt>
      <trkpt lat="43.7099" lon="1.47815">
        <ele>181</ele>
        <time>2022-10-15T14:11:49Z</time>
      </trkpt>
      <trkpt lat="43.71017" lon="1.47833">
        <ele>181</ele>
        <time>2022-10-15T14:11:54Z</time>
      </trkpt>
      <trkpt lat="43.71033" lon="1.47839">
        <ele>181</ele>
        <time>2022-10-15T14:11:57Z</time>
      </trkpt>
      <trkpt lat="43.71047" lon="1.47852">
        <ele>181</ele>
        <time>2022-10-15T14:12:00Z</time>
      </trkpt>
      <trkpt lat="43.71074" lon="1.47881">
        <ele>181</ele>
        <time>2022-10-15T14:12:06Z</time>
      </trkpt>
      <trkpt lat="43.7115" lon="1.47939">
        <ele>182</ele>
        <time>2022-10-15T14:12:21Z</time>
      </trkpt>
      <trkpt lat="43.71162" lon="1.47942">
        <ele>181</ele>
        <time>2022-10-15T14:12:23Z</time>
      </trkpt>
      <trkpt lat="43.71174" lon="1.47939">
        <ele>181</ele>
        <time>2022-10-15T14:12:25Z</time>
      </trkpt>
      <trkpt lat="43.71185" lon="1.47931">
        <ele>181</ele>
        <time>2022-10-15T14:12:27Z</time>
      </trkpt>
      <trkpt lat="43.71217" lon="1.47889">
        <ele>180</ele>
        <time>2022-10-15T14:12:34Z</time>
      </trkpt>
      <trkpt lat="43.71291" lon="1.47689">
        <ele>175</ele>
        <time>2022-10-15T14:12:58Z</time>
      </trkpt>
      <trkpt lat="43.71295" lon="1.47684">
        <ele>175</ele>
        <time>2022-10-15T14:13:00Z</time>
      </trkpt>
      <trkpt lat="43.71326" lon="1.477">
        <ele>176</ele>
        <time>2022-10-15T14:13:09Z</time>
      </trkpt>
      <trkpt lat="43.71452" lon="1.47821">
        <ele>177</ele>
        <time>2022-10-15T14:13:39Z</time>
      </trkpt>
      <trkpt lat="43.71459" lon="1.47828">
        <ele>178</ele>
        <time>2022-10-15T14:13:41Z</time>
      </trkpt>
      <trkpt lat="43.71464" lon="1.4783">
        <ele>178</ele>
        <time>2022-10-15T14:13:43Z</time>
      </trkpt>
      <trkpt lat="43.7154" lon="1.47905">
        <ele>179</ele>
        <time>2022-10-15T14:14:07Z</time>
      </trkpt>
      <trkpt lat="43.71544" lon="1.47908">
        <ele>180</ele>
        <time>2022-10-15T14:14:08Z</time>
      </trkpt>
      <trkpt lat="43.71551" lon="1.47906">
        <ele>180</ele>
        <time>2022-10-15T14:14:10Z</time>
      </trkpt>
      <trkpt lat="43.71555" lon="1.47904">
        <ele>180</ele>
        <time>2022-10-15T14:14:11Z</time>
      </trkpt>
      <trkpt lat="43.71678" lon="1.47714">
        <ele>176</ele>
        <time>2022-10-15T14:14:41Z</time>
      </trkpt>
      <trkpt lat="43.7181" lon="1.47504">
        <ele>173</ele>
        <time>2022-10-15T14:15:11Z</time>
      </trkpt>
      <trkpt lat="43.71952" lon="1.47278">
        <ele>167</ele>
        <time>2022-10-15T14:15:41Z</time>
      </trkpt>
      <trkpt lat="43.72061" lon="1.47127">
        <ele>165</ele>
        <time>2022-10-15T14:16:05Z</time>
      </trkpt>
      <trkpt lat="43.72067" lon="1.47113">
        <ele>165</ele>
        <time>2022-10-15T14:16:07Z</time>
      </trkpt>
      <trkpt lat="43.72077" lon="1.471">
        <ele>166</ele>
        <time>2022-10-15T14:16:13Z</time>
      </trkpt>
      <trkpt lat="43.72083" lon="1.471">
        <ele>166</ele>
        <time>2022-10-15T14:16:55Z</time>
      </trkpt>
      <trkpt lat="43.72102" lon="1.47086">
        <ele>166</ele>
        <time>2022-10-15T14:17:04Z</time>
      </trkpt>
      <trkpt lat="43.72109" lon="1.47076">
        <ele>166</ele>
        <time>2022-10-15T14:17:07Z</time>
      </trkpt>
      <trkpt lat="43.72234" lon="1.4697">
        <ele>164</ele>
        <time>2022-10-15T14:17:37Z</time>
      </trkpt>
      <trkpt lat="43.72273" lon="1.46944">
        <ele>164</ele>
        <time>2022-10-15T14:17:46Z</time>
      </trkpt>
      <trkpt lat="43.72287" lon="1.46933">
        <ele>164</ele>
        <time>2022-10-15T14:17:49Z</time>
      </trkpt>
      <trkpt lat="43.72294" lon="1.46927">
        <ele>165</ele>
        <time>2022-10-15T14:17:51Z</time>
      </trkpt>
      <trkpt lat="43.723" lon="1.46931">
        <ele>165</ele>
        <time>2022-10-15T14:17:54Z</time>
      </trkpt>
      <trkpt lat="43.72302" lon="1.46939">
        <ele>165</ele>
        <time>2022-10-15T14:17:56Z</time>
      </trkpt>
      <trkpt lat="43.7231" lon="1.46953">
        <ele>166</ele>
        <time>2022-10-15T14:18:02Z</time>
      </trkpt>
      <trkpt lat="43.72315" lon="1.4696">
        <ele>167</ele>
        <time>2022-10-15T14:18:05Z</time>
      </trkpt>
      <trkpt lat="43.72315" lon="1.46969">
        <ele>167</ele>
        <time>2022-10-15T14:18:08Z</time>
      </trkpt>
      <trkpt lat="43.72317" lon="1.46976">
        <ele>168</ele>
        <time>2022-10-15T14:18:11Z</time>
      </trkpt>
      <trkpt lat="43.72324" lon="1.46975">
        <ele>169</ele>
        <time>2022-10-15T14:18:15Z</time>
      </trkpt>
      <trkpt lat="43.72336" lon="1.46966">
        <ele>170</ele>
        <time>2022-10-15T14:18:20Z</time>
      </trkpt>
      <trkpt lat="43.72343" lon="1.46965">
        <ele>171</ele>
        <time>2022-10-15T14:18:23Z</time>
      </trkpt>
      <trkpt lat="43.72348" lon="1.46967">
        <ele>171</ele>
        <time>2022-10-15T14:18:25Z</time>
      </trkpt>
      <trkpt lat="43.72353" lon="1.46973">
        <ele>172</ele>
        <time>2022-10-15T14:18:28Z</time>
      </trkpt>
      <trkpt lat="43.72233" lon="1.47131">
        <ele>176.6</ele>
      </trkpt>
      <trkpt lat="43.72317" lon="1.47137">
        <ele>178.7</ele>
      </trkpt>
      <trkpt lat="43.72334" lon="1.47144">
        <ele>180</ele>
      </trkpt>
      <trkpt lat="43.72368" lon="1.47114">
        <ele>179.7</ele>
      </trkpt>
      <trkpt lat="43.72415" lon="1.4706">
        <ele>182</ele>
        <time>2022-10-15T14:19:08Z</time>
      </trkpt>
      <trkpt lat="43.72418" lon="1.47064">
        <ele>181</ele>
        <time>2022-10-15T14:19:09Z</time>
      </trkpt>
      <trkpt lat="43.72427" lon="1.47067">
        <ele>181</ele>
        <time>2022-10-15T14:19:11Z</time>
      </trkpt>
      <trkpt lat="43.72432" lon="1.4707">
        <ele>181</ele>
        <time>2022-10-15T14:19:12Z</time>
      </trkpt>
      <trkpt lat="43.72435" lon="1.47074">
        <ele>181</ele>
        <time>2022-10-15T14:19:13Z</time>
      </trkpt>
      <trkpt lat="43.72438" lon="1.4708">
        <ele>181</ele>
        <time>2022-10-15T14:19:14Z</time>
      </trkpt>
      <trkpt lat="43.72446" lon="1.47106">
        <ele>180</ele>
        <time>2022-10-15T14:19:18Z</time>
      </trkpt>
      <trkpt lat="43.72466" lon="1.47138">
        <ele>179</ele>
        <time>2022-10-15T14:19:24Z</time>
      </trkpt>
      <trkpt lat="43.72468" lon="1.47144">
        <ele>179</ele>
        <time>2022-10-15T14:19:25Z</time>
      </trkpt>
      <trkpt lat="43.72468" lon="1.47151">
        <ele>179</ele>
        <time>2022-10-15T14:19:26Z</time>
      </trkpt>
      <trkpt lat="43.72465" lon="1.47156">
        <ele>179</ele>
        <time>2022-10-15T14:19:27Z</time>
      </trkpt>
      <trkpt lat="43.72435" lon="1.47193">
        <ele>181</ele>
        <time>2022-10-15T14:19:36Z</time>
      </trkpt>
      <trkpt lat="43.72434" lon="1.47199">
        <ele>181</ele>
        <time>2022-10-15T14:19:37Z</time>
      </trkpt>
      <trkpt lat="43.72437" lon="1.47204">
        <ele>181</ele>
        <time>2022-10-15T14:19:38Z</time>
      </trkpt>
      <trkpt lat="43.72514" lon="1.47305">
        <ele>173</ele>
        <time>2022-10-15T14:19:53Z</time>
      </trkpt>
      <trkpt lat="43.72518" lon="1.4731">
        <ele>173</ele>
        <time>2022-10-15T14:19:54Z</time>
      </trkpt>
      <trkpt lat="43.72551" lon="1.47319">
        <ele>171</ele>
        <time>2022-10-15T14:19:59Z</time>
      </trkpt>
      <trkpt lat="43.72556" lon="1.47319">
        <ele>171</ele>
        <time>2022-10-15T14:20:00Z</time>
      </trkpt>
      <trkpt lat="43.7256" lon="1.47314">
        <ele>171</ele>
        <time>2022-10-15T14:20:01Z</time>
      </trkpt>
      <trkpt lat="43.72562" lon="1.47308">
        <ele>171</ele>
        <time>2022-10-15T14:20:02Z</time>
      </trkpt>
      <trkpt lat="43.72564" lon="1.473">
        <ele>170</ele>
        <time>2022-10-15T14:20:03Z</time>
      </trkpt>
      <trkpt lat="43.7256" lon="1.47256">
        <ele>169</ele>
        <time>2022-10-15T14:20:09Z</time>
      </trkpt>
      <trkpt lat="43.72554" lon="1.4724">
        <ele>170</ele>
        <time>2022-10-15T14:20:12Z</time>
      </trkpt>
      <trkpt lat="43.72552" lon="1.47221">
        <ele>171</ele>
        <time>2022-10-15T14:20:17Z</time>
      </trkpt>
      <trkpt lat="43.72553" lon="1.47217">
        <ele>171</ele>
        <time>2022-10-15T14:20:18Z</time>
      </trkpt>
      <trkpt lat="43.72561" lon="1.47196">
        <ele>171</ele>
        <time>2022-10-15T14:20:22Z</time>
      </trkpt>
      <trkpt lat="43.72569" lon="1.4717">
        <ele>170</ele>
        <time>2022-10-15T14:20:26Z</time>
      </trkpt>
      <trkpt lat="43.72578" lon="1.47155">
        <ele>170</ele>
        <time>2022-10-15T14:20:30Z</time>
      </trkpt>
      <trkpt lat="43.72584" lon="1.47155">
        <ele>170</ele>
        <time>2022-10-15T14:20:32Z</time>
      </trkpt>
      <trkpt lat="43.7259" lon="1.47153">
        <ele>170</ele>
        <time>2022-10-15T14:20:34Z</time>
      </trkpt>
      <trkpt lat="43.72596" lon="1.47148">
        <ele>169</ele>
        <time>2022-10-15T14:20:36Z</time>
      </trkpt>
      <trkpt lat="43.72602" lon="1.47145">
        <ele>169</ele>
        <time>2022-10-15T14:20:38Z</time>
      </trkpt>
      <trkpt lat="43.72607" lon="1.47137">
        <ele>169</ele>
        <time>2022-10-15T14:20:41Z</time>
      </trkpt>
      <trkpt lat="43.72611" lon="1.4713">
        <ele>169</ele>
        <time>2022-10-15T14:20:43Z</time>
      </trkpt>
      <trkpt lat="43.72616" lon="1.47125">
        <ele>168</ele>
        <time>2022-10-15T14:20:45Z</time>
      </trkpt>
      <trkpt lat="43.72632" lon="1.47106">
        <ele>167</ele>
        <time>2022-10-15T14:20:51Z</time>
      </trkpt>
      <trkpt lat="43.72636" lon="1.471">
        <ele>166</ele>
        <time>2022-10-15T14:20:53Z</time>
      </trkpt>
      <trkpt lat="43.72642" lon="1.47094">
        <ele>165</ele>
        <time>2022-10-15T14:20:56Z</time>
      </trkpt>
      <trkpt lat="43.72648" lon="1.47087">
        <ele>164</ele>
        <time>2022-10-15T14:20:58Z</time>
      </trkpt>
      <trkpt lat="43.72653" lon="1.47077">
        <ele>163</ele>
        <time>2022-10-15T14:21:00Z</time>
      </trkpt>
      <trkpt lat="43.72664" lon="1.4706">
        <ele>160</ele>
        <time>2022-10-15T14:21:04Z</time>
      </trkpt>
      <trkpt lat="43.7267" lon="1.47052">
        <ele>160</ele>
        <time>2022-10-15T14:21:06Z</time>
      </trkpt>
      <trkpt lat="43.72682" lon="1.47039">
        <ele>159</ele>
        <time>2022-10-15T14:21:09Z</time>
      </trkpt>
      <trkpt lat="43.72692" lon="1.47019">
        <ele>156</ele>
        <time>2022-10-15T14:21:15Z</time>
      </trkpt>
      <trkpt lat="43.72692" lon="1.47003">
        <ele>154</ele>
        <time>2022-10-15T14:21:18Z</time>
      </trkpt>
      <trkpt lat="43.72568" lon="1.46867">
        <ele>158</ele>
        <time>2022-10-15T14:21:47Z</time>
      </trkpt>
      <trkpt lat="43.72518" lon="1.46841">
        <ele>157</ele>
        <time>2022-10-15T14:21:57Z</time>
      </trkpt>
      <trkpt lat="43.72481" lon="1.46834">
        <ele>159</ele>
        <time>2022-10-15T14:22:04Z</time>
      </trkpt>
      <trkpt lat="43.72451" lon="1.46837">
        <ele>161</ele>
        <time>2022-10-15T14:22:10Z</time>
      </trkpt>
      <trkpt lat="43.72411" lon="1.46853">
        <ele>161</ele>
        <time>2022-10-15T14:22:19Z</time>
      </trkpt>
      <trkpt lat="43.72358" lon="1.46891">
        <ele>162</ele>
        <time>2022-10-15T14:22:31Z</time>
      </trkpt>
      <trkpt lat="43.72354" lon="1.4689">
        <ele>162</ele>
        <time>2022-10-15T14:22:32Z</time>
      </trkpt>
      <trkpt lat="43.7235" lon="1.46884">
        <ele>163</ele>
        <time>2022-10-15T14:22:34Z</time>
      </trkpt>
      <trkpt lat="43.72349" lon="1.46878">
        <ele>163</ele>
        <time>2022-10-15T14:22:35Z</time>
      </trkpt>
      <trkpt lat="43.72347" lon="1.46867">
        <ele>162</ele>
        <time>2022-10-15T14:22:37Z</time>
      </trkpt>
      <trkpt lat="43.72346" lon="1.46856">
        <ele>161</ele>
        <time>2022-10-15T14:22:39Z</time>
      </trkpt>
      <trkpt lat="43.72344" lon="1.46844">
        <ele>158</ele>
        <time>2022-10-15T14:22:41Z</time>
      </trkpt>
      <trkpt lat="43.72339" lon="1.46831">
        <ele>157</ele>
        <time>2022-10-15T14:22:43Z</time>
      </trkpt>
      <trkpt lat="43.72333" lon="1.46826">
        <ele>155</ele>
        <time>2022-10-15T14:22:45Z</time>
      </trkpt>
      <trkpt lat="43.72326" lon="1.46827">
        <ele>154</ele>
        <time>2022-10-15T14:22:47Z</time>
      </trkpt>
      <trkpt lat="43.7232" lon="1.46829">
        <ele>153</ele>
        <time>2022-10-15T14:22:49Z</time>
      </trkpt>
      <trkpt lat="43.72302" lon="1.46838">
        <ele>152</ele>
        <time>2022-10-15T14:22:53Z</time>
      </trkpt>
      <trkpt lat="43.72265" lon="1.46872">
        <ele>152</ele>
        <time>2022-10-15T14:23:01Z</time>
      </trkpt>
      <trkpt lat="43.72259" lon="1.4688">
        <ele>152</ele>
        <time>2022-10-15T14:23:02Z</time>
      </trkpt>
      <trkpt lat="43.72193" lon="1.46935">
        <ele>153</ele>
        <time>2022-10-15T14:23:15Z</time>
      </trkpt>
      <trkpt lat="43.72148" lon="1.46976">
        <ele>152</ele>
        <time>2022-10-15T14:23:24Z</time>
      </trkpt>
      <trkpt lat="43.72142" lon="1.46979">
        <ele>152</ele>
        <time>2022-10-15T14:23:26Z</time>
      </trkpt>
      <trkpt lat="43.72139" lon="1.46971">
        <ele>156</ele>
        <time>2022-10-15T14:23:43Z</time>
      </trkpt>
      <trkpt lat="43.72133" lon="1.46967">
        <ele>156</ele>
        <time>2022-10-15T14:23:47Z</time>
      </trkpt>
      <trkpt lat="43.72098" lon="1.46994">
        <ele>156</ele>
        <time>2022-10-15T14:23:55Z</time>
      </trkpt>
      <trkpt lat="43.7208" lon="1.47003">
        <ele>155</ele>
        <time>2022-10-15T14:23:59Z</time>
      </trkpt>
      <trkpt lat="43.72024" lon="1.47015">
        <ele>160</ele>
        <time>2022-10-15T14:24:14Z</time>
      </trkpt>
      <trkpt lat="43.72019" lon="1.47016">
        <ele>161</ele>
        <time>2022-10-15T14:24:16Z</time>
      </trkpt>
      <trkpt lat="43.72013" lon="1.4701">
        <ele>161</ele>
        <time>2022-10-15T14:24:19Z</time>
      </trkpt>
      <trkpt lat="43.72013" lon="1.46993">
        <ele>163</ele>
        <time>2022-10-15T14:24:28Z</time>
      </trkpt>
      <trkpt lat="43.72016" lon="1.46984">
        <ele>164</ele>
        <time>2022-10-15T14:24:31Z</time>
      </trkpt>
      <trkpt lat="43.7202" lon="1.46976">
        <ele>165</ele>
        <time>2022-10-15T14:24:33Z</time>
      </trkpt>
      <trkpt lat="43.72023" lon="1.46968">
        <ele>165</ele>
        <time>2022-10-15T14:24:35Z</time>
      </trkpt>
      <trkpt lat="43.72056" lon="1.4694">
        <ele>164</ele>
        <time>2022-10-15T14:24:48Z</time>
      </trkpt>
      <trkpt lat="43.72062" lon="1.46933">
        <ele>166</ele>
        <time>2022-10-15T14:25:01Z</time>
      </trkpt>
      <trkpt lat="43.72068" lon="1.46933">
        <ele>165</ele>
        <time>2022-10-15T14:25:03Z</time>
      </trkpt>
      <trkpt lat="43.72087" lon="1.46938">
        <ele>164</ele>
        <time>2022-10-15T14:25:07Z</time>
      </trkpt>
      <trkpt lat="43.72103" lon="1.46936">
        <ele>163</ele>
        <time>2022-10-15T14:25:11Z</time>
      </trkpt>
      <trkpt lat="43.72114" lon="1.46934">
        <ele>163</ele>
        <time>2022-10-15T14:25:14Z</time>
      </trkpt>
      <trkpt lat="43.72127" lon="1.46917">
        <ele>163</ele>
        <time>2022-10-15T14:25:18Z</time>
      </trkpt>
      <trkpt lat="43.7215" lon="1.4688">
        <ele>162</ele>
        <time>2022-10-15T14:25:26Z</time>
      </trkpt>
      <trkpt lat="43.72156" lon="1.46869">
        <ele>162</ele>
        <time>2022-10-15T14:25:28Z</time>
      </trkpt>
      <trkpt lat="43.72163" lon="1.46867">
        <ele>162</ele>
        <time>2022-10-15T14:25:30Z</time>
      </trkpt>
      <trkpt lat="43.72171" lon="1.4686">
        <ele>162</ele>
        <time>2022-10-15T14:25:34Z</time>
      </trkpt>
      <trkpt lat="43.72177" lon="1.46852">
        <ele>162</ele>
        <time>2022-10-15T14:25:36Z</time>
      </trkpt>
      <trkpt lat="43.72182" lon="1.46845">
        <ele>162</ele>
        <time>2022-10-15T14:25:38Z</time>
      </trkpt>
      <trkpt lat="43.72186" lon="1.46839">
        <ele>162</ele>
        <time>2022-10-15T14:25:40Z</time>
      </trkpt>
      <trkpt lat="43.72198" lon="1.4683">
        <ele>162</ele>
        <time>2022-10-15T14:25:44Z</time>
      </trkpt>
      <trkpt lat="43.72202" lon="1.46823">
        <ele>162</ele>
        <time>2022-10-15T14:25:46Z</time>
      </trkpt>
      <trkpt lat="43.7222" lon="1.46804">
        <ele>162</ele>
        <time>2022-10-15T14:25:54Z</time>
      </trkpt>
      <trkpt lat="43.72229" lon="1.46799">
        <ele>162</ele>
        <time>2022-10-15T14:25:57Z</time>
      </trkpt>
      <trkpt lat="43.72236" lon="1.46796">
        <ele>161</ele>
        <time>2022-10-15T14:25:59Z</time>
      </trkpt>
      <trkpt lat="43.72243" lon="1.46789">
        <ele>161</ele>
        <time>2022-10-15T14:26:01Z</time>
      </trkpt>
      <trkpt lat="43.72251" lon="1.46787">
        <ele>160</ele>
        <time>2022-10-15T14:26:03Z</time>
      </trkpt>
      <trkpt lat="43.7226" lon="1.46784">
        <ele>159</ele>
        <time>2022-10-15T14:26:06Z</time>
      </trkpt>
      <trkpt lat="43.72272" lon="1.4677">
        <ele>159</ele>
        <time>2022-10-15T14:26:10Z</time>
      </trkpt>
      <trkpt lat="43.72279" lon="1.46762">
        <ele>158</ele>
        <time>2022-10-15T14:26:12Z</time>
      </trkpt>
      <trkpt lat="43.72301" lon="1.46731">
        <ele>161</ele>
        <time>2022-10-15T14:26:35Z</time>
      </trkpt>
      <trkpt lat="43.72304" lon="1.46725">
        <ele>162</ele>
        <time>2022-10-15T14:26:38Z</time>
      </trkpt>
      <trkpt lat="43.72307" lon="1.46716">
        <ele>162</ele>
        <time>2022-10-15T14:26:40Z</time>
      </trkpt>
      <trkpt lat="43.72313" lon="1.46709">
        <ele>162</ele>
        <time>2022-10-15T14:26:43Z</time>
      </trkpt>
      <trkpt lat="43.72318" lon="1.46694">
        <ele>163</ele>
        <time>2022-10-15T14:26:48Z</time>
      </trkpt>
      <trkpt lat="43.7232" lon="1.46688">
        <ele>162</ele>
        <time>2022-10-15T14:26:49Z</time>
      </trkpt>
      <trkpt lat="43.72321" lon="1.46678">
        <ele>160</ele>
        <time>2022-10-15T14:26:52Z</time>
      </trkpt>
      <trkpt lat="43.72259" lon="1.46627">
        <ele>164</ele>
        <time>2022-10-15T14:27:12Z</time>
      </trkpt>
      <trkpt lat="43.72176" lon="1.46601">
        <ele>171</ele>
        <time>2022-10-15T14:27:38Z</time>
      </trkpt>
      <trkpt lat="43.72172" lon="1.46596">
        <ele>171</ele>
        <time>2022-10-15T14:27:40Z</time>
      </trkpt>
      <trkpt lat="43.72174" lon="1.46574">
        <ele>172</ele>
        <time>2022-10-15T14:27:44Z</time>
      </trkpt>
      <trkpt lat="43.72213" lon="1.46484">
        <ele>169</ele>
        <time>2022-10-15T14:27:58Z</time>
      </trkpt>
      <trkpt lat="43.72216" lon="1.4648">
        <ele>169</ele>
        <time>2022-10-15T14:27:59Z</time>
      </trkpt>
      <trkpt lat="43.72219" lon="1.46477">
        <ele>170</ele>
        <time>2022-10-15T14:28:00Z</time>
      </trkpt>
      <trkpt lat="43.72238" lon="1.46489">
        <ele>169</ele>
        <time>2022-10-15T14:28:04Z</time>
      </trkpt>
      <trkpt lat="43.7225" lon="1.465">
        <ele>169</ele>
        <time>2022-10-15T14:28:06Z</time>
      </trkpt>
      <trkpt lat="43.72272" lon="1.46517">
        <ele>167</ele>
        <time>2022-10-15T14:28:10Z</time>
      </trkpt>
      <trkpt lat="43.72283" lon="1.46528">
        <ele>166</ele>
        <time>2022-10-15T14:28:12Z</time>
      </trkpt>
      <trkpt lat="43.72307" lon="1.46547">
        <ele>165</ele>
        <time>2022-10-15T14:28:16Z</time>
      </trkpt>
      <trkpt lat="43.72328" lon="1.46572">
        <ele>161</ele>
        <time>2022-10-15T14:28:21Z</time>
      </trkpt>
      <trkpt lat="43.72334" lon="1.46576">
        <ele>160</ele>
        <time>2022-10-15T14:28:24Z</time>
      </trkpt>
      <trkpt lat="43.72356" lon="1.46535">
        <ele>156</ele>
        <time>2022-10-15T14:28:38Z</time>
      </trkpt>
      <trkpt lat="43.72374" lon="1.4647">
        <ele>155</ele>
        <time>2022-10-15T14:28:50Z</time>
      </trkpt>
      <trkpt lat="43.72374" lon="1.4646">
        <ele>155</ele>
        <time>2022-10-15T14:28:52Z</time>
      </trkpt>
      <trkpt lat="43.72373" lon="1.46439">
        <ele>155</ele>
        <time>2022-10-15T14:28:56Z</time>
      </trkpt>
      <trkpt lat="43.72366" lon="1.46418">
        <ele>155</ele>
        <time>2022-10-15T14:29:00Z</time>
      </trkpt>
      <trkpt lat="43.72359" lon="1.464">
        <ele>156</ele>
        <time>2022-10-15T14:29:04Z</time>
      </trkpt>
      <trkpt lat="43.72355" lon="1.46391">
        <ele>156</ele>
        <time>2022-10-15T14:29:06Z</time>
      </trkpt>
      <trkpt lat="43.72353" lon="1.46381">
        <ele>157</ele>
        <time>2022-10-15T14:29:08Z</time>
      </trkpt>
      <trkpt lat="43.72353" lon="1.46369">
        <ele>157</ele>
        <time>2022-10-15T14:29:10Z</time>
      </trkpt>
      <trkpt lat="43.7235" lon="1.46358">
        <ele>157</ele>
        <time>2022-10-15T14:29:12Z</time>
      </trkpt>
      <trkpt lat="43.72348" lon="1.46343">
        <ele>158</ele>
        <time>2022-10-15T14:29:15Z</time>
      </trkpt>
      <trkpt lat="43.72347" lon="1.46323">
        <ele>158</ele>
        <time>2022-10-15T14:29:19Z</time>
      </trkpt>
      <trkpt lat="43.72343" lon="1.46299">
        <ele>159</ele>
        <time>2022-10-15T14:29:23Z</time>
      </trkpt>
      <trkpt lat="43.72332" lon="1.46276">
        <ele>159</ele>
        <time>2022-10-15T14:29:27Z</time>
      </trkpt>
      <trkpt lat="43.72327" lon="1.46262">
        <ele>160</ele>
        <time>2022-10-15T14:29:30Z</time>
      </trkpt>
      <trkpt lat="43.7233" lon="1.46231">
        <ele>160</ele>
        <time>2022-10-15T14:29:36Z</time>
      </trkpt>
      <trkpt lat="43.72319" lon="1.46143">
        <ele>159</ele>
        <time>2022-10-15T14:29:59Z</time>
      </trkpt>
      <trkpt lat="43.72321" lon="1.46123">
        <ele>159</ele>
        <time>2022-10-15T14:30:02Z</time>
      </trkpt>
      <trkpt lat="43.72317" lon="1.46091">
        <ele>157</ele>
        <time>2022-10-15T14:30:06Z</time>
      </trkpt>
      <trkpt lat="43.72319" lon="1.46075">
        <ele>158</ele>
        <time>2022-10-15T14:30:22Z</time>
      </trkpt>
      <trkpt lat="43.72324" lon="1.46071">
        <ele>159</ele>
        <time>2022-10-15T14:30:28Z</time>
      </trkpt>
      <trkpt lat="43.72327" lon="1.46082">
        <ele>159</ele>
        <time>2022-10-15T14:30:33Z</time>
      </trkpt>
      <trkpt lat="43.72325" lon="1.46092">
        <ele>158</ele>
        <time>2022-10-15T14:30:35Z</time>
      </trkpt>
      <trkpt lat="43.72326" lon="1.46109">
        <ele>157</ele>
        <time>2022-10-15T14:30:38Z</time>
      </trkpt>
      <trkpt lat="43.72332" lon="1.46136">
        <ele>157</ele>
        <time>2022-10-15T14:30:42Z</time>
      </trkpt>
      <trkpt lat="43.72335" lon="1.46149">
        <ele>157</ele>
        <time>2022-10-15T14:30:44Z</time>
      </trkpt>
      <trkpt lat="43.7234" lon="1.46161">
        <ele>156</ele>
        <time>2022-10-15T14:30:46Z</time>
      </trkpt>
      <trkpt lat="43.72345" lon="1.46172">
        <ele>156</ele>
        <time>2022-10-15T14:30:48Z</time>
      </trkpt>
      <trkpt lat="43.72351" lon="1.46179">
        <ele>156</ele>
        <time>2022-10-15T14:30:50Z</time>
      </trkpt>
      <trkpt lat="43.72347" lon="1.46204">
        <ele>156</ele>
        <time>2022-10-15T14:30:54Z</time>
      </trkpt>
      <trkpt lat="43.72347" lon="1.46226">
        <ele>156</ele>
        <time>2022-10-15T14:30:57Z</time>
      </trkpt>
      <trkpt lat="43.72374" lon="1.4626">
        <ele>158</ele>
        <time>2022-10-15T14:31:04Z</time>
      </trkpt>
      <trkpt lat="43.72383" lon="1.46278">
        <ele>160</ele>
        <time>2022-10-15T14:31:09Z</time>
      </trkpt>
      <trkpt lat="43.72383" lon="1.46295">
        <ele>160</ele>
        <time>2022-10-15T14:31:11Z</time>
      </trkpt>
      <trkpt lat="43.72384" lon="1.46326">
        <ele>160</ele>
        <time>2022-10-15T14:31:14Z</time>
      </trkpt>
      <trkpt lat="43.72388" lon="1.46341">
        <ele>159</ele>
        <time>2022-10-15T14:31:16Z</time>
      </trkpt>
      <trkpt lat="43.72388" lon="1.46359">
        <ele>159</ele>
        <time>2022-10-15T14:31:18Z</time>
      </trkpt>
      <trkpt lat="43.72391" lon="1.46382">
        <ele>158</ele>
        <time>2022-10-15T14:31:20Z</time>
      </trkpt>
      <trkpt lat="43.72394" lon="1.46392">
        <ele>157</ele>
        <time>2022-10-15T14:31:21Z</time>
      </trkpt>
      <trkpt lat="43.72395" lon="1.46408">
        <ele>157</ele>
        <time>2022-10-15T14:31:23Z</time>
      </trkpt>
      <trkpt lat="43.72399" lon="1.46447">
        <ele>155</ele>
        <time>2022-10-15T14:31:29Z</time>
      </trkpt>
      <trkpt lat="43.72399" lon="1.4646">
        <ele>154</ele>
        <time>2022-10-15T14:31:31Z</time>
      </trkpt>
      <trkpt lat="43.72405" lon="1.46476">
        <ele>154</ele>
        <time>2022-10-15T14:31:34Z</time>
      </trkpt>
      <trkpt lat="43.72405" lon="1.46517">
        <ele>154</ele>
        <time>2022-10-15T14:31:41Z</time>
      </trkpt>
      <trkpt lat="43.72405" lon="1.46531">
        <ele>154</ele>
        <time>2022-10-15T14:31:44Z</time>
      </trkpt>
      <trkpt lat="43.72409" lon="1.46542">
        <ele>155</ele>
        <time>2022-10-15T14:31:45Z</time>
      </trkpt>
      <trkpt lat="43.72419" lon="1.46576">
        <ele>158</ele>
        <time>2022-10-15T14:31:51Z</time>
      </trkpt>
      <trkpt lat="43.72425" lon="1.46586">
        <ele>160</ele>
        <time>2022-10-15T14:31:53Z</time>
      </trkpt>
      <trkpt lat="43.72434" lon="1.46592">
        <ele>162</ele>
        <time>2022-10-15T14:31:57Z</time>
      </trkpt>
      <trkpt lat="43.72436" lon="1.46603">
        <ele>163</ele>
        <time>2022-10-15T14:32:00Z</time>
      </trkpt>
      <trkpt lat="43.72445" lon="1.46615">
        <ele>164</ele>
        <time>2022-10-15T14:32:04Z</time>
      </trkpt>
      <trkpt lat="43.72452" lon="1.46624">
        <ele>166</ele>
        <time>2022-10-15T14:32:06Z</time>
      </trkpt>
      <trkpt lat="43.72453" lon="1.46639">
        <ele>166</ele>
        <time>2022-10-15T14:32:09Z</time>
      </trkpt>
      <trkpt lat="43.7245" lon="1.46649">
        <ele>167</ele>
        <time>2022-10-15T14:32:11Z</time>
      </trkpt>
      <trkpt lat="43.72456" lon="1.46659">
        <ele>166</ele>
        <time>2022-10-15T14:32:13Z</time>
      </trkpt>
      <trkpt lat="43.72458" lon="1.46676">
        <ele>165</ele>
        <time>2022-10-15T14:32:15Z</time>
      </trkpt>
      <trkpt lat="43.72466" lon="1.46688">
        <ele>164</ele>
        <time>2022-10-15T14:32:17Z</time>
      </trkpt>
      <trkpt lat="43.72478" lon="1.46691">
        <ele>162</ele>
        <time>2022-10-15T14:32:19Z</time>
      </trkpt>
      <trkpt lat="43.72489" lon="1.46687">
        <ele>162</ele>
        <time>2022-10-15T14:32:21Z</time>
      </trkpt>
      <trkpt lat="43.72497" lon="1.46687">
        <ele>161</ele>
        <time>2022-10-15T14:32:23Z</time>
      </trkpt>
      <trkpt lat="43.7251" lon="1.46683">
        <ele>160</ele>
        <time>2022-10-15T14:32:27Z</time>
      </trkpt>
      <trkpt lat="43.72517" lon="1.46671">
        <ele>161</ele>
        <time>2022-10-15T14:32:32Z</time>
      </trkpt>
      <trkpt lat="43.72527" lon="1.46664">
        <ele>162</ele>
        <time>2022-10-15T14:32:35Z</time>
      </trkpt>
      <trkpt lat="43.72537" lon="1.46654">
        <ele>164</ele>
        <time>2022-10-15T14:32:38Z</time>
      </trkpt>
      <trkpt lat="43.7254" lon="1.46645">
        <ele>165</ele>
        <time>2022-10-15T14:32:41Z</time>
      </trkpt>
      <trkpt lat="43.72549" lon="1.46619">
        <ele>169</ele>
        <time>2022-10-15T14:32:49Z</time>
      </trkpt>
      <trkpt lat="43.72545" lon="1.46603">
        <ele>173</ele>
        <time>2022-10-15T14:32:55Z</time>
      </trkpt>
      <trkpt lat="43.72536" lon="1.4659">
        <ele>175</ele>
        <time>2022-10-15T14:33:00Z</time>
      </trkpt>
      <trkpt lat="43.72526" lon="1.46582">
        <ele>178</ele>
        <time>2022-10-15T14:33:04Z</time>
      </trkpt>
      <trkpt lat="43.72518" lon="1.46577">
        <ele>179</ele>
        <time>2022-10-15T14:33:07Z</time>
      </trkpt>
      <trkpt lat="43.72507" lon="1.46572">
        <ele>180</ele>
        <time>2022-10-15T14:33:09Z</time>
      </trkpt>
      <trkpt lat="43.72496" lon="1.46555">
        <ele>180</ele>
        <time>2022-10-15T14:33:13Z</time>
      </trkpt>
      <trkpt lat="43.72488" lon="1.46547">
        <ele>180</ele>
        <time>2022-10-15T14:33:15Z</time>
      </trkpt>
      <trkpt lat="43.72476" lon="1.46514">
        <ele>178</ele>
        <time>2022-10-15T14:33:19Z</time>
      </trkpt>
      <trkpt lat="43.72474" lon="1.46497">
        <ele>178</ele>
        <time>2022-10-15T14:33:21Z</time>
      </trkpt>
      <trkpt lat="43.72471" lon="1.46481">
        <ele>176</ele>
        <time>2022-10-15T14:33:23Z</time>
      </trkpt>
      <trkpt lat="43.72464" lon="1.46469">
        <ele>175</ele>
        <time>2022-10-15T14:33:25Z</time>
      </trkpt>
      <trkpt lat="43.72463" lon="1.46448">
        <ele>173</ele>
        <time>2022-10-15T14:33:28Z</time>
      </trkpt>
      <trkpt lat="43.72464" lon="1.46398">
        <ele>173</ele>
        <time>2022-10-15T14:33:39Z</time>
      </trkpt>
      <trkpt lat="43.72465" lon="1.46365">
        <ele>174</ele>
        <time>2022-10-15T14:33:46Z</time>
      </trkpt>
      <trkpt lat="43.72463" lon="1.46348">
        <ele>176</ele>
        <time>2022-10-15T14:33:50Z</time>
      </trkpt>
      <trkpt lat="43.72457" lon="1.46331">
        <ele>177</ele>
        <time>2022-10-15T14:33:54Z</time>
      </trkpt>
      <trkpt lat="43.72448" lon="1.46315">
        <ele>177</ele>
        <time>2022-10-15T14:33:57Z</time>
      </trkpt>
      <trkpt lat="43.72435" lon="1.46245">
        <ele>177</ele>
        <time>2022-10-15T14:34:07Z</time>
      </trkpt>
      <trkpt lat="43.7245" lon="1.46278">
        <ele>180</ele>
        <time>2022-10-15T14:34:24Z</time>
      </trkpt>
      <trkpt lat="43.72461" lon="1.46315">
        <ele>184</ele>
        <time>2022-10-15T14:34:35Z</time>
      </trkpt>
      <trkpt lat="43.72469" lon="1.46328">
        <ele>184</ele>
        <time>2022-10-15T14:34:39Z</time>
      </trkpt>
      <trkpt lat="43.72482" lon="1.46355">
        <ele>184</ele>
        <time>2022-10-15T14:34:46Z</time>
      </trkpt>
      <trkpt lat="43.72496" lon="1.4642">
        <ele>184</ele>
        <time>2022-10-15T14:34:59Z</time>
      </trkpt>
      <trkpt lat="43.725" lon="1.4644">
        <ele>184</ele>
        <time>2022-10-15T14:35:02Z</time>
      </trkpt>
      <trkpt lat="43.72496" lon="1.46471">
        <ele>184</ele>
        <time>2022-10-15T14:35:07Z</time>
      </trkpt>
      <trkpt lat="43.72496" lon="1.46497">
        <ele>184</ele>
        <time>2022-10-15T14:35:11Z</time>
      </trkpt>
      <trkpt lat="43.72499" lon="1.46512">
        <ele>184</ele>
        <time>2022-10-15T14:35:13Z</time>
      </trkpt>
      <trkpt lat="43.72516" lon="1.46528">
        <ele>184</ele>
        <time>2022-10-15T14:35:17Z</time>
      </trkpt>
      <trkpt lat="43.72559" lon="1.46546">
        <ele>183</ele>
        <time>2022-10-15T14:35:25Z</time>
      </trkpt>
      <trkpt lat="43.72574" lon="1.46548">
        <ele>184</ele>
        <time>2022-10-15T14:35:28Z</time>
      </trkpt>
      <trkpt lat="43.72593" lon="1.46564">
        <ele>184</ele>
        <time>2022-10-15T14:35:34Z</time>
      </trkpt>
      <trkpt lat="43.72609" lon="1.4655">
        <ele>185</ele>
        <time>2022-10-15T14:35:47Z</time>
      </trkpt>
      <trkpt lat="43.72628" lon="1.46533">
        <ele>185</ele>
        <time>2022-10-15T14:35:54Z</time>
      </trkpt>
      <trkpt lat="43.72646" lon="1.46521">
        <ele>186</ele>
        <time>2022-10-15T14:36:00Z</time>
      </trkpt>
      <trkpt lat="43.72659" lon="1.46505">
        <ele>185</ele>
        <time>2022-10-15T14:36:04Z</time>
      </trkpt>
      <trkpt lat="43.72681" lon="1.46494">
        <ele>184</ele>
        <time>2022-10-15T14:36:10Z</time>
      </trkpt>
      <trkpt lat="43.72705" lon="1.46471">
        <ele>181</ele>
        <time>2022-10-15T14:36:14Z</time>
      </trkpt>
      <trkpt lat="43.7273" lon="1.46421">
        <ele>178</ele>
        <time>2022-10-15T14:36:23Z</time>
      </trkpt>
      <trkpt lat="43.72771" lon="1.46356">
        <ele>175</ele>
        <time>2022-10-15T14:36:39Z</time>
      </trkpt>
      <trkpt lat="43.72779" lon="1.46333">
        <ele>175</ele>
        <time>2022-10-15T14:36:43Z</time>
      </trkpt>
      <trkpt lat="43.72796" lon="1.46288">
        <ele>169.1</ele>
        <time>2022-10-15T14:36:48Z</time>
      </trkpt>
      <trkpt lat="43.72792" lon="1.46254">
        <ele>169.9</ele>
        <time>2022-10-15T14:36:52Z</time>
      </trkpt>
      <trkpt lat="43.72791" lon="1.46232">
        <ele>171</ele>
        <time>2022-10-15T14:37:08Z</time>
      </trkpt>
      <trkpt lat="43.72826" lon="1.46204">
        <ele>171.2</ele>
        <time>2022-10-15T14:37:21Z</time>
      </trkpt>
      <trkpt lat="43.72857" lon="1.46178">
        <ele>169.7</ele>
        <time>2022-10-15T14:37:32Z</time>
      </trkpt>
      <trkpt lat="43.7289" lon="1.46138">
        <ele>167.9</ele>
        <time>2022-10-15T14:37:40Z</time>
      </trkpt>
      <trkpt lat="43.72924" lon="1.46149">
        <ele>165.2</ele>
      </trkpt>
      <trkpt lat="43.72949" lon="1.4613">
        <ele>161.1</ele>
        <time>2022-10-15T14:37:56Z</time>
      </trkpt>
      <trkpt lat="43.72999" lon="1.46101">
        <ele>157.8</ele>
        <time>2022-10-15T14:38:07Z</time>
      </trkpt>
      <trkpt lat="43.73109" lon="1.46206">
        <ele>152.5</ele>
        <time>2022-10-15T14:38:26Z</time>
      </trkpt>
      <trkpt lat="43.73174" lon="1.46298">
        <ele>153.3</ele>
        <time>2022-10-15T14:38:43Z</time>
      </trkpt>
      <trkpt lat="43.73236" lon="1.46365">
        <ele>148.6</ele>
        <time>2022-10-15T14:39:03Z</time>
      </trkpt>
      <trkpt lat="43.73305" lon="1.46456">
        <ele>145.6</ele>
        <time>2022-10-15T14:39:24Z</time>
      </trkpt>
      <trkpt lat="43.73312" lon="1.46478">
        <ele>145</ele>
      </trkpt>
      <trkpt lat="43.73284" lon="1.46466">
        <ele>146.7</ele>
        <time>2022-10-15T14:39:32Z</time>
      </trkpt>
      <trkpt lat="43.73266" lon="1.46473">
        <ele>153</ele>
        <time>2022-10-15T14:39:39Z</time>
      </trkpt>
      <trkpt lat="43.73251" lon="1.46486">
        <ele>155</ele>
        <time>2022-10-15T14:39:48Z</time>
      </trkpt>
      <trkpt lat="43.73255" lon="1.465">
        <ele>157</ele>
        <time>2022-10-15T14:40:12Z</time>
      </trkpt>
      <trkpt lat="43.73244" lon="1.46529">
        <ele>157</ele>
        <time>2022-10-15T14:40:22Z</time>
      </trkpt>
      <trkpt lat="43.7323" lon="1.46529">
        <ele>157</ele>
        <time>2022-10-15T14:40:26Z</time>
      </trkpt>
      <trkpt lat="43.73219" lon="1.46527">
        <ele>158</ele>
        <time>2022-10-15T14:40:32Z</time>
      </trkpt>
      <trkpt lat="43.73186" lon="1.46497">
        <ele>160</ele>
        <time>2022-10-15T14:40:46Z</time>
      </trkpt>
      <trkpt lat="43.73165" lon="1.46482">
        <ele>161</ele>
        <time>2022-10-15T14:40:57Z</time>
      </trkpt>
      <trkpt lat="43.73152" lon="1.4649">
        <ele>162</ele>
        <time>2022-10-15T14:41:04Z</time>
      </trkpt>
      <trkpt lat="43.73122" lon="1.46481">
        <ele>165</ele>
        <time>2022-10-15T14:41:18Z</time>
      </trkpt>
      <trkpt lat="43.73099" lon="1.4648">
        <ele>167</ele>
        <time>2022-10-15T14:41:25Z</time>
      </trkpt>
      <trkpt lat="43.73077" lon="1.46473">
        <ele>169</ele>
        <time>2022-10-15T14:41:31Z</time>
      </trkpt>
      <trkpt lat="43.73032" lon="1.46524">
        <ele>172</ele>
        <time>2022-10-15T14:41:46Z</time>
      </trkpt>
      <trkpt lat="43.73018" lon="1.46533">
        <ele>173</ele>
        <time>2022-10-15T14:41:51Z</time>
      </trkpt>
      <trkpt lat="43.72987" lon="1.46585">
        <ele>175</ele>
        <time>2022-10-15T14:42:05Z</time>
      </trkpt>
      <trkpt lat="43.72977" lon="1.46598">
        <ele>176</ele>
        <time>2022-10-15T14:42:09Z</time>
      </trkpt>
      <trkpt lat="43.72962" lon="1.46604">
        <ele>176</ele>
        <time>2022-10-15T14:42:12Z</time>
      </trkpt>
      <trkpt lat="43.72952" lon="1.46633">
        <ele>176</ele>
        <time>2022-10-15T14:42:17Z</time>
      </trkpt>
      <trkpt lat="43.72933" lon="1.46667">
        <ele>178</ele>
        <time>2022-10-15T14:42:26Z</time>
      </trkpt>
      <trkpt lat="43.72931" lon="1.46694">
        <ele>178</ele>
        <time>2022-10-15T14:42:34Z</time>
      </trkpt>
      <trkpt lat="43.7294" lon="1.46714">
        <ele>178</ele>
        <time>2022-10-15T14:42:37Z</time>
      </trkpt>
      <trkpt lat="43.72984" lon="1.46758">
        <ele>175</ele>
        <time>2022-10-15T14:42:47Z</time>
      </trkpt>
      <trkpt lat="43.73004" lon="1.46767">
        <ele>173</ele>
        <time>2022-10-15T14:42:50Z</time>
      </trkpt>
      <trkpt lat="43.73072" lon="1.46839">
        <ele>163</ele>
        <time>2022-10-15T14:43:08Z</time>
      </trkpt>
      <trkpt lat="43.73079" lon="1.46847">
        <ele>162</ele>
        <time>2022-10-15T14:43:10Z</time>
      </trkpt>
      <trkpt lat="43.73085" lon="1.4685">
        <ele>161</ele>
        <time>2022-10-15T14:43:12Z</time>
      </trkpt>
      <trkpt lat="43.73087" lon="1.46858">
        <ele>160</ele>
        <time>2022-10-15T14:43:14Z</time>
      </trkpt>
      <trkpt lat="43.73083" lon="1.46867">
        <ele>159</ele>
        <time>2022-10-15T14:43:17Z</time>
      </trkpt>
      <trkpt lat="43.73077" lon="1.46874">
        <ele>159</ele>
        <time>2022-10-15T14:43:20Z</time>
      </trkpt>
      <trkpt lat="43.73065" lon="1.46879">
        <ele>159</ele>
        <time>2022-10-15T14:43:22Z</time>
      </trkpt>
      <trkpt lat="43.73049" lon="1.46863">
        <ele>161</ele>
        <time>2022-10-15T14:43:30Z</time>
      </trkpt>
      <trkpt lat="43.7303" lon="1.46859">
        <ele>165</ele>
        <time>2022-10-15T14:43:37Z</time>
      </trkpt>
      <trkpt lat="43.73007" lon="1.46865">
        <ele>166</ele>
        <time>2022-10-15T14:43:44Z</time>
      </trkpt>
      <trkpt lat="43.72989" lon="1.46876">
        <ele>167</ele>
        <time>2022-10-15T14:43:51Z</time>
      </trkpt>
      <trkpt lat="43.72978" lon="1.46878">
        <ele>168</ele>
        <time>2022-10-15T14:43:55Z</time>
      </trkpt>
      <trkpt lat="43.72979" lon="1.46868">
        <ele>169</ele>
        <time>2022-10-15T14:44:02Z</time>
      </trkpt>
      <trkpt lat="43.72981" lon="1.46862">
        <ele>169</ele>
        <time>2022-10-15T14:44:05Z</time>
      </trkpt>
      <trkpt lat="43.72984" lon="1.4685">
        <ele>169</ele>
        <time>2022-10-15T14:44:08Z</time>
      </trkpt>
      <trkpt lat="43.72984" lon="1.46839">
        <ele>170</ele>
        <time>2022-10-15T14:44:11Z</time>
      </trkpt>
      <trkpt lat="43.72979" lon="1.46829">
        <ele>171</ele>
        <time>2022-10-15T14:44:14Z</time>
      </trkpt>
      <trkpt lat="43.7297" lon="1.46825">
        <ele>172</ele>
        <time>2022-10-15T14:44:18Z</time>
      </trkpt>
      <trkpt lat="43.72961" lon="1.46822">
        <ele>173</ele>
        <time>2022-10-15T14:44:22Z</time>
      </trkpt>
      <trkpt lat="43.72952" lon="1.46818">
        <ele>175</ele>
        <time>2022-10-15T14:44:26Z</time>
      </trkpt>
      <trkpt lat="43.72937" lon="1.46808">
        <ele>176</ele>
        <time>2022-10-15T14:44:32Z</time>
      </trkpt>
      <trkpt lat="43.72927" lon="1.46787">
        <ele>177</ele>
        <time>2022-10-15T14:44:38Z</time>
      </trkpt>
      <trkpt lat="43.72921" lon="1.46779">
        <ele>177</ele>
        <time>2022-10-15T14:44:41Z</time>
      </trkpt>
      <trkpt lat="43.72897" lon="1.46779">
        <ele>179</ele>
        <time>2022-10-15T14:44:48Z</time>
      </trkpt>
      <trkpt lat="43.72889" lon="1.46781">
        <ele>179</ele>
        <time>2022-10-15T14:44:50Z</time>
      </trkpt>
      <trkpt lat="43.72878" lon="1.46783">
        <ele>179</ele>
        <time>2022-10-15T14:44:53Z</time>
      </trkpt>
      <trkpt lat="43.7287" lon="1.46786">
        <ele>178</ele>
        <time>2022-10-15T14:44:55Z</time>
      </trkpt>
      <trkpt lat="43.72863" lon="1.46792">
        <ele>177</ele>
        <time>2022-10-15T14:44:57Z</time>
      </trkpt>
      <trkpt lat="43.7284" lon="1.46798">
        <ele>177</ele>
        <time>2022-10-15T14:45:02Z</time>
      </trkpt>
      <trkpt lat="43.72832" lon="1.468">
        <ele>177</ele>
        <time>2022-10-15T14:45:04Z</time>
      </trkpt>
      <trkpt lat="43.72827" lon="1.46808">
        <ele>176</ele>
        <time>2022-10-15T14:45:07Z</time>
      </trkpt>
      <trkpt lat="43.72843" lon="1.46851">
        <ele>175</ele>
        <time>2022-10-15T14:45:15Z</time>
      </trkpt>
      <trkpt lat="43.72858" lon="1.46964">
        <ele>168</ele>
        <time>2022-10-15T14:45:29Z</time>
      </trkpt>
      <trkpt lat="43.72904" lon="1.47036">
        <ele>165</ele>
        <time>2022-10-15T14:45:39Z</time>
      </trkpt>
      <trkpt lat="43.72915" lon="1.47067">
        <ele>162</ele>
        <time>2022-10-15T14:45:42Z</time>
      </trkpt>
      <trkpt lat="43.72923" lon="1.47079">
        <ele>160</ele>
        <time>2022-10-15T14:45:44Z</time>
      </trkpt>
      <trkpt lat="43.72941" lon="1.47134">
        <ele>157</ele>
        <time>2022-10-15T14:45:53Z</time>
      </trkpt>
      <trkpt lat="43.72947" lon="1.47142">
        <ele>156</ele>
        <time>2022-10-15T14:45:55Z</time>
      </trkpt>
      <trkpt lat="43.73006" lon="1.47165">
        <ele>155</ele>
        <time>2022-10-15T14:46:08Z</time>
      </trkpt>
      <trkpt lat="43.73016" lon="1.47168">
        <ele>154</ele>
        <time>2022-10-15T14:46:10Z</time>
      </trkpt>
      <trkpt lat="43.73022" lon="1.47163">
        <ele>154</ele>
        <time>2022-10-15T14:46:12Z</time>
      </trkpt>
      <trkpt lat="43.73025" lon="1.47153">
        <ele>154</ele>
        <time>2022-10-15T14:46:14Z</time>
      </trkpt>
      <trkpt lat="43.73022" lon="1.47143">
        <ele>154</ele>
        <time>2022-10-15T14:46:16Z</time>
      </trkpt>
      <trkpt lat="43.73019" lon="1.47131">
        <ele>155</ele>
        <time>2022-10-15T14:46:18Z</time>
      </trkpt>
      <trkpt lat="43.73021" lon="1.47119">
        <ele>155</ele>
        <time>2022-10-15T14:46:20Z</time>
      </trkpt>
      <trkpt lat="43.73043" lon="1.47075">
        <ele>155</ele>
        <time>2022-10-15T14:46:28Z</time>
      </trkpt>
      <trkpt lat="43.73048" lon="1.47064">
        <ele>155</ele>
        <time>2022-10-15T14:46:30Z</time>
      </trkpt>
      <trkpt lat="43.73049" lon="1.47052">
        <ele>155</ele>
        <time>2022-10-15T14:46:33Z</time>
      </trkpt>
      <trkpt lat="43.73054" lon="1.47044">
        <ele>155</ele>
        <time>2022-10-15T14:46:38Z</time>
      </trkpt>
      <trkpt lat="43.73053" lon="1.47029">
        <ele>155</ele>
        <time>2022-10-15T14:46:43Z</time>
      </trkpt>
      <trkpt lat="43.73056" lon="1.47014">
        <ele>155</ele>
        <time>2022-10-15T14:46:46Z</time>
      </trkpt>
      <trkpt lat="43.73071" lon="1.46985">
        <ele>155</ele>
        <time>2022-10-15T14:46:51Z</time>
      </trkpt>
      <trkpt lat="43.7308" lon="1.4696">
        <ele>154</ele>
        <time>2022-10-15T14:46:55Z</time>
      </trkpt>
      <trkpt lat="43.73079" lon="1.46945">
        <ele>155</ele>
        <time>2022-10-15T14:46:58Z</time>
      </trkpt>
      <trkpt lat="43.73079" lon="1.46928">
        <ele>156</ele>
        <time>2022-10-15T14:47:02Z</time>
      </trkpt>
      <trkpt lat="43.73114" lon="1.46857">
        <ele>156</ele>
        <time>2022-10-15T14:47:19Z</time>
      </trkpt>
      <trkpt lat="43.73123" lon="1.46848">
        <ele>155</ele>
        <time>2022-10-15T14:47:22Z</time>
      </trkpt>
      <trkpt lat="43.73133" lon="1.46833">
        <ele>155</ele>
        <time>2022-10-15T14:47:25Z</time>
      </trkpt>
      <trkpt lat="43.73147" lon="1.46804">
        <ele>154</ele>
        <time>2022-10-15T14:47:33Z</time>
      </trkpt>
      <trkpt lat="43.73152" lon="1.46794">
        <ele>154</ele>
        <time>2022-10-15T14:47:35Z</time>
      </trkpt>
      <trkpt lat="43.73156" lon="1.46756">
        <ele>154</ele>
        <time>2022-10-15T14:47:42Z</time>
      </trkpt>
      <trkpt lat="43.73162" lon="1.46737">
        <ele>154</ele>
        <time>2022-10-15T14:47:46Z</time>
      </trkpt>
      <trkpt lat="43.73173" lon="1.46703">
        <ele>155</ele>
        <time>2022-10-15T14:47:53Z</time>
      </trkpt>
      <trkpt lat="43.7318" lon="1.46697">
        <ele>155</ele>
        <time>2022-10-15T14:47:56Z</time>
      </trkpt>
      <trkpt lat="43.7319" lon="1.4669">
        <ele>155</ele>
        <time>2022-10-15T14:48:03Z</time>
      </trkpt>
      <trkpt lat="43.73195" lon="1.46674">
        <ele>155</ele>
        <time>2022-10-15T14:48:08Z</time>
      </trkpt>
      <trkpt lat="43.73199" lon="1.46658">
        <ele>155</ele>
        <time>2022-10-15T14:48:11Z</time>
      </trkpt>
      <trkpt lat="43.73204" lon="1.46642">
        <ele>154</ele>
        <time>2022-10-15T14:48:15Z</time>
      </trkpt>
      <trkpt lat="43.73212" lon="1.46628">
        <ele>155</ele>
        <time>2022-10-15T14:48:20Z</time>
      </trkpt>
      <trkpt lat="43.7325" lon="1.4656">
        <ele>155</ele>
        <time>2022-10-15T14:48:33Z</time>
      </trkpt>
      <trkpt lat="43.73257" lon="1.46536">
        <ele>155</ele>
        <time>2022-10-15T14:48:37Z</time>
      </trkpt>
      <trkpt lat="43.73263" lon="1.46518">
        <ele>156</ele>
        <time>2022-10-15T14:48:40Z</time>
      </trkpt>
      <trkpt lat="43.73275" lon="1.46504">
        <ele>156</ele>
        <time>2022-10-15T14:48:43Z</time>
      </trkpt>
      <trkpt lat="43.73306" lon="1.46496">
        <ele>153</ele>
        <time>2022-10-15T14:48:51Z</time>
      </trkpt>
      <trkpt lat="43.73317" lon="1.46489">
        <ele>153</ele>
        <time>2022-10-15T14:48:54Z</time>
      </trkpt>
      <trkpt lat="43.73321" lon="1.46477">
        <ele>153</ele>
        <time>2022-10-15T14:49:00Z</time>
      </trkpt>
      <trkpt lat="43.73323" lon="1.46467">
        <ele>153</ele>
        <time>2022-10-15T14:49:09Z</time>
      </trkpt>
      <trkpt lat="43.73318" lon="1.46461">
        <ele>154</ele>
        <time>2022-10-15T14:49:11Z</time>
      </trkpt>
      <trkpt lat="43.73314" lon="1.46454">
        <ele>154</ele>
        <time>2022-10-15T14:49:13Z</time>
      </trkpt>
      <trkpt lat="43.73311" lon="1.46443">
        <ele>154</ele>
        <time>2022-10-15T14:49:15Z</time>
      </trkpt>
      <trkpt lat="43.73312" lon="1.46436">
        <ele>154</ele>
        <time>2022-10-15T14:49:16Z</time>
      </trkpt>
      <trkpt lat="43.73361" lon="1.46325">
        <ele>157</ele>
        <time>2022-10-15T14:49:37Z</time>
      </trkpt>
      <trkpt lat="43.73369" lon="1.46299">
        <ele>157</ele>
        <time>2022-10-15T14:49:41Z</time>
      </trkpt>
      <trkpt lat="43.73367" lon="1.46284">
        <ele>156</ele>
        <time>2022-10-15T14:49:43Z</time>
      </trkpt>
      <trkpt lat="43.73363" lon="1.46279">
        <ele>156</ele>
        <time>2022-10-15T14:49:44Z</time>
      </trkpt>
      <trkpt lat="43.73342" lon="1.46271">
        <ele>156</ele>
        <time>2022-10-15T14:49:48Z</time>
      </trkpt>
      <trkpt lat="43.73321" lon="1.46268">
        <ele>156</ele>
        <time>2022-10-15T14:49:52Z</time>
      </trkpt>
      <trkpt lat="43.73306" lon="1.46262">
        <ele>156</ele>
        <time>2022-10-15T14:49:55Z</time>
      </trkpt>
      <trkpt lat="43.73297" lon="1.46255">
        <ele>156</ele>
        <time>2022-10-15T14:49:57Z</time>
      </trkpt>
      <trkpt lat="43.73293" lon="1.4625">
        <ele>157</ele>
        <time>2022-10-15T14:49:58Z</time>
      </trkpt>
      <trkpt lat="43.73278" lon="1.46218">
        <ele>156</ele>
        <time>2022-10-15T14:50:04Z</time>
      </trkpt>
      <trkpt lat="43.73273" lon="1.46208">
        <ele>156</ele>
        <time>2022-10-15T14:50:06Z</time>
      </trkpt>
      <trkpt lat="43.73268" lon="1.462">
        <ele>156</ele>
        <time>2022-10-15T14:50:08Z</time>
      </trkpt>
      <trkpt lat="43.73258" lon="1.46193">
        <ele>156</ele>
        <time>2022-10-15T14:50:12Z</time>
      </trkpt>
      <trkpt lat="43.73251" lon="1.46194">
        <ele>157</ele>
        <time>2022-10-15T14:50:15Z</time>
      </trkpt>
      <trkpt lat="43.73228" lon="1.46243">
        <ele>157</ele>
        <time>2022-10-15T14:50:24Z</time>
      </trkpt>
      <trkpt lat="43.73214" lon="1.46246">
        <ele>157</ele>
        <time>2022-10-15T14:50:28Z</time>
      </trkpt>
      <trkpt lat="43.73204" lon="1.46236">
        <ele>158</ele>
        <time>2022-10-15T14:50:31Z</time>
      </trkpt>
      <trkpt lat="43.73199" lon="1.46225">
        <ele>158</ele>
        <time>2022-10-15T14:50:33Z</time>
      </trkpt>
      <trkpt lat="43.73164" lon="1.46179">
        <ele>159</ele>
        <time>2022-10-15T14:50:42Z</time>
      </trkpt>
      <trkpt lat="43.73153" lon="1.46154">
        <ele>160</ele>
        <time>2022-10-15T14:50:46Z</time>
      </trkpt>
      <trkpt lat="43.73122" lon="1.46116">
        <ele>161</ele>
        <time>2022-10-15T14:50:54Z</time>
      </trkpt>
      <trkpt lat="43.73105" lon="1.4609">
        <ele>162</ele>
        <time>2022-10-15T14:50:59Z</time>
      </trkpt>
      <trkpt lat="43.73101" lon="1.46069">
        <ele>162</ele>
        <time>2022-10-15T14:51:02Z</time>
      </trkpt>
      <trkpt lat="43.73097" lon="1.46056">
        <ele>161</ele>
        <time>2022-10-15T14:51:04Z</time>
      </trkpt>
      <trkpt lat="43.73084" lon="1.46044">
        <ele>162</ele>
        <time>2022-10-15T14:51:07Z</time>
      </trkpt>
      <trkpt lat="43.73071" lon="1.46038">
        <ele>162</ele>
        <time>2022-10-15T14:51:10Z</time>
      </trkpt>
      <trkpt lat="43.73069" lon="1.46028">
        <ele>162</ele>
        <time>2022-10-15T14:51:16Z</time>
      </trkpt>
      <trkpt lat="43.73104" lon="1.45967">
        <ele>162</ele>
        <time>2022-10-15T14:51:30Z</time>
      </trkpt>
      <trkpt lat="43.73113" lon="1.45951">
        <ele>162</ele>
        <time>2022-10-15T14:51:33Z</time>
      </trkpt>
      <trkpt lat="43.73118" lon="1.4593">
        <ele>161</ele>
        <time>2022-10-15T14:51:37Z</time>
      </trkpt>
      <trkpt lat="43.7313" lon="1.45908">
        <ele>161</ele>
        <time>2022-10-15T14:51:42Z</time>
      </trkpt>
      <trkpt lat="43.73141" lon="1.45889">
        <ele>161</ele>
        <time>2022-10-15T14:51:46Z</time>
      </trkpt>
      <trkpt lat="43.73133" lon="1.45868">
        <ele>162</ele>
        <time>2022-10-15T14:51:53Z</time>
      </trkpt>
      <trkpt lat="43.73125" lon="1.45848">
        <ele>164</ele>
        <time>2022-10-15T14:51:58Z</time>
      </trkpt>
      <trkpt lat="43.73126" lon="1.45823">
        <ele>165</ele>
        <time>2022-10-15T14:52:05Z</time>
      </trkpt>
      <trkpt lat="43.7313" lon="1.45802">
        <ele>166</ele>
        <time>2022-10-15T14:52:09Z</time>
      </trkpt>
      <trkpt lat="43.73125" lon="1.45781">
        <ele>167</ele>
        <time>2022-10-15T14:52:13Z</time>
      </trkpt>
      <trkpt lat="43.7311" lon="1.45769">
        <ele>168</ele>
        <time>2022-10-15T14:52:18Z</time>
      </trkpt>
      <trkpt lat="43.73117" lon="1.45747">
        <ele>169</ele>
        <time>2022-10-15T14:52:23Z</time>
      </trkpt>
      <trkpt lat="43.73126" lon="1.45731">
        <ele>171</ele>
        <time>2022-10-15T14:52:26Z</time>
      </trkpt>
      <trkpt lat="43.73135" lon="1.45707">
        <ele>171</ele>
        <time>2022-10-15T14:52:30Z</time>
      </trkpt>
      <trkpt lat="43.73134" lon="1.45692">
        <ele>170</ele>
        <time>2022-10-15T14:52:32Z</time>
      </trkpt>
      <trkpt lat="43.73135" lon="1.45669">
        <ele>170</ele>
        <time>2022-10-15T14:52:35Z</time>
      </trkpt>
      <trkpt lat="43.7314" lon="1.45652">
        <ele>170</ele>
        <time>2022-10-15T14:52:38Z</time>
      </trkpt>
      <trkpt lat="43.7315" lon="1.45632">
        <ele>170</ele>
        <time>2022-10-15T14:52:42Z</time>
      </trkpt>
      <trkpt lat="43.73168" lon="1.45636">
        <ele>169</ele>
        <time>2022-10-15T14:52:46Z</time>
      </trkpt>
      <trkpt lat="43.73185" lon="1.45609">
        <ele>168</ele>
        <time>2022-10-15T14:52:50Z</time>
      </trkpt>
      <trkpt lat="43.73196" lon="1.45593">
        <ele>166</ele>
        <time>2022-10-15T14:52:53Z</time>
      </trkpt>
      <trkpt lat="43.73173" lon="1.45558">
        <ele>165</ele>
        <time>2022-10-15T14:53:04Z</time>
      </trkpt>
      <trkpt lat="43.73167" lon="1.45544">
        <ele>166</ele>
        <time>2022-10-15T14:53:08Z</time>
      </trkpt>
      <trkpt lat="43.73169" lon="1.4552">
        <ele>167</ele>
        <time>2022-10-15T14:53:12Z</time>
      </trkpt>
      <trkpt lat="43.73165" lon="1.45467">
        <ele>169</ele>
        <time>2022-10-15T14:53:20Z</time>
      </trkpt>
      <trkpt lat="43.73158" lon="1.45448">
        <ele>171</ele>
        <time>2022-10-15T14:53:25Z</time>
      </trkpt>
      <trkpt lat="43.73136" lon="1.45424">
        <ele>173</ele>
        <time>2022-10-15T14:53:33Z</time>
      </trkpt>
      <trkpt lat="43.73117" lon="1.454">
        <ele>177</ele>
        <time>2022-10-15T14:53:41Z</time>
      </trkpt>
      <trkpt lat="43.73105" lon="1.45384">
        <ele>179</ele>
        <time>2022-10-15T14:53:45Z</time>
      </trkpt>
      <trkpt lat="43.73098" lon="1.45378">
        <ele>180</ele>
        <time>2022-10-15T14:53:47Z</time>
      </trkpt>
      <trkpt lat="43.73086" lon="1.45378">
        <ele>181</ele>
        <time>2022-10-15T14:53:51Z</time>
      </trkpt>
      <trkpt lat="43.7307" lon="1.45388">
        <ele>182</ele>
        <time>2022-10-15T14:53:55Z</time>
      </trkpt>
      <trkpt lat="43.7306" lon="1.45393">
        <ele>183</ele>
        <time>2022-10-15T14:53:58Z</time>
      </trkpt>
      <trkpt lat="43.73048" lon="1.45384">
        <ele>183</ele>
        <time>2022-10-15T14:54:02Z</time>
      </trkpt>
      <trkpt lat="43.73037" lon="1.45384">
        <ele>184</ele>
        <time>2022-10-15T14:54:05Z</time>
      </trkpt>
      <trkpt lat="43.73011" lon="1.45392">
        <ele>186</ele>
        <time>2022-10-15T14:54:10Z</time>
      </trkpt>
      <trkpt lat="43.7302" lon="1.45403">
        <ele>185</ele>
        <time>2022-10-15T14:54:17Z</time>
      </trkpt>
      <trkpt lat="43.73029" lon="1.45415">
        <ele>185</ele>
        <time>2022-10-15T14:54:21Z</time>
      </trkpt>
      <trkpt lat="43.73059" lon="1.4545">
        <ele>183</ele>
        <time>2022-10-15T14:54:43Z</time>
      </trkpt>
      <trkpt lat="43.73055" lon="1.45488">
        <ele>181</ele>
        <time>2022-10-15T14:54:55Z</time>
      </trkpt>
      <trkpt lat="43.73075" lon="1.45529">
        <ele>179</ele>
        <time>2022-10-15T14:55:05Z</time>
      </trkpt>
      <trkpt lat="43.73083" lon="1.45547">
        <ele>179</ele>
        <time>2022-10-15T14:55:09Z</time>
      </trkpt>
      <trkpt lat="43.73084" lon="1.45567">
        <ele>178</ele>
        <time>2022-10-15T14:55:13Z</time>
      </trkpt>
      <trkpt lat="43.73095" lon="1.4559">
        <ele>177</ele>
        <time>2022-10-15T14:55:18Z</time>
      </trkpt>
      <trkpt lat="43.73093" lon="1.45636">
        <ele>176</ele>
        <time>2022-10-15T14:55:28Z</time>
      </trkpt>
      <trkpt lat="43.73092" lon="1.45653">
        <ele>176</ele>
        <time>2022-10-15T14:55:30Z</time>
      </trkpt>
      <trkpt lat="43.73095" lon="1.45675">
        <ele>176</ele>
        <time>2022-10-15T14:55:34Z</time>
      </trkpt>
      <trkpt lat="43.73097" lon="1.45699">
        <ele>175</ele>
        <time>2022-10-15T14:55:39Z</time>
      </trkpt>
      <trkpt lat="43.73088" lon="1.4572">
        <ele>175</ele>
        <time>2022-10-15T14:55:47Z</time>
      </trkpt>
      <trkpt lat="43.73069" lon="1.45729">
        <ele>176</ele>
        <time>2022-10-15T14:55:53Z</time>
      </trkpt>
      <trkpt lat="43.73055" lon="1.45729">
        <ele>178</ele>
        <time>2022-10-15T14:55:56Z</time>
      </trkpt>
      <trkpt lat="43.73045" lon="1.45727">
        <ele>183</ele>
        <time>2022-10-15T14:56:22Z</time>
      </trkpt>
      <trkpt lat="43.73061" lon="1.4567">
        <ele>184</ele>
        <time>2022-10-15T14:56:34Z</time>
      </trkpt>
      <trkpt lat="43.73041" lon="1.45624">
        <ele>176.1</ele>
        <time>2022-10-15T14:56:39Z</time>
      </trkpt>
      <trkpt lat="43.7298" lon="1.45566">
        <ele>178.8</ele>
        <time>2022-10-15T14:57:00Z</time>
      </trkpt>
      <trkpt lat="43.7297" lon="1.45557">
        <ele>179.1</ele>
        <time>2022-10-15T14:57:02Z</time>
      </trkpt>
      <trkpt lat="43.72955" lon="1.45542">
        <ele>179.6</ele>
        <time>2022-10-15T14:57:05Z</time>
      </trkpt>
      <trkpt lat="43.72976" lon="1.45481">
        <ele>179.8</ele>
        <time>2022-10-15T14:57:13Z</time>
      </trkpt>
      <trkpt lat="43.72973" lon="1.45467">
        <ele>180</ele>
        <time>2022-10-15T14:57:18Z</time>
      </trkpt>
      <trkpt lat="43.7295" lon="1.45449">
        <ele>186</ele>
        <time>2022-10-15T14:57:24Z</time>
      </trkpt>
      <trkpt lat="43.72937" lon="1.45449">
        <ele>180.3</ele>
      </trkpt>
      <trkpt lat="43.72935" lon="1.45433">
        <ele>180.2</ele>
        <time>2022-10-15T14:57:27Z</time>
      </trkpt>
      <trkpt lat="43.72944" lon="1.45414">
        <ele>180</ele>
        <time>2022-10-15T14:57:33Z</time>
      </trkpt>
      <trkpt lat="43.72932" lon="1.4541">
        <ele>179.9</ele>
        <time>2022-10-15T14:57:37Z</time>
      </trkpt>
      <trkpt lat="43.72909" lon="1.45395">
        <ele>179</ele>
        <time>2022-10-15T14:57:39Z</time>
      </trkpt>
      <trkpt lat="43.72891" lon="1.45392">
        <ele>178.2</ele>
        <time>2022-10-15T14:57:46Z</time>
      </trkpt>
      <trkpt lat="43.72875" lon="1.45384">
        <ele>184</ele>
        <time>2022-10-15T14:57:49Z</time>
      </trkpt>
      <trkpt lat="43.72853" lon="1.45382">
        <ele>183</ele>
        <time>2022-10-15T14:57:54Z</time>
      </trkpt>
      <trkpt lat="43.72841" lon="1.45376">
        <ele>183</ele>
        <time>2022-10-15T14:57:57Z</time>
      </trkpt>
      <trkpt lat="43.72827" lon="1.45365">
        <ele>184</ele>
        <time>2022-10-15T14:58:01Z</time>
      </trkpt>
      <trkpt lat="43.72794" lon="1.45302">
        <ele>179.1</ele>
        <time>2022-10-15T14:58:21Z</time>
      </trkpt>
      <trkpt lat="43.72788" lon="1.45266">
        <ele>179.2</ele>
        <time>2022-10-15T14:58:30Z</time>
      </trkpt>
      <trkpt lat="43.72783" lon="1.45233">
        <ele>179.4</ele>
      </trkpt>
      <trkpt lat="43.72787" lon="1.45214">
        <ele>179.7</ele>
        <time>2022-10-15T14:58:35Z</time>
      </trkpt>
      <trkpt lat="43.72794" lon="1.45188">
        <ele>179.4</ele>
        <time>2022-10-15T14:58:42Z</time>
      </trkpt>
      <trkpt lat="43.72811" lon="1.45129">
        <ele>178.8</ele>
        <time>2022-10-15T14:58:53Z</time>
      </trkpt>
      <trkpt lat="43.72825" lon="1.45105">
        <ele>178.3</ele>
        <time>2022-10-15T14:58:57Z</time>
      </trkpt>
      <trkpt lat="43.72848" lon="1.45076">
        <ele>177.5</ele>
      </trkpt>
      <trkpt lat="43.72851" lon="1.45062">
        <ele>177.4</ele>
        <time>2022-10-15T14:59:02Z</time>
      </trkpt>
      <trkpt lat="43.72851" lon="1.45039">
        <ele>177.4</ele>
      </trkpt>
      <trkpt lat="43.7286" lon="1.45023">
        <ele>177.1</ele>
        <time>2022-10-15T14:59:13Z</time>
      </trkpt>
      <trkpt lat="43.72876" lon="1.44968">
        <ele>178.2</ele>
      </trkpt>
      <trkpt lat="43.72883" lon="1.44959">
        <ele>178.5</ele>
      </trkpt>
      <trkpt lat="43.72891" lon="1.44925">
        <ele>179</ele>
        <time>2022-10-15T14:59:24Z</time>
      </trkpt>
      <trkpt lat="43.72895" lon="1.44906">
        <ele>179.3</ele>
      </trkpt>
      <trkpt lat="43.72889" lon="1.449">
        <ele>179.6</ele>
      </trkpt>
      <trkpt lat="43.72867" lon="1.44895">
        <ele>179.2</ele>
      </trkpt>
      <trkpt lat="43.72857" lon="1.44859">
        <ele>180</ele>
      </trkpt>
      <trkpt lat="43.72843" lon="1.44829">
        <ele>179.7</ele>
        <time>2022-10-15T14:59:31Z</time>
      </trkpt>
      <trkpt lat="43.72822" lon="1.44814">
        <ele>178.3</ele>
        <time>2022-10-15T14:59:36Z</time>
      </trkpt>
      <trkpt lat="43.7281" lon="1.44799">
        <ele>175.8</ele>
        <time>2022-10-15T14:59:43Z</time>
      </trkpt>
      <trkpt lat="43.72811" lon="1.44734">
        <ele>165</ele>
        <time>2022-10-15T14:59:48Z</time>
      </trkpt>
      <trkpt lat="43.72829" lon="1.44714">
        <ele>164.3</ele>
        <time>2022-10-15T14:59:56Z</time>
      </trkpt>
      <trkpt lat="43.72864" lon="1.44692">
        <ele>163.3</ele>
      </trkpt>
      <trkpt lat="43.72877" lon="1.44701">
        <ele>165.5</ele>
      </trkpt>
      <trkpt lat="43.72911" lon="1.44778">
        <ele>176</ele>
        <time>2022-10-15T15:00:31Z</time>
      </trkpt>
      <trkpt lat="43.72914" lon="1.44825">
        <ele>179.7</ele>
      </trkpt>
      <trkpt lat="43.72927" lon="1.44889">
        <ele>179.4</ele>
        <time>2022-10-15T15:00:53Z</time>
      </trkpt>
      <trkpt lat="43.72925" lon="1.44939">
        <ele>178.2</ele>
        <time>2022-10-15T15:01:00Z</time>
      </trkpt>
      <trkpt lat="43.72924" lon="1.44963">
        <ele>177.3</ele>
        <time>2022-10-15T15:01:04Z</time>
      </trkpt>
      <trkpt lat="43.72913" lon="1.44982">
        <ele>176.8</ele>
        <time>2022-10-15T15:01:07Z</time>
      </trkpt>
      <trkpt lat="43.72913" lon="1.44996">
        <ele>184</ele>
        <time>2022-10-15T15:01:09Z</time>
      </trkpt>
      <trkpt lat="43.7291" lon="1.45016">
        <ele>175.7</ele>
        <time>2022-10-15T15:01:11Z</time>
      </trkpt>
      <trkpt lat="43.72915" lon="1.45043">
        <ele>181</ele>
        <time>2022-10-15T15:01:15Z</time>
      </trkpt>
      <trkpt lat="43.72913" lon="1.45055">
        <ele>181</ele>
        <time>2022-10-15T15:01:17Z</time>
      </trkpt>
      <trkpt lat="43.72906" lon="1.45068">
        <ele>182</ele>
        <time>2022-10-15T15:01:19Z</time>
      </trkpt>
      <trkpt lat="43.72905" lon="1.45083">
        <ele>182</ele>
        <time>2022-10-15T15:01:21Z</time>
      </trkpt>
      <trkpt lat="43.72904" lon="1.45094">
        <ele>182</ele>
        <time>2022-10-15T15:01:23Z</time>
      </trkpt>
      <trkpt lat="43.72901" lon="1.45104">
        <ele>182</ele>
        <time>2022-10-15T15:01:25Z</time>
      </trkpt>
      <trkpt lat="43.72906" lon="1.45151">
        <ele>182</ele>
        <time>2022-10-15T15:01:31Z</time>
      </trkpt>
      <trkpt lat="43.72906" lon="1.45165">
        <ele>181</ele>
        <time>2022-10-15T15:01:33Z</time>
      </trkpt>
      <trkpt lat="43.72907" lon="1.45175">
        <ele>181</ele>
        <time>2022-10-15T15:01:35Z</time>
      </trkpt>
      <trkpt lat="43.72909" lon="1.45187">
        <ele>180</ele>
        <time>2022-10-15T15:01:37Z</time>
      </trkpt>
      <trkpt lat="43.72907" lon="1.452">
        <ele>181</ele>
        <time>2022-10-15T15:01:39Z</time>
      </trkpt>
      <trkpt lat="43.72911" lon="1.45221">
        <ele>180</ele>
        <time>2022-10-15T15:01:46Z</time>
      </trkpt>
      <trkpt lat="43.72913" lon="1.45232">
        <ele>179</ele>
        <time>2022-10-15T15:01:49Z</time>
      </trkpt>
      <trkpt lat="43.72915" lon="1.4524">
        <ele>178</ele>
        <time>2022-10-15T15:01:59Z</time>
      </trkpt>
      <trkpt lat="43.72927" lon="1.45243">
        <ele>178</ele>
        <time>2022-10-15T15:02:03Z</time>
      </trkpt>
      <trkpt lat="43.72941" lon="1.45242">
        <ele>176</ele>
        <time>2022-10-15T15:02:08Z</time>
      </trkpt>
      <trkpt lat="43.72962" lon="1.4524">
        <ele>175</ele>
        <time>2022-10-15T15:02:14Z</time>
      </trkpt>
      <trkpt lat="43.72983" lon="1.45235">
        <ele>175</ele>
        <time>2022-10-15T15:02:18Z</time>
      </trkpt>
      <trkpt lat="43.72993" lon="1.45234">
        <ele>175</ele>
        <time>2022-10-15T15:02:20Z</time>
      </trkpt>
      <trkpt lat="43.73" lon="1.45233">
        <ele>175</ele>
        <time>2022-10-15T15:02:22Z</time>
      </trkpt>
      <trkpt lat="43.7303" lon="1.45234">
        <ele>178</ele>
        <time>2022-10-15T15:02:45Z</time>
      </trkpt>
      <trkpt lat="43.7306" lon="1.45242">
        <ele>177</ele>
        <time>2022-10-15T15:02:51Z</time>
      </trkpt>
      <trkpt lat="43.73093" lon="1.45261">
        <ele>176</ele>
        <time>2022-10-15T15:02:57Z</time>
      </trkpt>
      <trkpt lat="43.73115" lon="1.45284">
        <ele>176</ele>
        <time>2022-10-15T15:03:02Z</time>
      </trkpt>
      <trkpt lat="43.73121" lon="1.4529">
        <ele>176</ele>
        <time>2022-10-15T15:03:04Z</time>
      </trkpt>
      <trkpt lat="43.73165" lon="1.45279">
        <ele>172</ele>
        <time>2022-10-15T15:03:15Z</time>
      </trkpt>
      <trkpt lat="43.73191" lon="1.45274">
        <ele>170</ele>
        <time>2022-10-15T15:03:21Z</time>
      </trkpt>
      <trkpt lat="43.73201" lon="1.45268">
        <ele>169</ele>
        <time>2022-10-15T15:03:23Z</time>
      </trkpt>
      <trkpt lat="43.73213" lon="1.45263">
        <ele>168</ele>
        <time>2022-10-15T15:03:25Z</time>
      </trkpt>
      <trkpt lat="43.73233" lon="1.45254">
        <ele>164</ele>
        <time>2022-10-15T15:03:29Z</time>
      </trkpt>
      <trkpt lat="43.73417" lon="1.45247">
        <ele>157</ele>
        <time>2022-10-15T15:03:59Z</time>
      </trkpt>
      <trkpt lat="43.73614" lon="1.45225">
        <ele>152</ele>
        <time>2022-10-15T15:04:29Z</time>
      </trkpt>
      <trkpt lat="43.73648" lon="1.45224">
        <ele>152</ele>
        <time>2022-10-15T15:04:36Z</time>
      </trkpt>
      <trkpt lat="43.73656" lon="1.45228">
        <ele>152</ele>
        <time>2022-10-15T15:04:42Z</time>
      </trkpt>
      <trkpt lat="43.73666" lon="1.45226">
        <ele>152</ele>
        <time>2022-10-15T15:04:46Z</time>
      </trkpt>
      <trkpt lat="43.73673" lon="1.45228">
        <ele>152</ele>
        <time>2022-10-15T15:04:48Z</time>
      </trkpt>
      <trkpt lat="43.73682" lon="1.45239">
        <ele>151</ele>
        <time>2022-10-15T15:04:51Z</time>
      </trkpt>
      <trkpt lat="43.73687" lon="1.4525">
        <ele>151</ele>
        <time>2022-10-15T15:04:53Z</time>
      </trkpt>
      <trkpt lat="43.7369" lon="1.45277">
        <ele>151</ele>
        <time>2022-10-15T15:04:57Z</time>
      </trkpt>
      <trkpt lat="43.73693" lon="1.4529">
        <ele>150</ele>
        <time>2022-10-15T15:04:59Z</time>
      </trkpt>
      <trkpt lat="43.73696" lon="1.45296">
        <ele>150</ele>
        <time>2022-10-15T15:05:00Z</time>
      </trkpt>
      <trkpt lat="43.73699" lon="1.453">
        <ele>150</ele>
        <time>2022-10-15T15:05:01Z</time>
      </trkpt>
      <trkpt lat="43.73745" lon="1.45321">
        <ele>149</ele>
        <time>2022-10-15T15:05:10Z</time>
      </trkpt>
      <trkpt lat="43.73822" lon="1.45343">
        <ele>147</ele>
        <time>2022-10-15T15:05:25Z</time>
      </trkpt>
      <trkpt lat="43.7393" lon="1.45322">
        <ele>145</ele>
        <time>2022-10-15T15:05:44Z</time>
      </trkpt>
      <trkpt lat="43.73957" lon="1.45335">
        <ele>145</ele>
        <time>2022-10-15T15:05:49Z</time>
      </trkpt>
      <trkpt lat="43.74111" lon="1.45445">
        <ele>142</ele>
        <time>2022-10-15T15:06:19Z</time>
      </trkpt>
      <trkpt lat="43.74284" lon="1.45588">
        <ele>135</ele>
        <time>2022-10-15T15:06:49Z</time>
      </trkpt>
      <trkpt lat="43.74379" lon="1.45657">
        <ele>136</ele>
        <time>2022-10-15T15:07:08Z</time>
      </trkpt>
      <trkpt lat="43.745" lon="1.457">
        <ele>134</ele>
        <time>2022-10-15T15:07:29Z</time>
      </trkpt>
      <trkpt lat="43.74506" lon="1.45701">
        <ele>133</ele>
        <time>2022-10-15T15:07:30Z</time>
      </trkpt>
      <trkpt lat="43.74519" lon="1.45699">
        <ele>133</ele>
        <time>2022-10-15T15:07:32Z</time>
      </trkpt>
      <trkpt lat="43.74528" lon="1.457">
        <ele>133</ele>
        <time>2022-10-15T15:07:34Z</time>
      </trkpt>
      <trkpt lat="43.74533" lon="1.45696">
        <ele>133</ele>
        <time>2022-10-15T15:07:36Z</time>
      </trkpt>
      <trkpt lat="43.74541" lon="1.4567">
        <ele>133</ele>
        <time>2022-10-15T15:07:41Z</time>
      </trkpt>
      <trkpt lat="43.74578" lon="1.45431">
        <ele>134</ele>
        <time>2022-10-15T15:08:10Z</time>
      </trkpt>
      <trkpt lat="43.74579" lon="1.454">
        <ele>134</ele>
        <time>2022-10-15T15:08:14Z</time>
      </trkpt>
      <trkpt lat="43.74583" lon="1.45385">
        <ele>135</ele>
        <time>2022-10-15T15:08:16Z</time>
      </trkpt>
      <trkpt lat="43.74645" lon="1.4525">
        <ele>135</ele>
        <time>2022-10-15T15:08:36Z</time>
      </trkpt>
      <trkpt lat="43.74654" lon="1.45194">
        <ele>134</ele>
        <time>2022-10-15T15:08:43Z</time>
      </trkpt>
      <trkpt lat="43.74662" lon="1.45112">
        <ele>133</ele>
        <time>2022-10-15T15:08:53Z</time>
      </trkpt>
      <trkpt lat="43.74659" lon="1.45097">
        <ele>133</ele>
        <time>2022-10-15T15:08:55Z</time>
      </trkpt>
      <trkpt lat="43.74639" lon="1.45037">
        <ele>132</ele>
        <time>2022-10-15T15:09:03Z</time>
      </trkpt>
      <trkpt lat="43.74638" lon="1.45013">
        <ele>132</ele>
        <time>2022-10-15T15:09:06Z</time>
      </trkpt>
      <trkpt lat="43.74646" lon="1.4477">
        <ele>132</ele>
        <time>2022-10-15T15:09:36Z</time>
      </trkpt>
      <trkpt lat="43.74653" lon="1.44621">
        <ele>132</ele>
        <time>2022-10-15T15:09:55Z</time>
      </trkpt>
      <trkpt lat="43.74671" lon="1.44379">
        <ele>133</ele>
        <time>2022-10-15T15:10:25Z</time>
      </trkpt>
      <trkpt lat="43.74674" lon="1.44346">
        <ele>133</ele>
        <time>2022-10-15T15:10:29Z</time>
      </trkpt>
      <trkpt lat="43.74685" lon="1.44315">
        <ele>133</ele>
        <time>2022-10-15T15:10:33Z</time>
      </trkpt>
      <trkpt lat="43.7478" lon="1.44098">
        <ele>132</ele>
        <time>2022-10-15T15:11:03Z</time>
      </trkpt>
      <trkpt lat="43.74879" lon="1.43892">
        <ele>131</ele>
        <time>2022-10-15T15:11:33Z</time>
      </trkpt>
      <trkpt lat="43.74984" lon="1.43689">
        <ele>130</ele>
        <time>2022-10-15T15:12:03Z</time>
      </trkpt>
      <trkpt lat="43.75075" lon="1.43472">
        <ele>129</ele>
        <time>2022-10-15T15:12:33Z</time>
      </trkpt>
      <trkpt lat="43.75134" lon="1.43317">
        <ele>131</ele>
        <time>2022-10-15T15:12:55Z</time>
      </trkpt>
      <trkpt lat="43.75141" lon="1.43312">
        <ele>132</ele>
        <time>2022-10-15T15:12:58Z</time>
      </trkpt>
      <trkpt lat="43.75143" lon="1.43307">
        <ele>132</ele>
        <time>2022-10-15T15:13:01Z</time>
      </trkpt>
      <trkpt lat="43.75145" lon="1.43289">
        <ele>132</ele>
        <time>2022-10-15T15:13:05Z</time>
      </trkpt>
      <trkpt lat="43.75187" lon="1.43197">
        <ele>132</ele>
        <time>2022-10-15T15:13:20Z</time>
      </trkpt>
      <trkpt lat="43.75199" lon="1.4316">
        <ele>132</ele>
        <time>2022-10-15T15:13:26Z</time>
      </trkpt>
      <trkpt lat="43.75199" lon="1.43151">
        <ele>132</ele>
        <time>2022-10-15T15:13:28Z</time>
      </trkpt>
      <trkpt lat="43.75192" lon="1.43145">
        <ele>132</ele>
        <time>2022-10-15T15:13:30Z</time>
      </trkpt>
      <trkpt lat="43.75105" lon="1.43105">
        <ele>133</ele>
        <time>2022-10-15T15:13:49Z</time>
      </trkpt>
      <trkpt lat="43.75072" lon="1.43065">
        <ele>134</ele>
        <time>2022-10-15T15:13:59Z</time>
      </trkpt>
      <trkpt lat="43.75044" lon="1.43025">
        <ele>134</ele>
        <time>2022-10-15T15:14:06Z</time>
      </trkpt>
      <trkpt lat="43.75015" lon="1.43004">
        <ele>135</ele>
        <time>2022-10-15T15:14:12Z</time>
      </trkpt>
      <trkpt lat="43.7496" lon="1.42975">
        <ele>136</ele>
        <time>2022-10-15T15:14:23Z</time>
      </trkpt>
      <trkpt lat="43.74957" lon="1.4297">
        <ele>136</ele>
        <time>2022-10-15T15:14:24Z</time>
      </trkpt>
      <trkpt lat="43.74947" lon="1.42908">
        <ele>136</ele>
        <time>2022-10-15T15:14:32Z</time>
      </trkpt>
      <trkpt lat="43.74949" lon="1.42878">
        <ele>137</ele>
        <time>2022-10-15T15:14:36Z</time>
      </trkpt>
      <trkpt lat="43.74947" lon="1.42871">
        <ele>137</ele>
        <time>2022-10-15T15:14:37Z</time>
      </trkpt>
      <trkpt lat="43.74943" lon="1.42864">
        <ele>137</ele>
        <time>2022-10-15T15:14:38Z</time>
      </trkpt>
      <trkpt lat="43.74937" lon="1.42862">
        <ele>137</ele>
        <time>2022-10-15T15:14:39Z</time>
      </trkpt>
      <trkpt lat="43.74796" lon="1.42868">
        <ele>138</ele>
        <time>2022-10-15T15:15:04Z</time>
      </trkpt>
      <trkpt lat="43.74715" lon="1.42825">
        <ele>138</ele>
        <time>2022-10-15T15:15:19Z</time>
      </trkpt>
      <trkpt lat="43.74569" lon="1.42734">
        <ele>141</ele>
        <time>2022-10-15T15:15:47Z</time>
      </trkpt>
      <trkpt lat="43.74566" lon="1.42727">
        <ele>141</ele>
        <time>2022-10-15T15:15:48Z</time>
      </trkpt>
      <trkpt lat="43.74567" lon="1.42714">
        <ele>141</ele>
        <time>2022-10-15T15:15:50Z</time>
      </trkpt>
      <trkpt lat="43.74586" lon="1.42489">
        <ele>143</ele>
        <time>2022-10-15T15:16:20Z</time>
      </trkpt>
      <trkpt lat="43.74594" lon="1.42429">
        <ele>145</ele>
        <time>2022-10-15T15:16:29Z</time>
      </trkpt>
      <trkpt lat="43.74593" lon="1.42422">
        <ele>145</ele>
        <time>2022-10-15T15:16:30Z</time>
      </trkpt>
      <trkpt lat="43.74589" lon="1.42409">
        <ele>145</ele>
        <time>2022-10-15T15:16:32Z</time>
      </trkpt>
      <trkpt lat="43.74583" lon="1.42398">
        <ele>145</ele>
        <time>2022-10-15T15:16:34Z</time>
      </trkpt>
      <trkpt lat="43.74575" lon="1.42389">
        <ele>145</ele>
        <time>2022-10-15T15:16:36Z</time>
      </trkpt>
      <trkpt lat="43.74572" lon="1.42382">
        <ele>145</ele>
        <time>2022-10-15T15:16:37Z</time>
      </trkpt>
      <trkpt lat="43.7457" lon="1.42375">
        <ele>145</ele>
        <time>2022-10-15T15:16:38Z</time>
      </trkpt>
      <trkpt lat="43.74571" lon="1.42359">
        <ele>145</ele>
        <time>2022-10-15T15:16:40Z</time>
      </trkpt>
      <trkpt lat="43.74578" lon="1.42325">
        <ele>145</ele>
        <time>2022-10-15T15:16:45Z</time>
      </trkpt>
      <trkpt lat="43.74576" lon="1.42319">
        <ele>145</ele>
        <time>2022-10-15T15:16:46Z</time>
      </trkpt>
      <trkpt lat="43.7457" lon="1.42307">
        <ele>145</ele>
        <time>2022-10-15T15:16:48Z</time>
      </trkpt>
      <trkpt lat="43.74563" lon="1.42285">
        <ele>145</ele>
        <time>2022-10-15T15:16:51Z</time>
      </trkpt>
      <trkpt lat="43.74563" lon="1.42277">
        <ele>145</ele>
        <time>2022-10-15T15:16:52Z</time>
      </trkpt>
      <trkpt lat="43.74572" lon="1.4225">
        <ele>145</ele>
        <time>2022-10-15T15:16:56Z</time>
      </trkpt>
      <trkpt lat="43.74592" lon="1.422">
        <ele>145</ele>
        <time>2022-10-15T15:17:03Z</time>
      </trkpt>
      <trkpt lat="43.74594" lon="1.42193">
        <ele>145</ele>
        <time>2022-10-15T15:17:04Z</time>
      </trkpt>
      <trkpt lat="43.74574" lon="1.42104">
        <ele>145</ele>
        <time>2022-10-15T15:17:16Z</time>
      </trkpt>
      <trkpt lat="43.74571" lon="1.42098">
        <ele>145</ele>
        <time>2022-10-15T15:17:17Z</time>
      </trkpt>
      <trkpt lat="43.74561" lon="1.4209">
        <ele>145</ele>
        <time>2022-10-15T15:17:19Z</time>
      </trkpt>
      <trkpt lat="43.74545" lon="1.42085">
        <ele>145</ele>
        <time>2022-10-15T15:17:22Z</time>
      </trkpt>
      <trkpt lat="43.74484" lon="1.4203">
        <ele>147</ele>
        <time>2022-10-15T15:17:36Z</time>
      </trkpt>
      <trkpt lat="43.74412" lon="1.42003">
        <ele>149</ele>
        <time>2022-10-15T15:17:50Z</time>
      </trkpt>
      <trkpt lat="43.74383" lon="1.42005">
        <ele>151</ele>
        <time>2022-10-15T15:17:56Z</time>
      </trkpt>
      <trkpt lat="43.74374" lon="1.42007">
        <ele>151</ele>
        <time>2022-10-15T15:17:58Z</time>
      </trkpt>
      <trkpt lat="43.74365" lon="1.42013">
        <ele>151</ele>
        <time>2022-10-15T15:18:00Z</time>
      </trkpt>
      <trkpt lat="43.7435" lon="1.4202">
        <ele>151</ele>
        <time>2022-10-15T15:18:04Z</time>
      </trkpt>
      <trkpt lat="43.74334" lon="1.42018">
        <ele>153</ele>
        <time>2022-10-15T15:18:08Z</time>
      </trkpt>
      <trkpt lat="43.74298" lon="1.41996">
        <ele>155</ele>
        <time>2022-10-15T15:18:18Z</time>
      </trkpt>
      <trkpt lat="43.74289" lon="1.41993">
        <ele>155</ele>
        <time>2022-10-15T15:18:20Z</time>
      </trkpt>
      <trkpt lat="43.7428" lon="1.41992">
        <ele>156</ele>
        <time>2022-10-15T15:18:22Z</time>
      </trkpt>
      <trkpt lat="43.74259" lon="1.41995">
        <ele>158</ele>
        <time>2022-10-15T15:18:27Z</time>
      </trkpt>
      <trkpt lat="43.74242" lon="1.41993">
        <ele>160</ele>
        <time>2022-10-15T15:18:31Z</time>
      </trkpt>
      <trkpt lat="43.74227" lon="1.41986">
        <ele>161</ele>
        <time>2022-10-15T15:18:35Z</time>
      </trkpt>
      <trkpt lat="43.74221" lon="1.41985">
        <ele>162</ele>
        <time>2022-10-15T15:18:37Z</time>
      </trkpt>
      <trkpt lat="43.74214" lon="1.41982">
        <ele>162</ele>
        <time>2022-10-15T15:18:39Z</time>
      </trkpt>
      <trkpt lat="43.74209" lon="1.4198">
        <ele>162</ele>
        <time>2022-10-15T15:18:41Z</time>
      </trkpt>
      <trkpt lat="43.74203" lon="1.41981">
        <ele>163</ele>
        <time>2022-10-15T15:18:43Z</time>
      </trkpt>
      <trkpt lat="43.74187" lon="1.41993">
        <ele>166</ele>
        <time>2022-10-15T15:18:48Z</time>
      </trkpt>
      <trkpt lat="43.74179" lon="1.42005">
        <ele>166</ele>
        <time>2022-10-15T15:18:52Z</time>
      </trkpt>
      <trkpt lat="43.74173" lon="1.42012">
        <ele>166</ele>
        <time>2022-10-15T15:18:54Z</time>
      </trkpt>
      <trkpt lat="43.74165" lon="1.42015">
        <ele>167</ele>
        <time>2022-10-15T15:18:57Z</time>
      </trkpt>
      <trkpt lat="43.74152" lon="1.42019">
        <ele>170</ele>
        <time>2022-10-15T15:19:01Z</time>
      </trkpt>
      <trkpt lat="43.74129" lon="1.42027">
        <ele>172</ele>
        <time>2022-10-15T15:19:08Z</time>
      </trkpt>
      <trkpt lat="43.74102" lon="1.4203">
        <ele>174</ele>
        <time>2022-10-15T15:19:17Z</time>
      </trkpt>
      <trkpt lat="43.74091" lon="1.42042">
        <ele>174</ele>
        <time>2022-10-15T15:19:21Z</time>
      </trkpt>
      <trkpt lat="43.74089" lon="1.42046">
        <ele>174</ele>
        <time>2022-10-15T15:19:22Z</time>
      </trkpt>
      <trkpt lat="43.74083" lon="1.42055">
        <ele>175</ele>
        <time>2022-10-15T15:19:24Z</time>
      </trkpt>
      <trkpt lat="43.74075" lon="1.42059">
        <ele>175</ele>
        <time>2022-10-15T15:19:26Z</time>
      </trkpt>
      <trkpt lat="43.74004" lon="1.42073">
        <ele>176</ele>
        <time>2022-10-15T15:19:42Z</time>
      </trkpt>
      <trkpt lat="43.73963" lon="1.42094">
        <ele>177</ele>
        <time>2022-10-15T15:19:52Z</time>
      </trkpt>
      <trkpt lat="43.73947" lon="1.42111">
        <ele>177</ele>
        <time>2022-10-15T15:19:57Z</time>
      </trkpt>
      <trkpt lat="43.73948" lon="1.42118">
        <ele>177</ele>
        <time>2022-10-15T15:19:59Z</time>
      </trkpt>
      <trkpt lat="43.73955" lon="1.42126">
        <ele>177</ele>
        <time>2022-10-15T15:20:01Z</time>
      </trkpt>
      <trkpt lat="43.73961" lon="1.42143">
        <ele>177</ele>
        <time>2022-10-15T15:20:04Z</time>
      </trkpt>
      <trkpt lat="43.73961" lon="1.42157">
        <ele>176</ele>
        <time>2022-10-15T15:20:06Z</time>
      </trkpt>
      <trkpt lat="43.73959" lon="1.42163">
        <ele>176</ele>
        <time>2022-10-15T15:20:07Z</time>
      </trkpt>
      <trkpt lat="43.73955" lon="1.42166">
        <ele>177</ele>
        <time>2022-10-15T15:20:08Z</time>
      </trkpt>
      <trkpt lat="43.73951" lon="1.42173">
        <ele>176</ele>
        <time>2022-10-15T15:20:10Z</time>
      </trkpt>
      <trkpt lat="43.73949" lon="1.42184">
        <ele>176</ele>
        <time>2022-10-15T15:20:12Z</time>
      </trkpt>
      <trkpt lat="43.73944" lon="1.42193">
        <ele>175</ele>
        <time>2022-10-15T15:20:14Z</time>
      </trkpt>
      <trkpt lat="43.73945" lon="1.42205">
        <ele>175</ele>
        <time>2022-10-15T15:20:16Z</time>
      </trkpt>
      <trkpt lat="43.73943" lon="1.42217">
        <ele>175</ele>
        <time>2022-10-15T15:20:18Z</time>
      </trkpt>
      <trkpt lat="43.73935" lon="1.42225">
        <ele>175</ele>
        <time>2022-10-15T15:20:20Z</time>
      </trkpt>
      <trkpt lat="43.7392" lon="1.42241">
        <ele>175</ele>
        <time>2022-10-15T15:20:24Z</time>
      </trkpt>
      <trkpt lat="43.73915" lon="1.42248">
        <ele>175</ele>
        <time>2022-10-15T15:20:26Z</time>
      </trkpt>
      <trkpt lat="43.73898" lon="1.42251">
        <ele>175</ele>
        <time>2022-10-15T15:20:30Z</time>
      </trkpt>
      <trkpt lat="43.73893" lon="1.42256">
        <ele>175</ele>
        <time>2022-10-15T15:20:32Z</time>
      </trkpt>
      <trkpt lat="43.73888" lon="1.42266">
        <ele>175</ele>
        <time>2022-10-15T15:20:34Z</time>
      </trkpt>
      <trkpt lat="43.73883" lon="1.42272">
        <ele>175</ele>
        <time>2022-10-15T15:20:35Z</time>
      </trkpt>
      <trkpt lat="43.7388" lon="1.42277">
        <ele>176</ele>
        <time>2022-10-15T15:20:36Z</time>
      </trkpt>
      <trkpt lat="43.73874" lon="1.42285">
        <ele>176</ele>
        <time>2022-10-15T15:20:38Z</time>
      </trkpt>
      <trkpt lat="43.73865" lon="1.4229">
        <ele>176</ele>
        <time>2022-10-15T15:20:40Z</time>
      </trkpt>
      <trkpt lat="43.73858" lon="1.42294">
        <ele>176</ele>
        <time>2022-10-15T15:20:42Z</time>
      </trkpt>
      <trkpt lat="43.73855" lon="1.42318">
        <ele>177</ele>
        <time>2022-10-15T15:20:46Z</time>
      </trkpt>
      <trkpt lat="43.73847" lon="1.42335">
        <ele>177</ele>
        <time>2022-10-15T15:20:49Z</time>
      </trkpt>
      <trkpt lat="43.73843" lon="1.42343">
        <ele>177</ele>
        <time>2022-10-15T15:20:51Z</time>
      </trkpt>
      <trkpt lat="43.7384" lon="1.42351">
        <ele>177</ele>
        <time>2022-10-15T15:20:53Z</time>
      </trkpt>
      <trkpt lat="43.73834" lon="1.42357">
        <ele>177</ele>
        <time>2022-10-15T15:20:55Z</time>
      </trkpt>
      <trkpt lat="43.73832" lon="1.42368">
        <ele>176</ele>
        <time>2022-10-15T15:20:57Z</time>
      </trkpt>
      <trkpt lat="43.73826" lon="1.4237">
        <ele>176</ele>
        <time>2022-10-15T15:20:59Z</time>
      </trkpt>
      <trkpt lat="43.73819" lon="1.42366">
        <ele>177</ele>
        <time>2022-10-15T15:21:01Z</time>
      </trkpt>
      <trkpt lat="43.73813" lon="1.42363">
        <ele>177</ele>
        <time>2022-10-15T15:21:03Z</time>
      </trkpt>
      <trkpt lat="43.73807" lon="1.42365">
        <ele>178</ele>
        <time>2022-10-15T15:21:05Z</time>
      </trkpt>
      <trkpt lat="43.73802" lon="1.4237">
        <ele>178</ele>
        <time>2022-10-15T15:21:07Z</time>
      </trkpt>
      <trkpt lat="43.73796" lon="1.42377">
        <ele>178</ele>
        <time>2022-10-15T15:21:09Z</time>
      </trkpt>
      <trkpt lat="43.73799" lon="1.42391">
        <ele>178</ele>
        <time>2022-10-15T15:21:11Z</time>
      </trkpt>
      <trkpt lat="43.73799" lon="1.42403">
        <ele>177</ele>
        <time>2022-10-15T15:21:12Z</time>
      </trkpt>
      <trkpt lat="43.73808" lon="1.42412">
        <ele>177</ele>
        <time>2022-10-15T15:21:14Z</time>
      </trkpt>
      <trkpt lat="43.73813" lon="1.42417">
        <ele>176</ele>
        <time>2022-10-15T15:21:15Z</time>
      </trkpt>
      <trkpt lat="43.73817" lon="1.42427">
        <ele>175</ele>
        <time>2022-10-15T15:21:17Z</time>
      </trkpt>
      <trkpt lat="43.73815" lon="1.42435">
        <ele>175</ele>
        <time>2022-10-15T15:21:19Z</time>
      </trkpt>
      <trkpt lat="43.73813" lon="1.42443">
        <ele>175</ele>
        <time>2022-10-15T15:21:21Z</time>
      </trkpt>
      <trkpt lat="43.73806" lon="1.42443">
        <ele>175</ele>
        <time>2022-10-15T15:21:23Z</time>
      </trkpt>
      <trkpt lat="43.73798" lon="1.42437">
        <ele>175</ele>
        <time>2022-10-15T15:21:25Z</time>
      </trkpt>
      <trkpt lat="43.7379" lon="1.42432">
        <ele>175</ele>
        <time>2022-10-15T15:21:27Z</time>
      </trkpt>
      <trkpt lat="43.73772" lon="1.42414">
        <ele>177</ele>
        <time>2022-10-15T15:21:33Z</time>
      </trkpt>
      <trkpt lat="43.73767" lon="1.42409">
        <ele>178</ele>
        <time>2022-10-15T15:21:35Z</time>
      </trkpt>
      <trkpt lat="43.73762" lon="1.42397">
        <ele>179</ele>
        <time>2022-10-15T15:21:37Z</time>
      </trkpt>
      <trkpt lat="43.7376" lon="1.42392">
        <ele>179</ele>
        <time>2022-10-15T15:21:38Z</time>
      </trkpt>
      <trkpt lat="43.73756" lon="1.42389">
        <ele>180</ele>
        <time>2022-10-15T15:21:40Z</time>
      </trkpt>
      <trkpt lat="43.7375" lon="1.42388">
        <ele>180</ele>
        <time>2022-10-15T15:21:43Z</time>
      </trkpt>
      <trkpt lat="43.73742" lon="1.42389">
        <ele>181</ele>
        <time>2022-10-15T15:21:46Z</time>
      </trkpt>
      <trkpt lat="43.73711" lon="1.42397">
        <ele>180</ele>
        <time>2022-10-15T15:21:52Z</time>
      </trkpt>
      <trkpt lat="43.73696" lon="1.42408">
        <ele>180</ele>
        <time>2022-10-15T15:21:55Z</time>
      </trkpt>
      <trkpt lat="43.73686" lon="1.42415">
        <ele>181</ele>
        <time>2022-10-15T15:21:57Z</time>
      </trkpt>
      <trkpt lat="43.73677" lon="1.42423">
        <ele>182</ele>
        <time>2022-10-15T15:21:59Z</time>
      </trkpt>
      <trkpt lat="43.73666" lon="1.42439">
        <ele>182</ele>
        <time>2022-10-15T15:22:02Z</time>
      </trkpt>
      <trkpt lat="43.7366" lon="1.42452">
        <ele>181</ele>
        <time>2022-10-15T15:22:04Z</time>
      </trkpt>
      <trkpt lat="43.73646" lon="1.42461">
        <ele>181</ele>
        <time>2022-10-15T15:22:07Z</time>
      </trkpt>
      <trkpt lat="43.73643" lon="1.42463">
        <ele>181</ele>
        <time>2022-10-15T15:22:08Z</time>
      </trkpt>
      <trkpt lat="43.73611" lon="1.42406">
        <ele>180</ele>
        <time>2022-10-15T15:22:19Z</time>
      </trkpt>
      <trkpt lat="43.73608" lon="1.424">
        <ele>180</ele>
        <time>2022-10-15T15:22:20Z</time>
      </trkpt>
      <trkpt lat="43.73607" lon="1.42383">
        <ele>180</ele>
        <time>2022-10-15T15:22:22Z</time>
      </trkpt>
      <trkpt lat="43.73609" lon="1.42376">
        <ele>179</ele>
        <time>2022-10-15T15:22:23Z</time>
      </trkpt>
      <trkpt lat="43.73616" lon="1.42363">
        <ele>180</ele>
        <time>2022-10-15T15:22:25Z</time>
      </trkpt>
      <trkpt lat="43.73649" lon="1.42313">
        <ele>182</ele>
        <time>2022-10-15T15:22:36Z</time>
      </trkpt>
      <trkpt lat="43.73652" lon="1.42307">
        <ele>182</ele>
        <time>2022-10-15T15:22:37Z</time>
      </trkpt>
      <trkpt lat="43.73654" lon="1.42301">
        <ele>182</ele>
        <time>2022-10-15T15:22:38Z</time>
      </trkpt>
      <trkpt lat="43.73653" lon="1.42294">
        <ele>182</ele>
        <time>2022-10-15T15:22:39Z</time>
      </trkpt>
      <trkpt lat="43.73653" lon="1.42288">
        <ele>182</ele>
        <time>2022-10-15T15:22:40Z</time>
      </trkpt>
      <trkpt lat="43.73641" lon="1.42271">
        <ele>181</ele>
        <time>2022-10-15T15:22:43Z</time>
      </trkpt>
      <trkpt lat="43.73639" lon="1.42263">
        <ele>181</ele>
        <time>2022-10-15T15:22:44Z</time>
      </trkpt>
      <trkpt lat="43.7364" lon="1.42255">
        <ele>181</ele>
        <time>2022-10-15T15:22:45Z</time>
      </trkpt>
      <trkpt lat="43.73643" lon="1.42248">
        <ele>181</ele>
        <time>2022-10-15T15:22:46Z</time>
      </trkpt>
      <trkpt lat="43.73651" lon="1.42238">
        <ele>181</ele>
        <time>2022-10-15T15:22:48Z</time>
      </trkpt>
      <trkpt lat="43.73709" lon="1.42168">
        <ele>181</ele>
        <time>2022-10-15T15:23:02Z</time>
      </trkpt>
      <trkpt lat="43.73719" lon="1.42153">
        <ele>180</ele>
        <time>2022-10-15T15:23:04Z</time>
      </trkpt>
      <trkpt lat="43.73724" lon="1.4215">
        <ele>180</ele>
        <time>2022-10-15T15:23:05Z</time>
      </trkpt>
      <trkpt lat="43.7373" lon="1.4215">
        <ele>179</ele>
        <time>2022-10-15T15:23:06Z</time>
      </trkpt>
      <trkpt lat="43.73741" lon="1.42155">
        <ele>179</ele>
        <time>2022-10-15T15:23:08Z</time>
      </trkpt>
      <trkpt lat="43.73768" lon="1.4218">
        <ele>179</ele>
        <time>2022-10-15T15:23:14Z</time>
      </trkpt>
      <trkpt lat="43.73844" lon="1.42163">
        <ele>178</ele>
        <time>2022-10-15T15:23:27Z</time>
      </trkpt>
      <trkpt lat="43.73933" lon="1.42111">
        <ele>177</ele>
        <time>2022-10-15T15:23:42Z</time>
      </trkpt>
      <trkpt lat="43.7395" lon="1.42109">
        <ele>177</ele>
        <time>2022-10-15T15:23:45Z</time>
      </trkpt>
      <trkpt lat="43.7397" lon="1.42092">
        <ele>176</ele>
        <time>2022-10-15T15:23:49Z</time>
      </trkpt>
      <trkpt lat="43.74036" lon="1.42066">
        <ele>176</ele>
        <time>2022-10-15T15:24:00Z</time>
      </trkpt>
      <trkpt lat="43.74075" lon="1.42058">
        <ele>175</ele>
        <time>2022-10-15T15:24:07Z</time>
      </trkpt>
      <trkpt lat="43.7408" lon="1.42054">
        <ele>174</ele>
        <time>2022-10-15T15:24:08Z</time>
      </trkpt>
      <trkpt lat="43.74087" lon="1.42043">
        <ele>174</ele>
        <time>2022-10-15T15:24:10Z</time>
      </trkpt>
      <trkpt lat="43.7409" lon="1.42038">
        <ele>174</ele>
        <time>2022-10-15T15:24:11Z</time>
      </trkpt>
      <trkpt lat="43.74098" lon="1.42032">
        <ele>174</ele>
        <time>2022-10-15T15:24:13Z</time>
      </trkpt>
      <trkpt lat="43.74106" lon="1.42029">
        <ele>173</ele>
        <time>2022-10-15T15:24:15Z</time>
      </trkpt>
      <trkpt lat="43.7411" lon="1.42023">
        <ele>172</ele>
        <time>2022-10-15T15:24:17Z</time>
      </trkpt>
      <trkpt lat="43.7409" lon="1.41998">
        <ele>172</ele>
        <time>2022-10-15T15:24:24Z</time>
      </trkpt>
      <trkpt lat="43.74079" lon="1.41975">
        <ele>170</ele>
        <time>2022-10-15T15:24:28Z</time>
      </trkpt>
      <trkpt lat="43.74073" lon="1.41967">
        <ele>169</ele>
        <time>2022-10-15T15:24:30Z</time>
      </trkpt>
      <trkpt lat="43.74068" lon="1.41959">
        <ele>167</ele>
        <time>2022-10-15T15:24:32Z</time>
      </trkpt>
      <trkpt lat="43.74063" lon="1.41951">
        <ele>166</ele>
        <time>2022-10-15T15:24:34Z</time>
      </trkpt>
      <trkpt lat="43.74051" lon="1.41909">
        <ele>161</ele>
        <time>2022-10-15T15:24:39Z</time>
      </trkpt>
      <trkpt lat="43.74046" lon="1.41897">
        <ele>159</ele>
        <time>2022-10-15T15:24:41Z</time>
      </trkpt>
      <trkpt lat="43.74035" lon="1.41886">
        <ele>157</ele>
        <time>2022-10-15T15:24:44Z</time>
      </trkpt>
      <trkpt lat="43.7402" lon="1.41875">
        <ele>153</ele>
        <time>2022-10-15T15:24:50Z</time>
      </trkpt>
      <trkpt lat="43.74012" lon="1.4186">
        <ele>151</ele>
        <time>2022-10-15T15:24:51Z</time>
      </trkpt>
      <trkpt lat="43.74008" lon="1.41852">
        <ele>150</ele>
        <time>2022-10-15T15:24:52Z</time>
      </trkpt>
      <trkpt lat="43.74008" lon="1.41844">
        <ele>150</ele>
        <time>2022-10-15T15:24:54Z</time>
      </trkpt>
      <trkpt lat="43.74031" lon="1.4184">
        <ele>150</ele>
        <time>2022-10-15T15:25:01Z</time>
      </trkpt>
      <trkpt lat="43.74038" lon="1.41843">
        <ele>150</ele>
        <time>2022-10-15T15:25:03Z</time>
      </trkpt>
      <trkpt lat="43.74063" lon="1.41842">
        <ele>150</ele>
        <time>2022-10-15T15:25:09Z</time>
      </trkpt>
      <trkpt lat="43.74071" lon="1.41839">
        <ele>150</ele>
        <time>2022-10-15T15:25:11Z</time>
      </trkpt>
      <trkpt lat="43.741" lon="1.41828">
        <ele>147</ele>
        <time>2022-10-15T15:25:21Z</time>
      </trkpt>
      <trkpt lat="43.74108" lon="1.41829">
        <ele>147</ele>
        <time>2022-10-15T15:25:23Z</time>
      </trkpt>
      <trkpt lat="43.74154" lon="1.41822">
        <ele>147</ele>
        <time>2022-10-15T15:25:33Z</time>
      </trkpt>
      <trkpt lat="43.74176" lon="1.4181">
        <ele>147</ele>
        <time>2022-10-15T15:25:38Z</time>
      </trkpt>
      <trkpt lat="43.74187" lon="1.41806">
        <ele>147</ele>
        <time>2022-10-15T15:25:41Z</time>
      </trkpt>
      <trkpt lat="43.74192" lon="1.41809">
        <ele>147</ele>
        <time>2022-10-15T15:25:44Z</time>
      </trkpt>
      <trkpt lat="43.74197" lon="1.41812">
        <ele>147</ele>
        <time>2022-10-15T15:25:46Z</time>
      </trkpt>
      <trkpt lat="43.74203" lon="1.41811">
        <ele>147</ele>
        <time>2022-10-15T15:25:48Z</time>
      </trkpt>
      <trkpt lat="43.74211" lon="1.41807">
        <ele>146</ele>
        <time>2022-10-15T15:25:50Z</time>
      </trkpt>
      <trkpt lat="43.74217" lon="1.41812">
        <ele>146</ele>
        <time>2022-10-15T15:25:52Z</time>
      </trkpt>
      <trkpt lat="43.74238" lon="1.41824">
        <ele>146</ele>
        <time>2022-10-15T15:25:59Z</time>
      </trkpt>
      <trkpt lat="43.74247" lon="1.41825">
        <ele>146</ele>
        <time>2022-10-15T15:26:03Z</time>
      </trkpt>
      <trkpt lat="43.74256" lon="1.41832">
        <ele>146</ele>
        <time>2022-10-15T15:26:05Z</time>
      </trkpt>
      <trkpt lat="43.74265" lon="1.41838">
        <ele>145</ele>
        <time>2022-10-15T15:26:07Z</time>
      </trkpt>
      <trkpt lat="43.74273" lon="1.41839">
        <ele>145</ele>
        <time>2022-10-15T15:26:08Z</time>
      </trkpt>
      <trkpt lat="43.74284" lon="1.41841">
        <ele>144</ele>
        <time>2022-10-15T15:26:10Z</time>
      </trkpt>
      <trkpt lat="43.74333" lon="1.41878">
        <ele>144</ele>
        <time>2022-10-15T15:26:22Z</time>
      </trkpt>
      <trkpt lat="43.74342" lon="1.41885">
        <ele>144</ele>
        <time>2022-10-15T15:26:24Z</time>
      </trkpt>
      <trkpt lat="43.74349" lon="1.41889">
        <ele>144</ele>
        <time>2022-10-15T15:26:26Z</time>
      </trkpt>
      <trkpt lat="43.7436" lon="1.41891">
        <ele>144</ele>
        <time>2022-10-15T15:26:28Z</time>
      </trkpt>
      <trkpt lat="43.74366" lon="1.41898">
        <ele>144</ele>
        <time>2022-10-15T15:26:30Z</time>
      </trkpt>
      <trkpt lat="43.74374" lon="1.41906">
        <ele>144</ele>
        <time>2022-10-15T15:26:32Z</time>
      </trkpt>
      <trkpt lat="43.74396" lon="1.41915">
        <ele>145</ele>
        <time>2022-10-15T15:26:37Z</time>
      </trkpt>
      <trkpt lat="43.7442" lon="1.41928">
        <ele>145</ele>
        <time>2022-10-15T15:26:49Z</time>
      </trkpt>
      <trkpt lat="43.7443" lon="1.41935">
        <ele>145</ele>
        <time>2022-10-15T15:26:56Z</time>
      </trkpt>
      <trkpt lat="43.74437" lon="1.41941">
        <ele>144</ele>
        <time>2022-10-15T15:26:58Z</time>
      </trkpt>
      <trkpt lat="43.74453" lon="1.41934">
        <ele>142</ele>
        <time>2022-10-15T15:27:04Z</time>
      </trkpt>
      <trkpt lat="43.74464" lon="1.41924">
        <ele>142</ele>
        <time>2022-10-15T15:27:08Z</time>
      </trkpt>
      <trkpt lat="43.74468" lon="1.41916">
        <ele>142</ele>
        <time>2022-10-15T15:27:10Z</time>
      </trkpt>
      <trkpt lat="43.74468" lon="1.41905">
        <ele>143</ele>
        <time>2022-10-15T15:27:12Z</time>
      </trkpt>
      <trkpt lat="43.74463" lon="1.41899">
        <ele>144</ele>
        <time>2022-10-15T15:27:14Z</time>
      </trkpt>
      <trkpt lat="43.74455" lon="1.41893">
        <ele>144</ele>
        <time>2022-10-15T15:27:17Z</time>
      </trkpt>
      <trkpt lat="43.74446" lon="1.41887">
        <ele>144</ele>
        <time>2022-10-15T15:27:19Z</time>
      </trkpt>
      <trkpt lat="43.74436" lon="1.41883">
        <ele>144</ele>
        <time>2022-10-15T15:27:21Z</time>
      </trkpt>
      <trkpt lat="43.74426" lon="1.41885">
        <ele>144</ele>
        <time>2022-10-15T15:27:23Z</time>
      </trkpt>
      <trkpt lat="43.74417" lon="1.41886">
        <ele>144</ele>
        <time>2022-10-15T15:27:26Z</time>
      </trkpt>
      <trkpt lat="43.74409" lon="1.4188">
        <ele>145</ele>
        <time>2022-10-15T15:27:30Z</time>
      </trkpt>
      <trkpt lat="43.74377" lon="1.4186">
        <ele>145</ele>
        <time>2022-10-15T15:27:47Z</time>
      </trkpt>
      <trkpt lat="43.74358" lon="1.41846">
        <ele>145</ele>
        <time>2022-10-15T15:27:51Z</time>
      </trkpt>
      <trkpt lat="43.74267" lon="1.418">
        <ele>145</ele>
        <time>2022-10-15T15:28:12Z</time>
      </trkpt>
      <trkpt lat="43.74247" lon="1.4179">
        <ele>146</ele>
        <time>2022-10-15T15:28:16Z</time>
      </trkpt>
      <trkpt lat="43.74237" lon="1.41784">
        <ele>146</ele>
        <time>2022-10-15T15:28:18Z</time>
      </trkpt>
      <trkpt lat="43.74227" lon="1.41779">
        <ele>146</ele>
        <time>2022-10-15T15:28:20Z</time>
      </trkpt>
      <trkpt lat="43.74221" lon="1.41757">
        <ele>148</ele>
        <time>2022-10-15T15:28:25Z</time>
      </trkpt>
      <trkpt lat="43.74222" lon="1.41743">
        <ele>149</ele>
        <time>2022-10-15T15:28:28Z</time>
      </trkpt>
      <trkpt lat="43.74222" lon="1.41732">
        <ele>150</ele>
        <time>2022-10-15T15:28:30Z</time>
      </trkpt>
      <trkpt lat="43.7422" lon="1.41721">
        <ele>151</ele>
        <time>2022-10-15T15:28:33Z</time>
      </trkpt>
      <trkpt lat="43.74212" lon="1.41717">
        <ele>151</ele>
        <time>2022-10-15T15:28:35Z</time>
      </trkpt>
      <trkpt lat="43.74182" lon="1.41706">
        <ele>152</ele>
        <time>2022-10-15T15:28:43Z</time>
      </trkpt>
      <trkpt lat="43.7414" lon="1.41693">
        <ele>155</ele>
        <time>2022-10-15T15:28:55Z</time>
      </trkpt>
      <trkpt lat="43.74129" lon="1.4169">
        <ele>155</ele>
        <time>2022-10-15T15:28:57Z</time>
      </trkpt>
      <trkpt lat="43.74068" lon="1.41697">
        <ele>158</ele>
        <time>2022-10-15T15:29:09Z</time>
      </trkpt>
      <trkpt lat="43.74057" lon="1.41699">
        <ele>158</ele>
        <time>2022-10-15T15:29:11Z</time>
      </trkpt>
      <trkpt lat="43.7405" lon="1.41695">
        <ele>159</ele>
        <time>2022-10-15T15:29:13Z</time>
      </trkpt>
      <trkpt lat="43.73956" lon="1.41707">
        <ele>163</ele>
        <time>2022-10-15T15:29:34Z</time>
      </trkpt>
      <trkpt lat="43.73929" lon="1.41713">
        <ele>164</ele>
        <time>2022-10-15T15:29:41Z</time>
      </trkpt>
      <trkpt lat="43.73911" lon="1.41715">
        <ele>165</ele>
        <time>2022-10-15T15:29:46Z</time>
      </trkpt>
      <trkpt lat="43.73904" lon="1.41716">
        <ele>165</ele>
        <time>2022-10-15T15:29:48Z</time>
      </trkpt>
      <trkpt lat="43.73895" lon="1.4172">
        <ele>166</ele>
        <time>2022-10-15T15:29:50Z</time>
      </trkpt>
      <trkpt lat="43.73885" lon="1.41722">
        <ele>166</ele>
        <time>2022-10-15T15:29:52Z</time>
      </trkpt>
      <trkpt lat="43.73828" lon="1.41764">
        <ele>165</ele>
        <time>2022-10-15T15:30:03Z</time>
      </trkpt>
      <trkpt lat="43.73794" lon="1.41779">
        <ele>165</ele>
        <time>2022-10-15T15:30:09Z</time>
      </trkpt>
      <trkpt lat="43.73783" lon="1.41783">
        <ele>165</ele>
        <time>2022-10-15T15:30:11Z</time>
      </trkpt>
      <trkpt lat="43.73765" lon="1.41785">
        <ele>165</ele>
        <time>2022-10-15T15:30:15Z</time>
      </trkpt>
      <trkpt lat="43.73755" lon="1.41775">
        <ele>165</ele>
        <time>2022-10-15T15:30:18Z</time>
      </trkpt>
      <trkpt lat="43.73745" lon="1.41763">
        <ele>166</ele>
        <time>2022-10-15T15:30:21Z</time>
      </trkpt>
      <trkpt lat="43.73732" lon="1.41755">
        <ele>166</ele>
        <time>2022-10-15T15:30:24Z</time>
      </trkpt>
      <trkpt lat="43.73702" lon="1.41749">
        <ele>166</ele>
        <time>2022-10-15T15:30:30Z</time>
      </trkpt>
      <trkpt lat="43.73691" lon="1.4174">
        <ele>166</ele>
        <time>2022-10-15T15:30:33Z</time>
      </trkpt>
      <trkpt lat="43.73691" lon="1.41724">
        <ele>166</ele>
        <time>2022-10-15T15:30:36Z</time>
      </trkpt>
      <trkpt lat="43.73695" lon="1.41693">
        <ele>166</ele>
        <time>2022-10-15T15:30:42Z</time>
      </trkpt>
      <trkpt lat="43.73699" lon="1.41678">
        <ele>167</ele>
        <time>2022-10-15T15:30:45Z</time>
      </trkpt>
      <trkpt lat="43.73703" lon="1.41665">
        <ele>168</ele>
        <time>2022-10-15T15:30:48Z</time>
      </trkpt>
      <trkpt lat="43.73713" lon="1.41654">
        <ele>169</ele>
        <time>2022-10-15T15:30:52Z</time>
      </trkpt>
      <trkpt lat="43.73716" lon="1.41639">
        <ele>170</ele>
        <time>2022-10-15T15:30:55Z</time>
      </trkpt>
      <trkpt lat="43.73719" lon="1.41621">
        <ele>172</ele>
        <time>2022-10-15T15:30:58Z</time>
      </trkpt>
      <trkpt lat="43.73727" lon="1.41607">
        <ele>173</ele>
        <time>2022-10-15T15:31:01Z</time>
      </trkpt>
      <trkpt lat="43.7376" lon="1.41593">
        <ele>177</ele>
        <time>2022-10-15T15:31:10Z</time>
      </trkpt>
      <trkpt lat="43.73771" lon="1.41578">
        <ele>179</ele>
        <time>2022-10-15T15:31:14Z</time>
      </trkpt>
      <trkpt lat="43.73841" lon="1.41545">
        <ele>183</ele>
        <time>2022-10-15T15:31:34Z</time>
      </trkpt>
      <trkpt lat="43.7385" lon="1.41544">
        <ele>183</ele>
        <time>2022-10-15T15:31:36Z</time>
      </trkpt>
      <trkpt lat="43.73864" lon="1.41584">
        <ele>181</ele>
        <time>2022-10-15T15:31:42Z</time>
      </trkpt>
      <trkpt lat="43.73874" lon="1.41596">
        <ele>180</ele>
        <time>2022-10-15T15:31:44Z</time>
      </trkpt>
      <trkpt lat="43.7388" lon="1.41598">
        <ele>180</ele>
        <time>2022-10-15T15:31:45Z</time>
      </trkpt>
      <trkpt lat="43.73887" lon="1.41598">
        <ele>179</ele>
        <time>2022-10-15T15:31:46Z</time>
      </trkpt>
      <trkpt lat="43.7391" lon="1.41586">
        <ele>179</ele>
        <time>2022-10-15T15:31:50Z</time>
      </trkpt>
      <trkpt lat="43.73914" lon="1.41581">
        <ele>179</ele>
        <time>2022-10-15T15:31:51Z</time>
      </trkpt>
      <trkpt lat="43.73921" lon="1.41571">
        <ele>179</ele>
        <time>2022-10-15T15:31:53Z</time>
      </trkpt>
      <trkpt lat="43.73924" lon="1.41561">
        <ele>179</ele>
        <time>2022-10-15T15:31:55Z</time>
      </trkpt>
      <trkpt lat="43.73914" lon="1.4152">
        <ele>181</ele>
        <time>2022-10-15T15:32:03Z</time>
      </trkpt>
      <trkpt lat="43.73904" lon="1.41481">
        <ele>182</ele>
        <time>2022-10-15T15:32:10Z</time>
      </trkpt>
      <trkpt lat="43.73875" lon="1.41355">
        <ele>183</ele>
        <time>2022-10-15T15:32:30Z</time>
      </trkpt>
      <trkpt lat="43.73879" lon="1.41342">
        <ele>184</ele>
        <time>2022-10-15T15:32:32Z</time>
      </trkpt>
      <trkpt lat="43.73895" lon="1.41328">
        <ele>184</ele>
        <time>2022-10-15T15:32:36Z</time>
      </trkpt>
      <trkpt lat="43.73922" lon="1.41305">
        <ele>184</ele>
        <time>2022-10-15T15:32:42Z</time>
      </trkpt>
      <trkpt lat="43.73954" lon="1.41288">
        <ele>183</ele>
        <time>2022-10-15T15:32:48Z</time>
      </trkpt>
      <trkpt lat="43.73971" lon="1.41294">
        <ele>183</ele>
        <time>2022-10-15T15:32:51Z</time>
      </trkpt>
      <trkpt lat="43.7399" lon="1.41322">
        <ele>182</ele>
        <time>2022-10-15T15:32:56Z</time>
      </trkpt>
      <trkpt lat="43.74046" lon="1.41352">
        <ele>178</ele>
        <time>2022-10-15T15:33:07Z</time>
      </trkpt>
      <trkpt lat="43.74058" lon="1.41362">
        <ele>176</ele>
        <time>2022-10-15T15:33:09Z</time>
      </trkpt>
      <trkpt lat="43.74077" lon="1.41389">
        <ele>172</ele>
        <time>2022-10-15T15:33:13Z</time>
      </trkpt>
      <trkpt lat="43.74106" lon="1.41404">
        <ele>170</ele>
        <time>2022-10-15T15:33:18Z</time>
      </trkpt>
      <trkpt lat="43.74121" lon="1.4141">
        <ele>165</ele>
        <time>2022-10-15T15:33:20Z</time>
      </trkpt>
      <trkpt lat="43.74133" lon="1.4142">
        <ele>164</ele>
        <time>2022-10-15T15:33:22Z</time>
      </trkpt>
      <trkpt lat="43.74155" lon="1.41409">
        <ele>160</ele>
        <time>2022-10-15T15:33:27Z</time>
      </trkpt>
      <trkpt lat="43.74175" lon="1.41396">
        <ele>158</ele>
        <time>2022-10-15T15:33:31Z</time>
      </trkpt>
      <trkpt lat="43.74223" lon="1.41446">
        <ele>156</ele>
        <time>2022-10-15T15:33:41Z</time>
      </trkpt>
      <trkpt lat="43.74262" lon="1.41502">
        <ele>154</ele>
        <time>2022-10-15T15:33:52Z</time>
      </trkpt>
      <trkpt lat="43.74401" lon="1.41601">
        <ele>150</ele>
        <time>2022-10-15T15:34:15Z</time>
      </trkpt>
      <trkpt lat="43.74414" lon="1.41585">
        <ele>150</ele>
        <time>2022-10-15T15:34:20Z</time>
      </trkpt>
      <trkpt lat="43.74435" lon="1.41555">
        <ele>150</ele>
        <time>2022-10-15T15:34:26Z</time>
      </trkpt>
      <trkpt lat="43.7454" lon="1.41597">
        <ele>149</ele>
        <time>2022-10-15T15:34:47Z</time>
      </trkpt>
      <trkpt lat="43.74553" lon="1.41583">
        <ele>149</ele>
        <time>2022-10-15T15:35:10Z</time>
      </trkpt>
      <trkpt lat="43.74566" lon="1.41574">
        <ele>148</ele>
        <time>2022-10-15T15:35:22Z</time>
      </trkpt>
      <trkpt lat="43.74674" lon="1.41408">
        <ele>146</ele>
        <time>2022-10-15T15:35:52Z</time>
      </trkpt>
      <trkpt lat="43.74807" lon="1.41233">
        <ele>145</ele>
        <time>2022-10-15T15:36:22Z</time>
      </trkpt>
      <trkpt lat="43.74869" lon="1.4114">
        <ele>144</ele>
        <time>2022-10-15T15:36:37Z</time>
      </trkpt>
      <trkpt lat="43.74874" lon="1.41126">
        <ele>144</ele>
        <time>2022-10-15T15:36:39Z</time>
      </trkpt>
      <trkpt lat="43.74876" lon="1.4111">
        <ele>144</ele>
        <time>2022-10-15T15:36:41Z</time>
      </trkpt>
      <trkpt lat="43.74838" lon="1.40893">
        <ele>146</ele>
        <time>2022-10-15T15:37:11Z</time>
      </trkpt>
      <trkpt lat="43.74834" lon="1.40878">
        <ele>146</ele>
        <time>2022-10-15T15:37:13Z</time>
      </trkpt>
      <trkpt lat="43.74833" lon="1.4086">
        <ele>146</ele>
        <time>2022-10-15T15:37:16Z</time>
      </trkpt>
      <trkpt lat="43.74875" lon="1.40844">
        <ele>145</ele>
        <time>2022-10-15T15:37:25Z</time>
      </trkpt>
      <trkpt lat="43.7489" lon="1.40822">
        <ele>145</ele>
        <time>2022-10-15T15:37:29Z</time>
      </trkpt>
      <trkpt lat="43.74879" lon="1.40744">
        <ele>145</ele>
        <time>2022-10-15T15:37:40Z</time>
      </trkpt>
      <trkpt lat="43.74879" lon="1.40731">
        <ele>145</ele>
        <time>2022-10-15T15:37:43Z</time>
      </trkpt>
      <trkpt lat="43.74884" lon="1.40722">
        <ele>145</ele>
        <time>2022-10-15T15:37:46Z</time>
      </trkpt>
      <trkpt lat="43.74898" lon="1.40711">
        <ele>144</ele>
        <time>2022-10-15T15:37:51Z</time>
      </trkpt>
      <trkpt lat="43.74924" lon="1.40709">
        <ele>143</ele>
        <time>2022-10-15T15:37:56Z</time>
      </trkpt>
      <trkpt lat="43.75064" lon="1.40694">
        <ele>133</ele>
        <time>2022-10-15T15:38:15Z</time>
      </trkpt>
      <trkpt lat="43.75066" lon="1.40671">
        <ele>133</ele>
        <time>2022-10-15T15:38:20Z</time>
      </trkpt>
      <trkpt lat="43.74946" lon="1.40506">
        <ele>136</ele>
        <time>2022-10-15T15:38:49Z</time>
      </trkpt>
      <trkpt lat="43.74932" lon="1.405">
        <ele>137</ele>
        <time>2022-10-15T15:38:52Z</time>
      </trkpt>
      <trkpt lat="43.74813" lon="1.40544">
        <ele>140</ele>
        <time>2022-10-15T15:39:14Z</time>
      </trkpt>
      <trkpt lat="43.74803" lon="1.40548">
        <ele>140</ele>
        <time>2022-10-15T15:39:16Z</time>
      </trkpt>
      <trkpt lat="43.74764" lon="1.40518">
        <ele>142</ele>
        <time>2022-10-15T15:39:25Z</time>
      </trkpt>
      <trkpt lat="43.74737" lon="1.40498">
        <ele>145</ele>
        <time>2022-10-15T15:39:31Z</time>
      </trkpt>
      <trkpt lat="43.74723" lon="1.405">
        <ele>145</ele>
        <time>2022-10-15T15:39:34Z</time>
      </trkpt>
      <trkpt lat="43.74696" lon="1.4049">
        <ele>146</ele>
        <time>2022-10-15T15:39:40Z</time>
      </trkpt>
      <trkpt lat="43.74688" lon="1.40493">
        <ele>146</ele>
        <time>2022-10-15T15:39:43Z</time>
      </trkpt>
      <trkpt lat="43.74594" lon="1.4043">
        <ele>152</ele>
        <time>2022-10-15T15:40:11Z</time>
      </trkpt>
      <trkpt lat="43.74578" lon="1.4044">
        <ele>153</ele>
        <time>2022-10-15T15:40:16Z</time>
      </trkpt>
      <trkpt lat="43.74571" lon="1.40441">
        <ele>153</ele>
        <time>2022-10-15T15:40:20Z</time>
      </trkpt>
      <trkpt lat="43.74561" lon="1.40449">
        <ele>153</ele>
        <time>2022-10-15T15:40:25Z</time>
      </trkpt>
      <trkpt lat="43.74559" lon="1.40467">
        <ele>155</ele>
        <time>2022-10-15T15:40:32Z</time>
      </trkpt>
      <trkpt lat="43.74553" lon="1.40486">
        <ele>155</ele>
        <time>2022-10-15T15:40:37Z</time>
      </trkpt>
      <trkpt lat="43.74545" lon="1.40497">
        <ele>156</ele>
        <time>2022-10-15T15:40:42Z</time>
      </trkpt>
      <trkpt lat="43.74535" lon="1.40529">
        <ele>157</ele>
        <time>2022-10-15T15:40:49Z</time>
      </trkpt>
      <trkpt lat="43.74523" lon="1.40543">
        <ele>157</ele>
        <time>2022-10-15T15:40:57Z</time>
      </trkpt>
      <trkpt lat="43.74509" lon="1.40545">
        <ele>158</ele>
        <time>2022-10-15T15:41:02Z</time>
      </trkpt>
      <trkpt lat="43.74497" lon="1.40545">
        <ele>159</ele>
        <time>2022-10-15T15:41:06Z</time>
      </trkpt>
      <trkpt lat="43.74485" lon="1.40532">
        <ele>160</ele>
        <time>2022-10-15T15:41:10Z</time>
      </trkpt>
      <trkpt lat="43.74445" lon="1.40528">
        <ele>163</ele>
        <time>2022-10-15T15:41:20Z</time>
      </trkpt>
      <trkpt lat="43.74427" lon="1.40524">
        <ele>165</ele>
        <time>2022-10-15T15:41:24Z</time>
      </trkpt>
      <trkpt lat="43.744" lon="1.40506">
        <ele>166</ele>
        <time>2022-10-15T15:41:32Z</time>
      </trkpt>
      <trkpt lat="43.74385" lon="1.40501">
        <ele>168</ele>
        <time>2022-10-15T15:41:36Z</time>
      </trkpt>
      <trkpt lat="43.74373" lon="1.40489">
        <ele>169</ele>
        <time>2022-10-15T15:41:43Z</time>
      </trkpt>
      <trkpt lat="43.74337" lon="1.40496">
        <ele>171</ele>
        <time>2022-10-15T15:41:55Z</time>
      </trkpt>
      <trkpt lat="43.74325" lon="1.40509">
        <ele>171</ele>
        <time>2022-10-15T15:42:01Z</time>
      </trkpt>
      <trkpt lat="43.74311" lon="1.40513">
        <ele>172</ele>
        <time>2022-10-15T15:42:05Z</time>
      </trkpt>
      <trkpt lat="43.74209" lon="1.40468">
        <ele>176</ele>
        <time>2022-10-15T15:42:32Z</time>
      </trkpt>
      <trkpt lat="43.74184" lon="1.40435">
        <ele>177</ele>
        <time>2022-10-15T15:42:41Z</time>
      </trkpt>
      <trkpt lat="43.74156" lon="1.40404">
        <ele>178</ele>
        <time>2022-10-15T15:42:48Z</time>
      </trkpt>
      <trkpt lat="43.74139" lon="1.40387">
        <ele>178</ele>
        <time>2022-10-15T15:42:54Z</time>
      </trkpt>
      <trkpt lat="43.74112" lon="1.40461">
        <ele>179</ele>
        <time>2022-10-15T15:43:08Z</time>
      </trkpt>
      <trkpt lat="43.74104" lon="1.40478">
        <ele>179</ele>
        <time>2022-10-15T15:43:11Z</time>
      </trkpt>
      <trkpt lat="43.74089" lon="1.40478">
        <ele>179</ele>
        <time>2022-10-15T15:43:14Z</time>
      </trkpt>
      <trkpt lat="43.74009" lon="1.40437">
        <ele>180</ele>
        <time>2022-10-15T15:43:30Z</time>
      </trkpt>
      <trkpt lat="43.73998" lon="1.40434">
        <ele>180</ele>
        <time>2022-10-15T15:43:32Z</time>
      </trkpt>
      <trkpt lat="43.73987" lon="1.40448">
        <ele>180</ele>
        <time>2022-10-15T15:43:35Z</time>
      </trkpt>
      <trkpt lat="43.73963" lon="1.40456">
        <ele>180</ele>
        <time>2022-10-15T15:43:40Z</time>
      </trkpt>
      <trkpt lat="43.7386" lon="1.40388">
        <ele>185</ele>
        <time>2022-10-15T15:44:05Z</time>
      </trkpt>
      <trkpt lat="43.73845" lon="1.40386">
        <ele>186</ele>
        <time>2022-10-15T15:44:09Z</time>
      </trkpt>
      <trkpt lat="43.73809" lon="1.40451">
        <ele>185</ele>
        <time>2022-10-15T15:44:22Z</time>
      </trkpt>
      <trkpt lat="43.738" lon="1.4046">
        <ele>185</ele>
        <time>2022-10-15T15:44:25Z</time>
      </trkpt>
      <trkpt lat="43.73774" lon="1.40431">
        <ele>181</ele>
        <time>2022-10-15T15:44:34Z</time>
      </trkpt>
      <trkpt lat="43.73764" lon="1.40416">
        <ele>178</ele>
        <time>2022-10-15T15:44:37Z</time>
      </trkpt>
      <trkpt lat="43.73756" lon="1.40404">
        <ele>174</ele>
        <time>2022-10-15T15:44:39Z</time>
      </trkpt>
      <trkpt lat="43.73736" lon="1.40375">
        <ele>168</ele>
        <time>2022-10-15T15:44:43Z</time>
      </trkpt>
      <trkpt lat="43.73729" lon="1.40368">
        <ele>167</ele>
        <time>2022-10-15T15:44:44Z</time>
      </trkpt>
      <trkpt lat="43.73712" lon="1.40352">
        <ele>162</ele>
        <time>2022-10-15T15:44:46Z</time>
      </trkpt>
      <trkpt lat="43.73694" lon="1.40331">
        <ele>156</ele>
        <time>2022-10-15T15:44:48Z</time>
      </trkpt>
      <trkpt lat="43.73685" lon="1.40319">
        <ele>154</ele>
        <time>2022-10-15T15:44:49Z</time>
      </trkpt>
      <trkpt lat="43.73666" lon="1.40294">
        <ele>149</ele>
        <time>2022-10-15T15:44:51Z</time>
      </trkpt>
      <trkpt lat="43.73647" lon="1.40268">
        <ele>145</ele>
        <time>2022-10-15T15:44:53Z</time>
      </trkpt>
      <trkpt lat="43.73624" lon="1.40228">
        <ele>141</ele>
        <time>2022-10-15T15:44:56Z</time>
      </trkpt>
      <trkpt lat="43.73596" lon="1.40187">
        <ele>137</ele>
        <time>2022-10-15T15:45:00Z</time>
      </trkpt>
      <trkpt lat="43.73584" lon="1.40176">
        <ele>136</ele>
        <time>2022-10-15T15:45:04Z</time>
      </trkpt>
      <trkpt lat="43.73518" lon="1.40194">
        <ele>135</ele>
        <time>2022-10-15T15:45:17Z</time>
      </trkpt>
      <trkpt lat="43.73507" lon="1.40192">
        <ele>135</ele>
        <time>2022-10-15T15:45:19Z</time>
      </trkpt>
      <trkpt lat="43.73474" lon="1.40169">
        <ele>134</ele>
        <time>2022-10-15T15:45:25Z</time>
      </trkpt>
      <trkpt lat="43.73383" lon="1.40193">
        <ele>133</ele>
        <time>2022-10-15T15:45:39Z</time>
      </trkpt>
      <trkpt lat="43.7334" lon="1.40221">
        <ele>132</ele>
        <time>2022-10-15T15:45:47Z</time>
      </trkpt>
      <trkpt lat="43.73319" lon="1.40218">
        <ele>132</ele>
        <time>2022-10-15T15:45:51Z</time>
      </trkpt>
      <trkpt lat="43.73285" lon="1.40169">
        <ele>131</ele>
        <time>2022-10-15T15:45:59Z</time>
      </trkpt>
      <trkpt lat="43.73256" lon="1.40144">
        <ele>130</ele>
        <time>2022-10-15T15:46:05Z</time>
      </trkpt>
      <trkpt lat="43.7323" lon="1.40137">
        <ele>130</ele>
        <time>2022-10-15T15:46:10Z</time>
      </trkpt>
      <trkpt lat="43.73136" lon="1.40153">
        <ele>130</ele>
        <time>2022-10-15T15:46:30Z</time>
      </trkpt>
      <trkpt lat="43.72969" lon="1.40222">
        <ele>130</ele>
        <time>2022-10-15T15:47:00Z</time>
      </trkpt>
      <trkpt lat="43.72937" lon="1.40239">
        <ele>130</ele>
        <time>2022-10-15T15:47:06Z</time>
      </trkpt>
      <trkpt lat="43.72897" lon="1.40274">
        <ele>130</ele>
        <time>2022-10-15T15:47:14Z</time>
      </trkpt>
      <trkpt lat="43.72806" lon="1.40412">
        <ele>129</ele>
        <time>2022-10-15T15:47:37Z</time>
      </trkpt>
      <trkpt lat="43.7278" lon="1.40431">
        <ele>129</ele>
        <time>2022-10-15T15:47:42Z</time>
      </trkpt>
      <trkpt lat="43.72637" lon="1.40499">
        <ele>129</ele>
        <time>2022-10-15T15:48:08Z</time>
      </trkpt>
      <trkpt lat="43.72588" lon="1.40543">
        <ele>129</ele>
        <time>2022-10-15T15:48:18Z</time>
      </trkpt>
      <trkpt lat="43.72532" lon="1.40567">
        <ele>129</ele>
        <time>2022-10-15T15:48:28Z</time>
      </trkpt>
      <trkpt lat="43.72354" lon="1.40604">
        <ele>130</ele>
        <time>2022-10-15T15:48:59Z</time>
      </trkpt>
      <trkpt lat="43.72283" lon="1.40641">
        <ele>131</ele>
        <time>2022-10-15T15:49:12Z</time>
      </trkpt>
      <trkpt lat="43.72248" lon="1.4064">
        <ele>131</ele>
        <time>2022-10-15T15:49:18Z</time>
      </trkpt>
      <trkpt lat="43.72225" lon="1.40633">
        <ele>131</ele>
        <time>2022-10-15T15:49:22Z</time>
      </trkpt>
      <trkpt lat="43.72151" lon="1.40645">
        <ele>131</ele>
        <time>2022-10-15T15:49:35Z</time>
      </trkpt>
      <trkpt lat="43.72129" lon="1.40653">
        <ele>131</ele>
        <time>2022-10-15T15:49:39Z</time>
      </trkpt>
      <trkpt lat="43.72087" lon="1.40681">
        <ele>131</ele>
        <time>2022-10-15T15:49:48Z</time>
      </trkpt>
      <trkpt lat="43.72069" lon="1.4069">
        <ele>131</ele>
        <time>2022-10-15T15:49:52Z</time>
      </trkpt>
      <trkpt lat="43.7206" lon="1.40697">
        <ele>131</ele>
        <time>2022-10-15T15:49:54Z</time>
      </trkpt>
      <trkpt lat="43.72056" lon="1.40707">
        <ele>131</ele>
        <time>2022-10-15T15:49:56Z</time>
      </trkpt>
      <trkpt lat="43.71923" lon="1.40665">
        <ele>131</ele>
        <time>2022-10-15T15:50:27Z</time>
      </trkpt>
      <trkpt lat="43.71848" lon="1.4065">
        <ele>134</ele>
        <time>2022-10-15T15:50:41Z</time>
      </trkpt>
      <trkpt lat="43.71838" lon="1.40651">
        <ele>134</ele>
        <time>2022-10-15T15:50:43Z</time>
      </trkpt>
      <trkpt lat="43.7183" lon="1.40665">
        <ele>133</ele>
        <time>2022-10-15T15:50:46Z</time>
      </trkpt>
      <trkpt lat="43.71823" lon="1.40675">
        <ele>133</ele>
        <time>2022-10-15T15:50:48Z</time>
      </trkpt>
      <trkpt lat="43.71799" lon="1.40676">
        <ele>132</ele>
        <time>2022-10-15T15:50:52Z</time>
      </trkpt>
      <trkpt lat="43.71782" lon="1.40686">
        <ele>131</ele>
        <time>2022-10-15T15:50:55Z</time>
      </trkpt>
      <trkpt lat="43.7172" lon="1.40912">
        <ele>130</ele>
        <time>2022-10-15T15:51:26Z</time>
      </trkpt>
      <trkpt lat="43.71706" lon="1.40954">
        <ele>131</ele>
        <time>2022-10-15T15:51:32Z</time>
      </trkpt>
      <trkpt lat="43.71669" lon="1.40997">
        <ele>130</ele>
        <time>2022-10-15T15:51:41Z</time>
      </trkpt>
      <trkpt lat="43.71604" lon="1.41028">
        <ele>131</ele>
        <time>2022-10-15T15:52:01Z</time>
      </trkpt>
      <trkpt lat="43.71457" lon="1.41037">
        <ele>131</ele>
        <time>2022-10-15T15:52:31Z</time>
      </trkpt>
      <trkpt lat="43.71351" lon="1.41039">
        <ele>131</ele>
        <time>2022-10-15T15:52:54Z</time>
      </trkpt>
      <trkpt lat="43.71341" lon="1.4104">
        <ele>131</ele>
        <time>2022-10-15T15:53:32Z</time>
      </trkpt>
      <trkpt lat="43.7131" lon="1.41045">
        <ele>131</ele>
        <time>2022-10-15T15:53:45Z</time>
      </trkpt>
      <trkpt lat="43.7128" lon="1.4104">
        <ele>131</ele>
        <time>2022-10-15T15:53:56Z</time>
      </trkpt>
      <trkpt lat="43.71197" lon="1.41048">
        <ele>130</ele>
        <time>2022-10-15T15:54:26Z</time>
      </trkpt>
      <trkpt lat="43.71147" lon="1.41042">
        <ele>132</ele>
        <time>2022-10-15T15:55:01Z</time>
      </trkpt>
      <trkpt lat="43.71093" lon="1.41039">
        <ele>132</ele>
        <time>2022-10-15T15:55:30Z</time>
      </trkpt>
      <trkpt lat="43.71025" lon="1.41047">
        <ele>133</ele>
        <time>2022-10-15T15:56:00Z</time>
      </trkpt>
      <trkpt lat="43.70928" lon="1.41065">
        <ele>133</ele>
        <time>2022-10-15T15:56:33Z</time>
      </trkpt>
      <trkpt lat="43.70915" lon="1.41068">
        <ele>133</ele>
        <time>2022-10-15T15:56:38Z</time>
      </trkpt>
      <trkpt lat="43.70891" lon="1.41073">
        <ele>133</ele>
        <time>2022-10-15T15:56:46Z</time>
      </trkpt>
      <trkpt lat="43.70798" lon="1.41063">
        <ele>133</ele>
        <time>2022-10-15T15:57:12Z</time>
      </trkpt>
      <trkpt lat="43.7071" lon="1.41075">
        <ele>132</ele>
        <time>2022-10-15T15:57:33Z</time>
      </trkpt>
      <trkpt lat="43.70628" lon="1.41068">
        <ele>133</ele>
        <time>2022-10-15T15:58:06Z</time>
      </trkpt>
      <trkpt lat="43.70609" lon="1.41068">
        <ele>133</ele>
        <time>2022-10-15T15:58:13Z</time>
      </trkpt>
      <trkpt lat="43.70597" lon="1.41073">
        <ele>133</ele>
        <time>2022-10-15T15:58:34Z</time>
      </trkpt>
      <trkpt lat="43.7054" lon="1.41079">
        <ele>133</ele>
        <time>2022-10-15T15:58:58Z</time>
      </trkpt>
      <trkpt lat="43.70404" lon="1.41111">
        <ele>133</ele>
        <time>2022-10-15T15:59:25Z</time>
      </trkpt>
      <trkpt lat="43.70358" lon="1.41137">
        <ele>132</ele>
        <time>2022-10-15T15:59:34Z</time>
      </trkpt>
      <trkpt lat="43.70304" lon="1.41186">
        <ele>132</ele>
        <time>2022-10-15T15:59:49Z</time>
      </trkpt>
      <trkpt lat="43.70188" lon="1.41337">
        <ele>132</ele>
        <time>2022-10-15T16:00:20Z</time>
      </trkpt>
      <trkpt lat="43.70063" lon="1.4149">
        <ele>133</ele>
        <time>2022-10-15T16:00:50Z</time>
      </trkpt>
      <trkpt lat="43.69936" lon="1.41644">
        <ele>132</ele>
        <time>2022-10-15T16:01:21Z</time>
      </trkpt>
      <trkpt lat="43.6981" lon="1.41794">
        <ele>133</ele>
        <time>2022-10-15T16:01:52Z</time>
      </trkpt>
      <trkpt lat="43.69664" lon="1.41961">
        <ele>134</ele>
        <time>2022-10-15T16:02:25Z</time>
      </trkpt>
      <trkpt lat="43.69533" lon="1.4213">
        <ele>133</ele>
        <time>2022-10-15T16:02:56Z</time>
      </trkpt>
      <trkpt lat="43.69462" lon="1.42223">
        <ele>134</ele>
        <time>2022-10-15T16:03:13Z</time>
      </trkpt>
      <trkpt lat="43.69387" lon="1.42346">
        <ele>133</ele>
        <time>2022-10-15T16:03:33Z</time>
      </trkpt>
      <trkpt lat="43.69342" lon="1.42427">
        <ele>132</ele>
        <time>2022-10-15T16:03:46Z</time>
      </trkpt>
      <trkpt lat="43.69301" lon="1.42511">
        <ele>132</ele>
        <time>2022-10-15T16:03:59Z</time>
      </trkpt>
      <trkpt lat="43.69281" lon="1.42535">
        <ele>132</ele>
        <time>2022-10-15T16:04:04Z</time>
      </trkpt>
      <trkpt lat="43.69211" lon="1.42585">
        <ele>132</ele>
        <time>2022-10-15T16:04:17Z</time>
      </trkpt>
      <trkpt lat="43.69141" lon="1.42601">
        <ele>132</ele>
        <time>2022-10-15T16:04:29Z</time>
      </trkpt>
      <trkpt lat="43.69118" lon="1.42605">
        <ele>132</ele>
        <time>2022-10-15T16:04:33Z</time>
      </trkpt>
      <trkpt lat="43.69107" lon="1.42611">
        <ele>132</ele>
        <time>2022-10-15T16:04:35Z</time>
      </trkpt>
      <trkpt lat="43.69082" lon="1.42638">
        <ele>133</ele>
        <time>2022-10-15T16:04:41Z</time>
      </trkpt>
      <trkpt lat="43.69067" lon="1.4265">
        <ele>133</ele>
        <time>2022-10-15T16:04:44Z</time>
      </trkpt>
      <trkpt lat="43.69056" lon="1.42653">
        <ele>133</ele>
        <time>2022-10-15T16:04:46Z</time>
      </trkpt>
      <trkpt lat="43.69043" lon="1.42654">
        <ele>133</ele>
        <time>2022-10-15T16:04:48Z</time>
      </trkpt>
      <trkpt lat="43.68968" lon="1.42675">
        <ele>133</ele>
        <time>2022-10-15T16:05:01Z</time>
      </trkpt>
      <trkpt lat="43.68875" lon="1.42737">
        <ele>134</ele>
        <time>2022-10-15T16:05:19Z</time>
      </trkpt>
      <trkpt lat="43.6887" lon="1.42738">
        <ele>134</ele>
        <time>2022-10-15T16:05:20Z</time>
      </trkpt>
      <trkpt lat="43.68864" lon="1.42736">
        <ele>133</ele>
        <time>2022-10-15T16:05:21Z</time>
      </trkpt>
      <trkpt lat="43.68803" lon="1.42696">
        <ele>133</ele>
        <time>2022-10-15T16:05:33Z</time>
      </trkpt>
      <trkpt lat="43.68799" lon="1.4269">
        <ele>133</ele>
        <time>2022-10-15T16:05:34Z</time>
      </trkpt>
      <trkpt lat="43.68799" lon="1.42683">
        <ele>133</ele>
        <time>2022-10-15T16:05:35Z</time>
      </trkpt>
      <trkpt lat="43.68803" lon="1.42678">
        <ele>133</ele>
        <time>2022-10-15T16:05:36Z</time>
      </trkpt>
      <trkpt lat="43.68824" lon="1.42669">
        <ele>133</ele>
        <time>2022-10-15T16:05:40Z</time>
      </trkpt>
      <trkpt lat="43.6883" lon="1.42661">
        <ele>133</ele>
        <time>2022-10-15T16:05:42Z</time>
      </trkpt>
      <trkpt lat="43.68832" lon="1.42651">
        <ele>133</ele>
        <time>2022-10-15T16:05:44Z</time>
      </trkpt>
      <trkpt lat="43.68832" lon="1.4263">
        <ele>133</ele>
        <time>2022-10-15T16:05:47Z</time>
      </trkpt>
      <trkpt lat="43.68828" lon="1.42608">
        <ele>133</ele>
        <time>2022-10-15T16:05:50Z</time>
      </trkpt>
      <trkpt lat="43.68813" lon="1.42579">
        <ele>133</ele>
        <time>2022-10-15T16:05:55Z</time>
      </trkpt>
      <trkpt lat="43.68804" lon="1.4257">
        <ele>133</ele>
        <time>2022-10-15T16:05:57Z</time>
      </trkpt>
      <trkpt lat="43.68793" lon="1.42565">
        <ele>133</ele>
        <time>2022-10-15T16:05:59Z</time>
      </trkpt>
      <trkpt lat="43.68742" lon="1.4256">
        <ele>133</ele>
        <time>2022-10-15T16:06:08Z</time>
      </trkpt>
      <trkpt lat="43.6873" lon="1.42562">
        <ele>133</ele>
        <time>2022-10-15T16:06:10Z</time>
      </trkpt>
      <trkpt lat="43.6872" lon="1.4257">
        <ele>133</ele>
        <time>2022-10-15T16:06:12Z</time>
      </trkpt>
      <trkpt lat="43.68706" lon="1.42583">
        <ele>133</ele>
        <time>2022-10-15T16:06:15Z</time>
      </trkpt>
      <trkpt lat="43.68678" lon="1.42596">
        <ele>133</ele>
        <time>2022-10-15T16:06:20Z</time>
      </trkpt>
      <trkpt lat="43.68669" lon="1.42604">
        <ele>133</ele>
        <time>2022-10-15T16:06:22Z</time>
      </trkpt>
      <trkpt lat="43.68541" lon="1.42764">
        <ele>133</ele>
        <time>2022-10-15T16:06:52Z</time>
      </trkpt>
      <trkpt lat="43.68478" lon="1.4283">
        <ele>133</ele>
        <time>2022-10-15T16:07:06Z</time>
      </trkpt>
      <trkpt lat="43.6845" lon="1.42854">
        <ele>132</ele>
        <time>2022-10-15T16:07:12Z</time>
      </trkpt>
      <trkpt lat="43.68345" lon="1.42977">
        <ele>132</ele>
        <time>2022-10-15T16:07:42Z</time>
      </trkpt>
      <trkpt lat="43.68292" lon="1.43034">
        <ele>133</ele>
        <time>2022-10-15T16:07:54Z</time>
      </trkpt>
      <trkpt lat="43.68277" lon="1.43056">
        <ele>133</ele>
        <time>2022-10-15T16:07:58Z</time>
      </trkpt>
      <trkpt lat="43.68267" lon="1.43065">
        <ele>133</ele>
        <time>2022-10-15T16:08:00Z</time>
      </trkpt>
      <trkpt lat="43.68256" lon="1.43083">
        <ele>133</ele>
        <time>2022-10-15T16:08:04Z</time>
      </trkpt>
      <trkpt lat="43.68128" lon="1.43248">
        <ele>133</ele>
        <time>2022-10-15T16:08:34Z</time>
      </trkpt>
      <trkpt lat="43.68063" lon="1.43347">
        <ele>134</ele>
        <time>2022-10-15T16:08:51Z</time>
      </trkpt>
      <trkpt lat="43.6806" lon="1.43354">
        <ele>134</ele>
        <time>2022-10-15T16:08:52Z</time>
      </trkpt>
      <trkpt lat="43.68058" lon="1.4336">
        <ele>134</ele>
        <time>2022-10-15T16:08:53Z</time>
      </trkpt>
      <trkpt lat="43.68061" lon="1.43377">
        <ele>134</ele>
        <time>2022-10-15T16:08:55Z</time>
      </trkpt>
      <trkpt lat="43.6806" lon="1.43384">
        <ele>133</ele>
        <time>2022-10-15T16:08:56Z</time>
      </trkpt>
      <trkpt lat="43.68059" lon="1.43389">
        <ele>133</ele>
        <time>2022-10-15T16:08:57Z</time>
      </trkpt>
      <trkpt lat="43.68005" lon="1.43441">
        <ele>134</ele>
        <time>2022-10-15T16:09:12Z</time>
      </trkpt>
      <trkpt lat="43.67998" lon="1.43453">
        <ele>134</ele>
        <time>2022-10-15T16:09:14Z</time>
      </trkpt>
      <trkpt lat="43.6789" lon="1.43612">
        <ele>133</ele>
        <time>2022-10-15T16:09:41Z</time>
      </trkpt>
      <trkpt lat="43.67875" lon="1.43623">
        <ele>133</ele>
        <time>2022-10-15T16:09:44Z</time>
      </trkpt>
      <trkpt lat="43.67795" lon="1.43727">
        <ele>135</ele>
        <time>2022-10-15T16:10:14Z</time>
      </trkpt>
      <trkpt lat="43.67787" lon="1.43736">
        <ele>135</ele>
        <time>2022-10-15T16:10:16Z</time>
      </trkpt>
      <trkpt lat="43.67779" lon="1.43749">
        <ele>135</ele>
        <time>2022-10-15T16:10:18Z</time>
      </trkpt>
      <trkpt lat="43.67756" lon="1.4377">
        <ele>134</ele>
        <time>2022-10-15T16:10:23Z</time>
      </trkpt>
      <trkpt lat="43.67729" lon="1.43786">
        <ele>134</ele>
        <time>2022-10-15T16:10:28Z</time>
      </trkpt>
      <trkpt lat="43.67657" lon="1.43847">
        <ele>134</ele>
        <time>2022-10-15T16:10:48Z</time>
      </trkpt>
      <trkpt lat="43.67653" lon="1.43853">
        <ele>134</ele>
        <time>2022-10-15T16:10:50Z</time>
      </trkpt>
      <trkpt lat="43.67625" lon="1.43874">
        <ele>135</ele>
        <time>2022-10-15T16:10:59Z</time>
      </trkpt>
      <trkpt lat="43.67617" lon="1.43881">
        <ele>135</ele>
        <time>2022-10-15T16:11:02Z</time>
      </trkpt>
      <trkpt lat="43.67611" lon="1.43884">
        <ele>135</ele>
        <time>2022-10-15T16:11:04Z</time>
      </trkpt>
      <trkpt lat="43.67593" lon="1.43895">
        <ele>136</ele>
        <time>2022-10-15T16:11:10Z</time>
      </trkpt>
      <trkpt lat="43.67586" lon="1.43902">
        <ele>136</ele>
        <time>2022-10-15T16:11:12Z</time>
      </trkpt>
      <trkpt lat="43.67545" lon="1.43983">
        <ele>135</ele>
        <time>2022-10-15T16:11:28Z</time>
      </trkpt>
      <trkpt lat="43.67492" lon="1.44146">
        <ele>136</ele>
        <time>2022-10-15T16:11:58Z</time>
      </trkpt>
      <trkpt lat="43.67463" lon="1.4428">
        <ele>136</ele>
        <time>2022-10-15T16:12:17Z</time>
      </trkpt>
      <trkpt lat="43.6745" lon="1.44505">
        <ele>136</ele>
        <time>2022-10-15T16:12:47Z</time>
      </trkpt>
      <trkpt lat="43.67441" lon="1.44637">
        <ele>137</ele>
        <time>2022-10-15T16:13:06Z</time>
      </trkpt>
      <trkpt lat="43.6744" lon="1.44643">
        <ele>137</ele>
        <time>2022-10-15T16:13:09Z</time>
      </trkpt>
      <trkpt lat="43.67435" lon="1.44651">
        <ele>137</ele>
        <time>2022-10-15T16:13:15Z</time>
      </trkpt>
      <trkpt lat="43.67434" lon="1.44658">
        <ele>139</ele>
        <time>2022-10-15T16:13:52Z</time>
      </trkpt>
      <trkpt lat="43.67437" lon="1.44663">
        <ele>139</ele>
        <time>2022-10-15T16:13:55Z</time>
      </trkpt>
      <trkpt lat="43.67441" lon="1.44663">
        <ele>139</ele>
        <time>2022-10-15T16:13:57Z</time>
      </trkpt>
      <trkpt lat="43.67441" lon="1.44669">
        <ele>139</ele>
        <time>2022-10-15T16:13:59Z</time>
      </trkpt>
      <trkpt lat="43.67442" lon="1.44675">
        <ele>138</ele>
        <time>2022-10-15T16:14:01Z</time>
      </trkpt>
      <trkpt lat="43.67447" lon="1.44737">
        <ele>138</ele>
        <time>2022-10-15T16:14:17Z</time>
      </trkpt>
      <trkpt lat="43.67449" lon="1.44741">
        <ele>138</ele>
        <time>2022-10-15T16:14:19Z</time>
      </trkpt>
      <trkpt lat="43.6745" lon="1.44747">
        <ele>138</ele>
        <time>2022-10-15T16:14:21Z</time>
      </trkpt>
      <trkpt lat="43.67452" lon="1.44753">
        <ele>138</ele>
        <time>2022-10-15T16:14:24Z</time>
      </trkpt>
      <trkpt lat="43.67451" lon="1.44769">
        <ele>138</ele>
        <time>2022-10-15T16:14:28Z</time>
      </trkpt>
      <trkpt lat="43.67461" lon="1.4485">
        <ele>138</ele>
        <time>2022-10-15T16:14:41Z</time>
      </trkpt>
      <trkpt lat="43.675" lon="1.44991">
        <ele>138</ele>
        <time>2022-10-15T16:15:01Z</time>
      </trkpt>
      <trkpt lat="43.67506" lon="1.45004">
        <ele>138</ele>
        <time>2022-10-15T16:15:03Z</time>
      </trkpt>
      <trkpt lat="43.67506" lon="1.45011">
        <ele>138</ele>
        <time>2022-10-15T16:15:04Z</time>
      </trkpt>
      <trkpt lat="43.67503" lon="1.45017">
        <ele>138</ele>
        <time>2022-10-15T16:15:05Z</time>
      </trkpt>
      <trkpt lat="43.67463" lon="1.45046">
        <ele>138</ele>
        <time>2022-10-15T16:15:13Z</time>
      </trkpt>
      <trkpt lat="43.67459" lon="1.45051">
        <ele>138</ele>
        <time>2022-10-15T16:15:14Z</time>
      </trkpt>
      <trkpt lat="43.67456" lon="1.45058">
        <ele>138</ele>
        <time>2022-10-15T16:15:15Z</time>
      </trkpt>
      <trkpt lat="43.67447" lon="1.45102">
        <ele>137</ele>
        <time>2022-10-15T16:15:21Z</time>
      </trkpt>
      <trkpt lat="43.67446" lon="1.45109">
        <ele>137</ele>
        <time>2022-10-15T16:15:22Z</time>
      </trkpt>
      <trkpt lat="43.67447" lon="1.45117">
        <ele>137</ele>
        <time>2022-10-15T16:15:23Z</time>
      </trkpt>
      <trkpt lat="43.67489" lon="1.45224">
        <ele>138</ele>
        <time>2022-10-15T16:15:39Z</time>
      </trkpt>
      <trkpt lat="43.6749" lon="1.45231">
        <ele>138</ele>
        <time>2022-10-15T16:15:40Z</time>
      </trkpt>
      <trkpt lat="43.67488" lon="1.45237">
        <ele>138</ele>
        <time>2022-10-15T16:15:41Z</time>
      </trkpt>
      <trkpt lat="43.67484" lon="1.45241">
        <ele>138</ele>
        <time>2022-10-15T16:15:42Z</time>
      </trkpt>
      <trkpt lat="43.67373" lon="1.45306">
        <ele>138</ele>
        <time>2022-10-15T16:16:03Z</time>
      </trkpt>
      <trkpt lat="43.67361" lon="1.45306">
        <ele>138</ele>
        <time>2022-10-15T16:16:05Z</time>
      </trkpt>
      <trkpt lat="43.67322" lon="1.45296">
        <ele>138</ele>
        <time>2022-10-15T16:16:12Z</time>
      </trkpt>
      <trkpt lat="43.67311" lon="1.45299">
        <ele>139</ele>
        <time>2022-10-15T16:16:14Z</time>
      </trkpt>
      <trkpt lat="43.67276" lon="1.45318">
        <ele>138</ele>
        <time>2022-10-15T16:16:21Z</time>
      </trkpt>
      <trkpt lat="43.67267" lon="1.45318">
        <ele>138</ele>
        <time>2022-10-15T16:16:23Z</time>
      </trkpt>
      <trkpt lat="43.67253" lon="1.45338">
        <ele>139</ele>
        <time>2022-10-15T16:16:27Z</time>
      </trkpt>
      <trkpt lat="43.67214" lon="1.45375">
        <ele>138</ele>
        <time>2022-10-15T16:16:36Z</time>
      </trkpt>
      <trkpt lat="43.67205" lon="1.4538">
        <ele>138</ele>
        <time>2022-10-15T16:16:41Z</time>
      </trkpt>
      <trkpt lat="43.672" lon="1.45379">
        <ele>138</ele>
        <time>2022-10-15T16:16:44Z</time>
      </trkpt>
      <trkpt lat="43.67195" lon="1.45381">
        <ele>138</ele>
        <time>2022-10-15T16:16:47Z</time>
      </trkpt>
      <trkpt lat="43.67191" lon="1.4538">
        <ele>138</ele>
        <time>2022-10-15T16:16:49Z</time>
      </trkpt>
      <trkpt lat="43.67126" lon="1.45242">
        <ele>136</ele>
        <time>2022-10-15T16:17:19Z</time>
      </trkpt>
      <trkpt lat="43.67115" lon="1.45218">
        <ele>136</ele>
        <time>2022-10-15T16:17:23Z</time>
      </trkpt>
      <trkpt lat="43.6711" lon="1.45212">
        <ele>136</ele>
        <time>2022-10-15T16:17:25Z</time>
      </trkpt>
      <trkpt lat="43.67069" lon="1.45142">
        <ele>136</ele>
        <time>2022-10-15T16:17:38Z</time>
      </trkpt>
      <trkpt lat="43.67066" lon="1.45138">
        <ele>136</ele>
        <time>2022-10-15T16:17:39Z</time>
      </trkpt>
      <trkpt lat="43.6706" lon="1.45139">
        <ele>137</ele>
        <time>2022-10-15T16:17:40Z</time>
      </trkpt>
      <trkpt lat="43.67055" lon="1.4514">
        <ele>137</ele>
        <time>2022-10-15T16:17:41Z</time>
      </trkpt>
      <trkpt lat="43.67034" lon="1.45157">
        <ele>136</ele>
        <time>2022-10-15T16:17:45Z</time>
      </trkpt>
      <trkpt lat="43.67028" lon="1.4516">
        <ele>136</ele>
        <time>2022-10-15T16:17:46Z</time>
      </trkpt>
      <trkpt lat="43.67022" lon="1.4516">
        <ele>136</ele>
        <time>2022-10-15T16:17:47Z</time>
      </trkpt>
      <trkpt lat="43.67016" lon="1.45159">
        <ele>136</ele>
        <time>2022-10-15T16:17:48Z</time>
      </trkpt>
      <trkpt lat="43.66928" lon="1.44952">
        <ele>135</ele>
        <time>2022-10-15T16:18:18Z</time>
      </trkpt>
      <trkpt lat="43.66918" lon="1.44943">
        <ele>135</ele>
        <time>2022-10-15T16:18:20Z</time>
      </trkpt>
      <trkpt lat="43.66907" lon="1.44938">
        <ele>135</ele>
        <time>2022-10-15T16:18:22Z</time>
      </trkpt>
      <trkpt lat="43.66793" lon="1.44901">
        <ele>135</ele>
        <time>2022-10-15T16:18:42Z</time>
      </trkpt>
      <trkpt lat="43.66773" lon="1.44884">
        <ele>135</ele>
        <time>2022-10-15T16:18:46Z</time>
      </trkpt>
      <trkpt lat="43.66764" lon="1.44873">
        <ele>135</ele>
        <time>2022-10-15T16:18:48Z</time>
      </trkpt>
      <trkpt lat="43.66761" lon="1.44866">
        <ele>135</ele>
        <time>2022-10-15T16:18:49Z</time>
      </trkpt>
      <trkpt lat="43.66758" lon="1.4485">
        <ele>135</ele>
        <time>2022-10-15T16:18:51Z</time>
      </trkpt>
      <trkpt lat="43.66756" lon="1.44834">
        <ele>135</ele>
        <time>2022-10-15T16:18:53Z</time>
      </trkpt>
      <trkpt lat="43.66753" lon="1.44827">
        <ele>135</ele>
        <time>2022-10-15T16:18:54Z</time>
      </trkpt>
      <trkpt lat="43.66748" lon="1.44822">
        <ele>135</ele>
        <time>2022-10-15T16:18:55Z</time>
      </trkpt>
      <trkpt lat="43.66743" lon="1.44818">
        <ele>135</ele>
        <time>2022-10-15T16:18:56Z</time>
      </trkpt>
      <trkpt lat="43.66737" lon="1.44818">
        <ele>135</ele>
        <time>2022-10-15T16:18:57Z</time>
      </trkpt>
      <trkpt lat="43.66732" lon="1.4482">
        <ele>135</ele>
        <time>2022-10-15T16:18:58Z</time>
      </trkpt>
      <trkpt lat="43.66678" lon="1.44859">
        <ele>135</ele>
        <time>2022-10-15T16:19:08Z</time>
      </trkpt>
      <trkpt lat="43.66655" lon="1.4486">
        <ele>135</ele>
        <time>2022-10-15T16:19:12Z</time>
      </trkpt>
      <trkpt lat="43.66638" lon="1.44854">
        <ele>135</ele>
        <time>2022-10-15T16:19:15Z</time>
      </trkpt>
      <trkpt lat="43.66628" lon="1.44847">
        <ele>135</ele>
        <time>2022-10-15T16:19:17Z</time>
      </trkpt>
      <trkpt lat="43.66607" lon="1.44816">
        <ele>135</ele>
        <time>2022-10-15T16:19:22Z</time>
      </trkpt>
      <trkpt lat="43.66577" lon="1.44765">
        <ele>136</ele>
        <time>2022-10-15T16:19:30Z</time>
      </trkpt>
      <trkpt lat="43.6655" lon="1.44732">
        <ele>137</ele>
        <time>2022-10-15T16:19:37Z</time>
      </trkpt>
      <trkpt lat="43.66518" lon="1.44711">
        <ele>138</ele>
        <time>2022-10-15T16:19:44Z</time>
      </trkpt>
      <trkpt lat="43.66514" lon="1.44708">
        <ele>138</ele>
        <time>2022-10-15T16:19:46Z</time>
      </trkpt>
      <trkpt lat="43.66511" lon="1.44712">
        <ele>138</ele>
        <time>2022-10-15T16:19:48Z</time>
      </trkpt>
      <trkpt lat="43.66491" lon="1.44773">
        <ele>138</ele>
        <time>2022-10-15T16:19:59Z</time>
      </trkpt>
      <trkpt lat="43.66487" lon="1.44795">
        <ele>138</ele>
        <time>2022-10-15T16:20:02Z</time>
      </trkpt>
      <trkpt lat="43.66415" lon="1.45002">
        <ele>137</ele>
        <time>2022-10-15T16:20:30Z</time>
      </trkpt>
      <trkpt lat="43.66407" lon="1.45041">
        <ele>137</ele>
        <time>2022-10-15T16:20:35Z</time>
      </trkpt>
      <trkpt lat="43.66389" lon="1.45099">
        <ele>137</ele>
        <time>2022-10-15T16:20:43Z</time>
      </trkpt>
      <trkpt lat="43.6636" lon="1.45163">
        <ele>138</ele>
        <time>2022-10-15T16:20:53Z</time>
      </trkpt>
      <trkpt lat="43.66357" lon="1.45174">
        <ele>137</ele>
        <time>2022-10-15T16:20:55Z</time>
      </trkpt>
      <trkpt lat="43.6636" lon="1.45182">
        <ele>137</ele>
        <time>2022-10-15T16:20:57Z</time>
      </trkpt>
      <trkpt lat="43.6636" lon="1.45188">
        <ele>137</ele>
        <time>2022-10-15T16:20:58Z</time>
      </trkpt>
      <trkpt lat="43.66359" lon="1.45193">
        <ele>137</ele>
        <time>2022-10-15T16:20:59Z</time>
      </trkpt>
      <trkpt lat="43.66357" lon="1.45198">
        <ele>137</ele>
        <time>2022-10-15T16:21:00Z</time>
      </trkpt>
      <trkpt lat="43.66347" lon="1.45238">
        <ele>136</ele>
        <time>2022-10-15T16:21:05Z</time>
      </trkpt>
      <trkpt lat="43.66343" lon="1.45246">
        <ele>136</ele>
        <time>2022-10-15T16:21:06Z</time>
      </trkpt>
      <trkpt lat="43.66336" lon="1.45257">
        <ele>137</ele>
        <time>2022-10-15T16:21:08Z</time>
      </trkpt>
      <trkpt lat="43.66258" lon="1.45461">
        <ele>137</ele>
        <time>2022-10-15T16:21:38Z</time>
      </trkpt>
      <trkpt lat="43.6621" lon="1.45625">
        <ele>137</ele>
        <time>2022-10-15T16:22:01Z</time>
      </trkpt>
      <trkpt lat="43.66206" lon="1.45631">
        <ele>137</ele>
        <time>2022-10-15T16:22:02Z</time>
      </trkpt>
      <trkpt lat="43.66201" lon="1.45633">
        <ele>137</ele>
        <time>2022-10-15T16:22:03Z</time>
      </trkpt>
      <trkpt lat="43.66196" lon="1.45632">
        <ele>138</ele>
        <time>2022-10-15T16:22:04Z</time>
      </trkpt>
      <trkpt lat="43.66171" lon="1.456">
        <ele>137</ele>
        <time>2022-10-15T16:22:10Z</time>
      </trkpt>
      <trkpt lat="43.6616" lon="1.45585">
        <ele>137</ele>
        <time>2022-10-15T16:22:14Z</time>
      </trkpt>
      <trkpt lat="43.66101" lon="1.45538">
        <ele>137</ele>
        <time>2022-10-15T16:22:27Z</time>
      </trkpt>
      <trkpt lat="43.66098" lon="1.45538">
        <ele>137</ele>
        <time>2022-10-15T16:22:28Z</time>
      </trkpt>
      <trkpt lat="43.66086" lon="1.4553">
        <ele>137</ele>
        <time>2022-10-15T16:22:32Z</time>
      </trkpt>
      <trkpt lat="43.66081" lon="1.45531">
        <ele>137</ele>
        <time>2022-10-15T16:22:33Z</time>
      </trkpt>
      <trkpt lat="43.66076" lon="1.45534">
        <ele>137</ele>
        <time>2022-10-15T16:22:34Z</time>
      </trkpt>
      <trkpt lat="43.66071" lon="1.45536">
        <ele>137</ele>
        <time>2022-10-15T16:22:35Z</time>
      </trkpt>
      <trkpt lat="43.66066" lon="1.45535">
        <ele>137</ele>
        <time>2022-10-15T16:22:36Z</time>
      </trkpt>
      <trkpt lat="43.66035" lon="1.45514">
        <ele>137</ele>
        <time>2022-10-15T16:22:42Z</time>
      </trkpt>
      <trkpt lat="43.66003" lon="1.45487">
        <ele>138</ele>
        <time>2022-10-15T16:22:49Z</time>
      </trkpt>
      <trkpt lat="43.65983" lon="1.45477">
        <ele>139</ele>
        <time>2022-10-15T16:22:53Z</time>
      </trkpt>
      <trkpt lat="43.65967" lon="1.45457">
        <ele>140</ele>
        <time>2022-10-15T16:22:57Z</time>
      </trkpt>
      <trkpt lat="43.65956" lon="1.45453">
        <ele>140</ele>
        <time>2022-10-15T16:22:59Z</time>
      </trkpt>
      <trkpt lat="43.65945" lon="1.45454">
        <ele>140</ele>
        <time>2022-10-15T16:23:01Z</time>
      </trkpt>
      <trkpt lat="43.65938" lon="1.45456">
        <ele>140</ele>
        <time>2022-10-15T16:23:02Z</time>
      </trkpt>
      <trkpt lat="43.65923" lon="1.45469">
        <ele>140</ele>
        <time>2022-10-15T16:23:05Z</time>
      </trkpt>
      <trkpt lat="43.65901" lon="1.45472">
        <ele>140</ele>
        <time>2022-10-15T16:23:09Z</time>
      </trkpt>
      <trkpt lat="43.65892" lon="1.45471">
        <ele>140</ele>
        <time>2022-10-15T16:23:11Z</time>
      </trkpt>
      <trkpt lat="43.65809" lon="1.45496">
        <ele>140</ele>
        <time>2022-10-15T16:23:36Z</time>
      </trkpt>
      <trkpt lat="43.65803" lon="1.45496">
        <ele>140</ele>
        <time>2022-10-15T16:23:37Z</time>
      </trkpt>
      <trkpt lat="43.65745" lon="1.4548">
        <ele>140</ele>
        <time>2022-10-15T16:23:47Z</time>
      </trkpt>
      <trkpt lat="43.6572" lon="1.45474">
        <ele>139</ele>
        <time>2022-10-15T16:23:51Z</time>
      </trkpt>
      <trkpt lat="43.65543" lon="1.45403">
        <ele>138</ele>
        <time>2022-10-15T16:24:21Z</time>
      </trkpt>
      <trkpt lat="43.65449" lon="1.45372">
        <ele>138</ele>
        <time>2022-10-15T16:24:37Z</time>
      </trkpt>
      <trkpt lat="43.65439" lon="1.45364">
        <ele>138</ele>
        <time>2022-10-15T16:24:39Z</time>
      </trkpt>
      <trkpt lat="43.65436" lon="1.45357">
        <ele>138</ele>
        <time>2022-10-15T16:24:40Z</time>
      </trkpt>
      <trkpt lat="43.65437" lon="1.45349">
        <ele>138</ele>
        <time>2022-10-15T16:24:41Z</time>
      </trkpt>
      <trkpt lat="43.65465" lon="1.45303">
        <ele>138</ele>
        <time>2022-10-15T16:24:48Z</time>
      </trkpt>
      <trkpt lat="43.656" lon="1.45156">
        <ele>139</ele>
        <time>2022-10-15T16:25:17Z</time>
      </trkpt>
      <trkpt lat="43.65603" lon="1.45147">
        <ele>139</ele>
        <time>2022-10-15T16:25:18Z</time>
      </trkpt>
      <trkpt lat="43.65604" lon="1.45139">
        <ele>139</ele>
        <time>2022-10-15T16:25:19Z</time>
      </trkpt>
      <trkpt lat="43.65603" lon="1.45122">
        <ele>139</ele>
        <time>2022-10-15T16:25:21Z</time>
      </trkpt>
      <trkpt lat="43.65595" lon="1.45109">
        <ele>139</ele>
        <time>2022-10-15T16:25:23Z</time>
      </trkpt>
      <trkpt lat="43.65478" lon="1.44938">
        <ele>140</ele>
        <time>2022-10-15T16:25:53Z</time>
      </trkpt>
      <trkpt lat="43.65474" lon="1.44931">
        <ele>140</ele>
        <time>2022-10-15T16:25:54Z</time>
      </trkpt>
      <trkpt lat="43.65474" lon="1.44923">
        <ele>140</ele>
        <time>2022-10-15T16:25:55Z</time>
      </trkpt>
      <trkpt lat="43.65517" lon="1.44827">
        <ele>140</ele>
        <time>2022-10-15T16:26:08Z</time>
      </trkpt>
      <trkpt lat="43.65607" lon="1.44661">
        <ele>138</ele>
        <time>2022-10-15T16:26:33Z</time>
      </trkpt>
      <trkpt lat="43.65607" lon="1.44656">
        <ele>138</ele>
        <time>2022-10-15T16:26:34Z</time>
      </trkpt>
      <trkpt lat="43.65606" lon="1.44647">
        <ele>138</ele>
        <time>2022-10-15T16:26:36Z</time>
      </trkpt>
      <trkpt lat="43.65602" lon="1.44641">
        <ele>138</ele>
        <time>2022-10-15T16:26:38Z</time>
      </trkpt>
      <trkpt lat="43.65583" lon="1.44632">
        <ele>139</ele>
        <time>2022-10-15T16:26:43Z</time>
      </trkpt>
      <trkpt lat="43.65579" lon="1.44626">
        <ele>139</ele>
        <time>2022-10-15T16:26:45Z</time>
      </trkpt>
      <trkpt lat="43.65575" lon="1.4462">
        <ele>139</ele>
        <time>2022-10-15T16:26:47Z</time>
      </trkpt>
      <trkpt lat="43.65564" lon="1.44613">
        <ele>140</ele>
        <time>2022-10-15T16:26:51Z</time>
      </trkpt>
      <trkpt lat="43.65562" lon="1.44606">
        <ele>140</ele>
        <time>2022-10-15T16:27:05Z</time>
      </trkpt>
      <trkpt lat="43.65566" lon="1.44594">
        <ele>140</ele>
        <time>2022-10-15T16:27:09Z</time>
      </trkpt>
      <trkpt lat="43.6557" lon="1.44589">
        <ele>140</ele>
        <time>2022-10-15T16:27:11Z</time>
      </trkpt>
      <trkpt lat="43.65573" lon="1.44584">
        <ele>140</ele>
        <time>2022-10-15T16:27:13Z</time>
      </trkpt>
    </trkseg>
  </trk>
</gpx>